<?xml version="1.0" encoding="UTF-8" standalone="no" ?>
<gpx xmlns="http://www.topografix.com/GPX/1/1" xmlns:xsi="http://www.w3.org/2001/XMLSchema-instance" xsi:schemaLocation="http://www.topografix.com/GPX/1/1 http://www.topografix.com/GPX/1/1/gpx.xsd" version="1.1" creator="VisuGPX - https://www.visugpx.com">
  <metadata>
    <name>Cours du Faubourg St Antoine et voie verte jusqu'à Bercy</name>
    <desc><![CDATA[Visite guidée des cours du Faubourg  St Antoine en petit groupe]]></desc>
  </metadata>
  <trk>
    <name><![CDATA[SityTrail - Cours du Faubourg St Antoine et voie verte jusqu'à Bercy]]></name>
    <desc><![CDATA[Visite guidée des cours du Faubourg  St Antoine en petit groupe]]></desc>
    <trkseg>
      <trkpt lat="48.85118" lon="2.37608">
        <ele>46</ele>
        <time>2022-02-07T13:23:21.135Z</time>
      </trkpt>
      <trkpt lat="48.85118" lon="2.37605">
        <ele>46</ele>
        <time>2022-02-07T13:23:21.999Z</time>
      </trkpt>
      <trkpt lat="48.85126" lon="2.3761">
        <ele>47</ele>
        <time>2022-02-07T13:23:26.999Z</time>
      </trkpt>
      <trkpt lat="48.8513" lon="2.37606">
        <ele>47</ele>
        <time>2022-02-07T13:23:30.999Z</time>
      </trkpt>
      <trkpt lat="48.85135" lon="2.37599">
        <ele>47</ele>
        <time>2022-02-07T13:23:34.999Z</time>
      </trkpt>
      <trkpt lat="48.85137" lon="2.37591">
        <ele>46</ele>
        <time>2022-02-07T13:23:39.999Z</time>
      </trkpt>
      <trkpt lat="48.85138" lon="2.37586">
        <ele>46</ele>
        <time>2022-02-07T13:23:43.999Z</time>
      </trkpt>
      <trkpt lat="48.85139" lon="2.37582">
        <ele>46</ele>
        <time>2022-02-07T13:23:47.999Z</time>
      </trkpt>
      <trkpt lat="48.8514" lon="2.37573">
        <ele>46</ele>
        <time>2022-02-07T13:23:52.999Z</time>
      </trkpt>
      <trkpt lat="48.8514" lon="2.37565">
        <ele>45</ele>
        <time>2022-02-07T13:23:57.999Z</time>
      </trkpt>
      <trkpt lat="48.85142" lon="2.37558">
        <ele>45</ele>
        <time>2022-02-07T13:24:01.999Z</time>
      </trkpt>
      <trkpt lat="48.85143" lon="2.37547">
        <ele>45</ele>
        <time>2022-02-07T13:24:06.999Z</time>
      </trkpt>
      <trkpt lat="48.85147" lon="2.37536">
        <ele>45</ele>
        <time>2022-02-07T13:24:11.999Z</time>
      </trkpt>
      <trkpt lat="48.85149" lon="2.37528">
        <ele>45</ele>
        <time>2022-02-07T13:24:15.999Z</time>
      </trkpt>
      <trkpt lat="48.85152" lon="2.37521">
        <ele>45</ele>
        <time>2022-02-07T13:24:19.999Z</time>
      </trkpt>
      <trkpt lat="48.85154" lon="2.37511">
        <ele>43</ele>
        <time>2022-02-07T13:24:24.999Z</time>
      </trkpt>
      <trkpt lat="48.85156" lon="2.37501">
        <ele>43</ele>
        <time>2022-02-07T13:24:29.999Z</time>
      </trkpt>
      <trkpt lat="48.85157" lon="2.37492">
        <ele>43</ele>
        <time>2022-02-07T13:24:34.999Z</time>
      </trkpt>
      <trkpt lat="48.85159" lon="2.37485">
        <ele>43</ele>
        <time>2022-02-07T13:24:39.999Z</time>
      </trkpt>
      <trkpt lat="48.85163" lon="2.37477">
        <ele>43</ele>
        <time>2022-02-07T13:24:44.999Z</time>
      </trkpt>
      <trkpt lat="48.85167" lon="2.37468">
        <ele>43</ele>
        <time>2022-02-07T13:24:49.999Z</time>
      </trkpt>
      <trkpt lat="48.85167" lon="2.37461">
        <ele>43</ele>
        <time>2022-02-07T13:24:53.999Z</time>
      </trkpt>
      <trkpt lat="48.85169" lon="2.37455">
        <ele>43</ele>
        <time>2022-02-07T13:24:58.999Z</time>
      </trkpt>
      <trkpt lat="48.85168" lon="2.37449">
        <ele>43</ele>
        <time>2022-02-07T13:25:03.999Z</time>
      </trkpt>
      <trkpt lat="48.85169" lon="2.37444">
        <ele>43</ele>
        <time>2022-02-07T13:25:07.999Z</time>
      </trkpt>
      <trkpt lat="48.85169" lon="2.37436">
        <ele>43</ele>
        <time>2022-02-07T13:25:12.999Z</time>
      </trkpt>
      <trkpt lat="48.8517" lon="2.37427">
        <ele>43</ele>
        <time>2022-02-07T13:25:17.999Z</time>
      </trkpt>
      <trkpt lat="48.8517" lon="2.37421">
        <ele>43</ele>
        <time>2022-02-07T13:25:22.999Z</time>
      </trkpt>
      <trkpt lat="48.85171" lon="2.37418">
        <ele>43</ele>
        <time>2022-02-07T13:25:26.999Z</time>
      </trkpt>
      <trkpt lat="48.85171" lon="2.37411">
        <ele>43</ele>
        <time>2022-02-07T13:25:31.999Z</time>
      </trkpt>
      <trkpt lat="48.85171" lon="2.37406">
        <ele>43</ele>
        <time>2022-02-07T13:25:35.999Z</time>
      </trkpt>
      <trkpt lat="48.85174" lon="2.37398">
        <ele>44</ele>
        <time>2022-02-07T13:25:39.999Z</time>
      </trkpt>
      <trkpt lat="48.8518" lon="2.37393">
        <ele>44</ele>
        <time>2022-02-07T13:25:44.999Z</time>
      </trkpt>
      <trkpt lat="48.8519" lon="2.3739">
        <ele>43</ele>
        <time>2022-02-07T13:28:52.999Z</time>
      </trkpt>
      <trkpt lat="48.85191" lon="2.3739">
        <ele>43</ele>
        <time>2022-02-07T13:28:57.999Z</time>
      </trkpt>
      <trkpt lat="48.85195" lon="2.37395">
        <ele>43</ele>
        <time>2022-02-07T13:29:02.999Z</time>
      </trkpt>
      <trkpt lat="48.85196" lon="2.37399">
        <ele>43</ele>
        <time>2022-02-07T13:29:06.999Z</time>
      </trkpt>
      <trkpt lat="48.852" lon="2.37403">
        <ele>43</ele>
        <time>2022-02-07T13:29:11.999Z</time>
      </trkpt>
      <trkpt lat="48.85206" lon="2.37402">
        <ele>43</ele>
        <time>2022-02-07T13:29:16.999Z</time>
      </trkpt>
      <trkpt lat="48.85211" lon="2.37406">
        <ele>43</ele>
        <time>2022-02-07T13:29:20.999Z</time>
      </trkpt>
      <trkpt lat="48.85215" lon="2.37407">
        <ele>43</ele>
        <time>2022-02-07T13:29:25.999Z</time>
      </trkpt>
      <trkpt lat="48.85222" lon="2.37406">
        <ele>43</ele>
        <time>2022-02-07T13:29:30.999Z</time>
      </trkpt>
      <trkpt lat="48.85229" lon="2.37404">
        <ele>43</ele>
        <time>2022-02-07T13:29:34.999Z</time>
      </trkpt>
      <trkpt lat="48.85233" lon="2.37405">
        <ele>43</ele>
        <time>2022-02-07T13:29:39.999Z</time>
      </trkpt>
      <trkpt lat="48.85239" lon="2.37409">
        <ele>43</ele>
        <time>2022-02-07T13:29:44.999Z</time>
      </trkpt>
      <trkpt lat="48.85246" lon="2.37412">
        <ele>43</ele>
        <time>2022-02-07T13:29:49.999Z</time>
      </trkpt>
      <trkpt lat="48.85252" lon="2.37415">
        <ele>43</ele>
        <time>2022-02-07T13:29:54.999Z</time>
      </trkpt>
      <trkpt lat="48.85255" lon="2.37418">
        <ele>43</ele>
        <time>2022-02-07T13:29:59.999Z</time>
      </trkpt>
      <trkpt lat="48.85261" lon="2.37421">
        <ele>43</ele>
        <time>2022-02-07T13:30:04.999Z</time>
      </trkpt>
      <trkpt lat="48.85266" lon="2.37426">
        <ele>45</ele>
        <time>2022-02-07T13:30:09.999Z</time>
      </trkpt>
      <trkpt lat="48.85269" lon="2.3743">
        <ele>45</ele>
        <time>2022-02-07T13:30:14.999Z</time>
      </trkpt>
      <trkpt lat="48.85274" lon="2.37435">
        <ele>44</ele>
        <time>2022-02-07T13:30:19.999Z</time>
      </trkpt>
      <trkpt lat="48.85275" lon="2.3744">
        <ele>44</ele>
        <time>2022-02-07T13:30:24.999Z</time>
      </trkpt>
      <trkpt lat="48.85278" lon="2.37445">
        <ele>44</ele>
        <time>2022-02-07T13:30:29.999Z</time>
      </trkpt>
      <trkpt lat="48.85281" lon="2.37448">
        <ele>44</ele>
        <time>2022-02-07T13:30:34.999Z</time>
      </trkpt>
      <trkpt lat="48.85287" lon="2.37453">
        <ele>44</ele>
        <time>2022-02-07T13:30:39.999Z</time>
      </trkpt>
      <trkpt lat="48.85293" lon="2.37458">
        <ele>43</ele>
        <time>2022-02-07T13:30:44.999Z</time>
      </trkpt>
      <trkpt lat="48.853" lon="2.37464">
        <ele>42</ele>
        <time>2022-02-07T13:30:49.999Z</time>
      </trkpt>
      <trkpt lat="48.85305" lon="2.37471">
        <ele>42</ele>
        <time>2022-02-07T13:30:54.999Z</time>
      </trkpt>
      <trkpt lat="48.85309" lon="2.37476">
        <ele>42</ele>
        <time>2022-02-07T13:30:58.999Z</time>
      </trkpt>
      <trkpt lat="48.85315" lon="2.37482">
        <ele>42</ele>
        <time>2022-02-07T13:31:03.999Z</time>
      </trkpt>
      <trkpt lat="48.85319" lon="2.3749">
        <ele>40</ele>
        <time>2022-02-07T13:31:08.999Z</time>
      </trkpt>
      <trkpt lat="48.85322" lon="2.37496">
        <ele>40</ele>
        <time>2022-02-07T13:31:12.999Z</time>
      </trkpt>
      <trkpt lat="48.85324" lon="2.375">
        <ele>40</ele>
        <time>2022-02-07T13:31:17.999Z</time>
      </trkpt>
      <trkpt lat="48.85326" lon="2.37505">
        <ele>40</ele>
        <time>2022-02-07T13:31:21.999Z</time>
      </trkpt>
      <trkpt lat="48.85328" lon="2.37511">
        <ele>40</ele>
        <time>2022-02-07T13:31:25.999Z</time>
      </trkpt>
      <trkpt lat="48.85331" lon="2.37521">
        <ele>39</ele>
        <time>2022-02-07T13:31:30.999Z</time>
      </trkpt>
      <trkpt lat="48.85333" lon="2.37529">
        <ele>39</ele>
        <time>2022-02-07T13:31:35.999Z</time>
      </trkpt>
      <trkpt lat="48.85333" lon="2.37537">
        <ele>39</ele>
        <time>2022-02-07T13:31:40.999Z</time>
      </trkpt>
      <trkpt lat="48.85329" lon="2.37541">
        <ele>39</ele>
        <time>2022-02-07T13:31:44.999Z</time>
      </trkpt>
      <trkpt lat="48.85323" lon="2.37545">
        <ele>39</ele>
        <time>2022-02-07T13:31:49.999Z</time>
      </trkpt>
      <trkpt lat="48.85316" lon="2.37548">
        <ele>40</ele>
        <time>2022-02-07T13:31:54.999Z</time>
      </trkpt>
      <trkpt lat="48.85309" lon="2.37549">
        <ele>40</ele>
        <time>2022-02-07T13:31:58.999Z</time>
      </trkpt>
      <trkpt lat="48.85306" lon="2.37554">
        <ele>40</ele>
        <time>2022-02-07T13:32:03.999Z</time>
      </trkpt>
      <trkpt lat="48.85307" lon="2.37571">
        <ele>41</ele>
        <time>2022-02-07T13:32:44.999Z</time>
      </trkpt>
      <trkpt lat="48.85306" lon="2.37571">
        <ele>41</ele>
        <time>2022-02-07T13:32:49.999Z</time>
      </trkpt>
      <trkpt lat="48.85305" lon="2.37571">
        <ele>41</ele>
        <time>2022-02-07T13:32:53.999Z</time>
      </trkpt>
      <trkpt lat="48.85305" lon="2.37576">
        <ele>41</ele>
        <time>2022-02-07T13:32:58.999Z</time>
      </trkpt>
      <trkpt lat="48.85304" lon="2.37575">
        <ele>41</ele>
        <time>2022-02-07T13:33:02.999Z</time>
      </trkpt>
      <trkpt lat="48.85302" lon="2.37575">
        <ele>41</ele>
        <time>2022-02-07T13:40:52.999Z</time>
      </trkpt>
      <trkpt lat="48.85296" lon="2.37573">
        <ele>41</ele>
        <time>2022-02-07T13:40:56.999Z</time>
      </trkpt>
      <trkpt lat="48.85291" lon="2.37576">
        <ele>40</ele>
        <time>2022-02-07T13:41:01.999Z</time>
      </trkpt>
      <trkpt lat="48.85287" lon="2.37575">
        <ele>40</ele>
        <time>2022-02-07T13:41:06.999Z</time>
      </trkpt>
      <trkpt lat="48.85282" lon="2.3758">
        <ele>40</ele>
        <time>2022-02-07T13:41:11.999Z</time>
      </trkpt>
      <trkpt lat="48.85278" lon="2.37587">
        <ele>40</ele>
        <time>2022-02-07T13:41:16.999Z</time>
      </trkpt>
      <trkpt lat="48.85276" lon="2.3759">
        <ele>40</ele>
        <time>2022-02-07T13:41:21.999Z</time>
      </trkpt>
      <trkpt lat="48.85276" lon="2.37592">
        <ele>40</ele>
        <time>2022-02-07T13:41:25.999Z</time>
      </trkpt>
      <trkpt lat="48.85278" lon="2.37597">
        <ele>40</ele>
        <time>2022-02-07T13:41:30.999Z</time>
      </trkpt>
      <trkpt lat="48.85281" lon="2.37603">
        <ele>41</ele>
        <time>2022-02-07T13:41:35.999Z</time>
      </trkpt>
      <trkpt lat="48.85275" lon="2.37605">
        <ele>41</ele>
        <time>2022-02-07T13:41:53.999Z</time>
      </trkpt>
      <trkpt lat="48.85274" lon="2.37607">
        <ele>41</ele>
        <time>2022-02-07T13:41:58.999Z</time>
      </trkpt>
      <trkpt lat="48.85273" lon="2.37608">
        <ele>41</ele>
        <time>2022-02-07T13:42:03.999Z</time>
      </trkpt>
      <trkpt lat="48.85272" lon="2.37607">
        <ele>41</ele>
        <time>2022-02-07T13:42:07.999Z</time>
      </trkpt>
      <trkpt lat="48.85271" lon="2.37607">
        <ele>41</ele>
        <time>2022-02-07T13:42:12.999Z</time>
      </trkpt>
      <trkpt lat="48.85273" lon="2.37604">
        <ele>41</ele>
        <time>2022-02-07T13:42:50.999Z</time>
      </trkpt>
      <trkpt lat="48.85271" lon="2.3761">
        <ele>41</ele>
        <time>2022-02-07T13:42:55.999Z</time>
      </trkpt>
      <trkpt lat="48.85269" lon="2.37612">
        <ele>41</ele>
        <time>2022-02-07T13:42:59.999Z</time>
      </trkpt>
      <trkpt lat="48.85265" lon="2.3761">
        <ele>41</ele>
        <time>2022-02-07T13:43:03.999Z</time>
      </trkpt>
      <trkpt lat="48.85265" lon="2.3761">
        <ele>41</ele>
        <time>2022-02-07T13:43:08.999Z</time>
      </trkpt>
      <trkpt lat="48.85263" lon="2.37608">
        <ele>41</ele>
        <time>2022-02-07T13:45:05.999Z</time>
      </trkpt>
      <trkpt lat="48.85263" lon="2.37608">
        <ele>41</ele>
        <time>2022-02-07T13:45:09.999Z</time>
      </trkpt>
      <trkpt lat="48.85262" lon="2.37609">
        <ele>41</ele>
        <time>2022-02-07T13:45:13.999Z</time>
      </trkpt>
      <trkpt lat="48.85261" lon="2.37616">
        <ele>41</ele>
        <time>2022-02-07T13:45:18.999Z</time>
      </trkpt>
      <trkpt lat="48.85262" lon="2.37626">
        <ele>43</ele>
        <time>2022-02-07T13:45:23.999Z</time>
      </trkpt>
      <trkpt lat="48.8526" lon="2.37629">
        <ele>43</ele>
        <time>2022-02-07T13:45:28.999Z</time>
      </trkpt>
      <trkpt lat="48.8526" lon="2.3762">
        <ele>41</ele>
        <time>2022-02-07T13:45:33.999Z</time>
      </trkpt>
      <trkpt lat="48.8526" lon="2.37614">
        <ele>41</ele>
        <time>2022-02-07T13:45:38.999Z</time>
      </trkpt>
      <trkpt lat="48.85261" lon="2.3761">
        <ele>41</ele>
        <time>2022-02-07T13:45:43.999Z</time>
      </trkpt>
      <trkpt lat="48.85258" lon="2.37619">
        <ele>41</ele>
        <time>2022-02-07T13:48:02.999Z</time>
      </trkpt>
      <trkpt lat="48.85257" lon="2.37619">
        <ele>41</ele>
        <time>2022-02-07T13:48:06.999Z</time>
      </trkpt>
      <trkpt lat="48.85257" lon="2.3762">
        <ele>41</ele>
        <time>2022-02-07T13:48:11.999Z</time>
      </trkpt>
      <trkpt lat="48.85257" lon="2.37622">
        <ele>41</ele>
        <time>2022-02-07T13:48:15.999Z</time>
      </trkpt>
      <trkpt lat="48.85256" lon="2.37623">
        <ele>41</ele>
        <time>2022-02-07T13:48:20.999Z</time>
      </trkpt>
      <trkpt lat="48.85256" lon="2.3762">
        <ele>41</ele>
        <time>2022-02-07T13:48:35.999Z</time>
      </trkpt>
      <trkpt lat="48.85251" lon="2.37619">
        <ele>41</ele>
        <time>2022-02-07T13:48:40.999Z</time>
      </trkpt>
      <trkpt lat="48.85249" lon="2.37618">
        <ele>41</ele>
        <time>2022-02-07T13:48:45.999Z</time>
      </trkpt>
      <trkpt lat="48.85248" lon="2.37618">
        <ele>41</ele>
        <time>2022-02-07T13:48:50.999Z</time>
      </trkpt>
      <trkpt lat="48.85248" lon="2.37615">
        <ele>41</ele>
        <time>2022-02-07T13:48:54.999Z</time>
      </trkpt>
      <trkpt lat="48.85249" lon="2.37619">
        <ele>41</ele>
        <time>2022-02-07T13:48:58.999Z</time>
      </trkpt>
      <trkpt lat="48.85249" lon="2.37636">
        <ele>43</ele>
        <time>2022-02-07T13:49:02.999Z</time>
      </trkpt>
      <trkpt lat="48.85247" lon="2.37652">
        <ele>43</ele>
        <time>2022-02-07T13:49:07.999Z</time>
      </trkpt>
      <trkpt lat="48.85251" lon="2.37654">
        <ele>44</ele>
        <time>2022-02-07T13:49:11.999Z</time>
      </trkpt>
      <trkpt lat="48.85267" lon="2.37665">
        <ele>44</ele>
        <time>2022-02-07T13:51:08.999Z</time>
      </trkpt>
      <trkpt lat="48.85267" lon="2.37665">
        <ele>44</ele>
        <time>2022-02-07T13:51:12.999Z</time>
      </trkpt>
      <trkpt lat="48.85267" lon="2.37665">
        <ele>44</ele>
        <time>2022-02-07T13:51:16.999Z</time>
      </trkpt>
      <trkpt lat="48.85267" lon="2.37665">
        <ele>44</ele>
        <time>2022-02-07T13:51:21.999Z</time>
      </trkpt>
      <trkpt lat="48.85267" lon="2.37665">
        <ele>44</ele>
        <time>2022-02-07T13:51:26.999Z</time>
      </trkpt>
      <trkpt lat="48.85267" lon="2.37665">
        <ele>44</ele>
        <time>2022-02-07T13:51:31.999Z</time>
      </trkpt>
      <trkpt lat="48.85267" lon="2.37665">
        <ele>44</ele>
        <time>2022-02-07T13:51:35.999Z</time>
      </trkpt>
      <trkpt lat="48.85265" lon="2.37665">
        <ele>44</ele>
        <time>2022-02-07T13:51:42.999Z</time>
      </trkpt>
      <trkpt lat="48.85262" lon="2.37661">
        <ele>44</ele>
        <time>2022-02-07T13:51:46.999Z</time>
      </trkpt>
      <trkpt lat="48.8526" lon="2.37654">
        <ele>44</ele>
        <time>2022-02-07T13:51:51.999Z</time>
      </trkpt>
      <trkpt lat="48.8526" lon="2.37652">
        <ele>43</ele>
        <time>2022-02-07T13:51:56.999Z</time>
      </trkpt>
      <trkpt lat="48.85259" lon="2.37655">
        <ele>44</ele>
        <time>2022-02-07T13:52:01.999Z</time>
      </trkpt>
      <trkpt lat="48.85259" lon="2.37665">
        <ele>44</ele>
        <time>2022-02-07T13:52:06.999Z</time>
      </trkpt>
      <trkpt lat="48.85263" lon="2.37674">
        <ele>44</ele>
        <time>2022-02-07T13:52:11.999Z</time>
      </trkpt>
      <trkpt lat="48.85262" lon="2.37673">
        <ele>44</ele>
        <time>2022-02-07T13:52:16.999Z</time>
      </trkpt>
      <trkpt lat="48.85258" lon="2.37676">
        <ele>44</ele>
        <time>2022-02-07T13:52:19.999Z</time>
      </trkpt>
      <trkpt lat="48.85251" lon="2.37681">
        <ele>46</ele>
        <time>2022-02-07T13:52:27.168Z</time>
      </trkpt>
      <trkpt lat="48.85251" lon="2.37682">
        <ele>46</ele>
        <time>2022-02-07T13:52:31.999Z</time>
      </trkpt>
      <trkpt lat="48.8525" lon="2.37682">
        <ele>46</ele>
        <time>2022-02-07T13:52:35.999Z</time>
      </trkpt>
      <trkpt lat="48.85245" lon="2.37683">
        <ele>46</ele>
        <time>2022-02-07T13:52:39.999Z</time>
      </trkpt>
      <trkpt lat="48.85239" lon="2.37691">
        <ele>46</ele>
        <time>2022-02-07T13:52:44.999Z</time>
      </trkpt>
      <trkpt lat="48.85234" lon="2.3769">
        <ele>45</ele>
        <time>2022-02-07T13:52:49.999Z</time>
      </trkpt>
      <trkpt lat="48.8523" lon="2.37687">
        <ele>45</ele>
        <time>2022-02-07T13:52:54.999Z</time>
      </trkpt>
      <trkpt lat="48.85226" lon="2.37683">
        <ele>45</ele>
        <time>2022-02-07T13:52:59.999Z</time>
      </trkpt>
      <trkpt lat="48.85221" lon="2.37686">
        <ele>45</ele>
        <time>2022-02-07T13:53:03.999Z</time>
      </trkpt>
      <trkpt lat="48.85218" lon="2.37687">
        <ele>45</ele>
        <time>2022-02-07T13:53:07.999Z</time>
      </trkpt>
      <trkpt lat="48.85212" lon="2.37687">
        <ele>45</ele>
        <time>2022-02-07T13:53:12.999Z</time>
      </trkpt>
      <trkpt lat="48.85207" lon="2.37686">
        <ele>44</ele>
        <time>2022-02-07T13:53:17.999Z</time>
      </trkpt>
      <trkpt lat="48.85202" lon="2.37682">
        <ele>44</ele>
        <time>2022-02-07T13:53:22.999Z</time>
      </trkpt>
      <trkpt lat="48.85196" lon="2.37679">
        <ele>45</ele>
        <time>2022-02-07T13:53:27.999Z</time>
      </trkpt>
      <trkpt lat="48.85192" lon="2.37677">
        <ele>45</ele>
        <time>2022-02-07T13:53:31.999Z</time>
      </trkpt>
      <trkpt lat="48.85188" lon="2.37673">
        <ele>45</ele>
        <time>2022-02-07T13:53:36.999Z</time>
      </trkpt>
      <trkpt lat="48.85183" lon="2.3767">
        <ele>45</ele>
        <time>2022-02-07T13:53:40.999Z</time>
      </trkpt>
      <trkpt lat="48.85177" lon="2.37668">
        <ele>45</ele>
        <time>2022-02-07T13:53:45.999Z</time>
      </trkpt>
      <trkpt lat="48.85173" lon="2.37666">
        <ele>45</ele>
        <time>2022-02-07T13:53:49.999Z</time>
      </trkpt>
      <trkpt lat="48.85167" lon="2.37663">
        <ele>45</ele>
        <time>2022-02-07T13:53:54.999Z</time>
      </trkpt>
      <trkpt lat="48.85162" lon="2.37659">
        <ele>45</ele>
        <time>2022-02-07T13:53:58.999Z</time>
      </trkpt>
      <trkpt lat="48.85159" lon="2.37657">
        <ele>45</ele>
        <time>2022-02-07T13:54:02.999Z</time>
      </trkpt>
      <trkpt lat="48.85154" lon="2.37655">
        <ele>45</ele>
        <time>2022-02-07T13:54:07.999Z</time>
      </trkpt>
      <trkpt lat="48.85149" lon="2.37651">
        <ele>46</ele>
        <time>2022-02-07T13:54:12.999Z</time>
      </trkpt>
      <trkpt lat="48.85145" lon="2.37647">
        <ele>46</ele>
        <time>2022-02-07T13:54:17.999Z</time>
      </trkpt>
      <trkpt lat="48.85142" lon="2.37645">
        <ele>46</ele>
        <time>2022-02-07T13:54:21.999Z</time>
      </trkpt>
      <trkpt lat="48.85138" lon="2.37643">
        <ele>46</ele>
        <time>2022-02-07T13:54:26.999Z</time>
      </trkpt>
      <trkpt lat="48.85134" lon="2.37639">
        <ele>46</ele>
        <time>2022-02-07T13:54:31.999Z</time>
      </trkpt>
      <trkpt lat="48.85131" lon="2.37635">
        <ele>46</ele>
        <time>2022-02-07T13:54:35.999Z</time>
      </trkpt>
      <trkpt lat="48.8513" lon="2.37622">
        <ele>47</ele>
        <time>2022-02-07T13:54:40.999Z</time>
      </trkpt>
      <trkpt lat="48.85134" lon="2.37612">
        <ele>47</ele>
        <time>2022-02-07T13:54:45.999Z</time>
      </trkpt>
      <trkpt lat="48.85141" lon="2.37609">
        <ele>47</ele>
        <time>2022-02-07T13:54:50.999Z</time>
      </trkpt>
      <trkpt lat="48.85144" lon="2.37607">
        <ele>47</ele>
        <time>2022-02-07T13:54:54.999Z</time>
      </trkpt>
      <trkpt lat="48.85149" lon="2.37605">
        <ele>47</ele>
        <time>2022-02-07T13:54:59.999Z</time>
      </trkpt>
      <trkpt lat="48.85152" lon="2.37604">
        <ele>47</ele>
        <time>2022-02-07T13:55:03.999Z</time>
      </trkpt>
      <trkpt lat="48.85155" lon="2.37602">
        <ele>47</ele>
        <time>2022-02-07T13:55:07.999Z</time>
      </trkpt>
      <trkpt lat="48.85158" lon="2.37599">
        <ele>47</ele>
        <time>2022-02-07T13:55:12.999Z</time>
      </trkpt>
      <trkpt lat="48.85161" lon="2.37597">
        <ele>46</ele>
        <time>2022-02-07T13:55:16.999Z</time>
      </trkpt>
      <trkpt lat="48.85163" lon="2.3758">
        <ele>46</ele>
        <time>2022-02-07T13:56:06.999Z</time>
      </trkpt>
      <trkpt lat="48.85166" lon="2.3758">
        <ele>46</ele>
        <time>2022-02-07T13:56:10.999Z</time>
      </trkpt>
      <trkpt lat="48.85177" lon="2.37579">
        <ele>46</ele>
        <time>2022-02-07T13:56:15.999Z</time>
      </trkpt>
      <trkpt lat="48.85183" lon="2.37578">
        <ele>44</ele>
        <time>2022-02-07T13:56:19.999Z</time>
      </trkpt>
      <trkpt lat="48.85183" lon="2.37578">
        <ele>44</ele>
        <time>2022-02-07T13:56:23.999Z</time>
      </trkpt>
      <trkpt lat="48.85186" lon="2.3758">
        <ele>44</ele>
        <time>2022-02-07T13:58:14.999Z</time>
      </trkpt>
      <trkpt lat="48.85189" lon="2.37577">
        <ele>44</ele>
        <time>2022-02-07T13:58:19.999Z</time>
      </trkpt>
      <trkpt lat="48.85192" lon="2.37579">
        <ele>44</ele>
        <time>2022-02-07T13:58:23.999Z</time>
      </trkpt>
      <trkpt lat="48.85197" lon="2.37582">
        <ele>44</ele>
        <time>2022-02-07T13:58:28.999Z</time>
      </trkpt>
      <trkpt lat="48.85199" lon="2.37588">
        <ele>44</ele>
        <time>2022-02-07T13:58:33.999Z</time>
      </trkpt>
      <trkpt lat="48.85205" lon="2.37592">
        <ele>44</ele>
        <time>2022-02-07T14:00:26.999Z</time>
      </trkpt>
      <trkpt lat="48.85206" lon="2.37592">
        <ele>44</ele>
        <time>2022-02-07T14:00:31.999Z</time>
      </trkpt>
      <trkpt lat="48.85208" lon="2.37589">
        <ele>44</ele>
        <time>2022-02-07T14:00:35.999Z</time>
      </trkpt>
      <trkpt lat="48.85209" lon="2.37585">
        <ele>40</ele>
        <time>2022-02-07T14:00:40.999Z</time>
      </trkpt>
      <trkpt lat="48.85211" lon="2.37578">
        <ele>40</ele>
        <time>2022-02-07T14:00:45.999Z</time>
      </trkpt>
      <trkpt lat="48.85211" lon="2.37575">
        <ele>40</ele>
        <time>2022-02-07T14:00:49.999Z</time>
      </trkpt>
      <trkpt lat="48.85204" lon="2.37577">
        <ele>44</ele>
        <time>2022-02-07T14:00:54.999Z</time>
      </trkpt>
      <trkpt lat="48.85197" lon="2.37579">
        <ele>44</ele>
        <time>2022-02-07T14:00:59.999Z</time>
      </trkpt>
      <trkpt lat="48.85192" lon="2.37577">
        <ele>44</ele>
        <time>2022-02-07T14:01:04.999Z</time>
      </trkpt>
      <trkpt lat="48.85186" lon="2.37573">
        <ele>44</ele>
        <time>2022-02-07T14:01:09.999Z</time>
      </trkpt>
      <trkpt lat="48.85185" lon="2.37571">
        <ele>44</ele>
        <time>2022-02-07T14:01:14.999Z</time>
      </trkpt>
      <trkpt lat="48.85185" lon="2.37569">
        <ele>43</ele>
        <time>2022-02-07T14:01:18.999Z</time>
      </trkpt>
      <trkpt lat="48.85188" lon="2.37566">
        <ele>43</ele>
        <time>2022-02-07T14:01:23.999Z</time>
      </trkpt>
      <trkpt lat="48.85192" lon="2.3756">
        <ele>43</ele>
        <time>2022-02-07T14:01:28.999Z</time>
      </trkpt>
      <trkpt lat="48.85195" lon="2.37556">
        <ele>43</ele>
        <time>2022-02-07T14:01:33.999Z</time>
      </trkpt>
      <trkpt lat="48.85198" lon="2.37557">
        <ele>43</ele>
        <time>2022-02-07T14:01:38.999Z</time>
      </trkpt>
      <trkpt lat="48.85199" lon="2.37556">
        <ele>43</ele>
        <time>2022-02-07T14:01:43.999Z</time>
      </trkpt>
      <trkpt lat="48.85202" lon="2.37555">
        <ele>43</ele>
        <time>2022-02-07T14:01:48.999Z</time>
      </trkpt>
      <trkpt lat="48.8518" lon="2.37558">
        <ele>45</ele>
        <time>2022-02-07T14:01:54.999Z</time>
      </trkpt>
      <trkpt lat="48.85149" lon="2.37531">
        <ele>45</ele>
        <time>2022-02-07T14:02:39.999Z</time>
      </trkpt>
      <trkpt lat="48.85151" lon="2.37525">
        <ele>45</ele>
        <time>2022-02-07T14:02:44.999Z</time>
      </trkpt>
      <trkpt lat="48.85153" lon="2.3752">
        <ele>44</ele>
        <time>2022-02-07T14:02:49.999Z</time>
      </trkpt>
      <trkpt lat="48.85154" lon="2.37516">
        <ele>44</ele>
        <time>2022-02-07T14:02:53.999Z</time>
      </trkpt>
      <trkpt lat="48.85156" lon="2.3751">
        <ele>43</ele>
        <time>2022-02-07T14:02:58.999Z</time>
      </trkpt>
      <trkpt lat="48.85157" lon="2.37509">
        <ele>43</ele>
        <time>2022-02-07T14:03:02.999Z</time>
      </trkpt>
      <trkpt lat="48.85157" lon="2.3751">
        <ele>43</ele>
        <time>2022-02-07T14:03:07.999Z</time>
      </trkpt>
      <trkpt lat="48.85157" lon="2.37511">
        <ele>43</ele>
        <time>2022-02-07T14:03:12.999Z</time>
      </trkpt>
      <trkpt lat="48.85157" lon="2.37518">
        <ele>44</ele>
        <time>2022-02-07T14:03:16.999Z</time>
      </trkpt>
      <trkpt lat="48.85162" lon="2.37528">
        <ele>44</ele>
        <time>2022-02-07T14:03:21.999Z</time>
      </trkpt>
      <trkpt lat="48.85168" lon="2.37531">
        <ele>44</ele>
        <time>2022-02-07T14:03:26.999Z</time>
      </trkpt>
      <trkpt lat="48.8517" lon="2.37532">
        <ele>44</ele>
        <time>2022-02-07T14:03:30.999Z</time>
      </trkpt>
      <trkpt lat="48.85176" lon="2.37535">
        <ele>44</ele>
        <time>2022-02-07T14:03:35.999Z</time>
      </trkpt>
      <trkpt lat="48.85181" lon="2.37536">
        <ele>42</ele>
        <time>2022-02-07T14:03:39.999Z</time>
      </trkpt>
      <trkpt lat="48.85187" lon="2.37539">
        <ele>42</ele>
        <time>2022-02-07T14:03:44.999Z</time>
      </trkpt>
      <trkpt lat="48.85188" lon="2.37541">
        <ele>42</ele>
        <time>2022-02-07T14:03:49.999Z</time>
      </trkpt>
      <trkpt lat="48.85192" lon="2.37548">
        <ele>43</ele>
        <time>2022-02-07T14:03:53.999Z</time>
      </trkpt>
      <trkpt lat="48.85196" lon="2.37555">
        <ele>43</ele>
        <time>2022-02-07T14:03:58.999Z</time>
      </trkpt>
      <trkpt lat="48.852" lon="2.37559">
        <ele>43</ele>
        <time>2022-02-07T14:07:37.999Z</time>
      </trkpt>
      <trkpt lat="48.85197" lon="2.37555">
        <ele>43</ele>
        <time>2022-02-07T14:07:41.999Z</time>
      </trkpt>
      <trkpt lat="48.85194" lon="2.37552">
        <ele>43</ele>
        <time>2022-02-07T14:07:45.999Z</time>
      </trkpt>
      <trkpt lat="48.8519" lon="2.37549">
        <ele>43</ele>
        <time>2022-02-07T14:07:49.999Z</time>
      </trkpt>
      <trkpt lat="48.85188" lon="2.37548">
        <ele>43</ele>
        <time>2022-02-07T14:07:53.999Z</time>
      </trkpt>
      <trkpt lat="48.85185" lon="2.37548">
        <ele>43</ele>
        <time>2022-02-07T14:07:58.999Z</time>
      </trkpt>
      <trkpt lat="48.85182" lon="2.37546">
        <ele>43</ele>
        <time>2022-02-07T14:08:02.999Z</time>
      </trkpt>
      <trkpt lat="48.85177" lon="2.37545">
        <ele>45</ele>
        <time>2022-02-07T14:08:07.999Z</time>
      </trkpt>
      <trkpt lat="48.85174" lon="2.37542">
        <ele>45</ele>
        <time>2022-02-07T14:08:12.999Z</time>
      </trkpt>
      <trkpt lat="48.8517" lon="2.37539">
        <ele>44</ele>
        <time>2022-02-07T14:08:26.999Z</time>
      </trkpt>
      <trkpt lat="48.8517" lon="2.37542">
        <ele>45</ele>
        <time>2022-02-07T14:08:31.999Z</time>
      </trkpt>
      <trkpt lat="48.85169" lon="2.37526">
        <ele>44</ele>
        <time>2022-02-07T14:08:36.999Z</time>
      </trkpt>
      <trkpt lat="48.85154" lon="2.3751">
        <ele>43</ele>
        <time>2022-02-07T14:08:41.999Z</time>
      </trkpt>
      <trkpt lat="48.8515" lon="2.37502">
        <ele>45</ele>
        <time>2022-02-07T14:08:46.999Z</time>
      </trkpt>
      <trkpt lat="48.85152" lon="2.37497">
        <ele>45</ele>
        <time>2022-02-07T14:08:50.999Z</time>
      </trkpt>
      <trkpt lat="48.85156" lon="2.37492">
        <ele>43</ele>
        <time>2022-02-07T14:08:54.999Z</time>
      </trkpt>
      <trkpt lat="48.85159" lon="2.37486">
        <ele>43</ele>
        <time>2022-02-07T14:08:59.999Z</time>
      </trkpt>
      <trkpt lat="48.85163" lon="2.37481">
        <ele>43</ele>
        <time>2022-02-07T14:09:04.999Z</time>
      </trkpt>
      <trkpt lat="48.85165" lon="2.37476">
        <ele>43</ele>
        <time>2022-02-07T14:09:08.999Z</time>
      </trkpt>
      <trkpt lat="48.85167" lon="2.37476">
        <ele>43</ele>
        <time>2022-02-07T14:09:12.999Z</time>
      </trkpt>
      <trkpt lat="48.85173" lon="2.37481">
        <ele>43</ele>
        <time>2022-02-07T14:09:17.999Z</time>
      </trkpt>
      <trkpt lat="48.85179" lon="2.37486">
        <ele>43</ele>
        <time>2022-02-07T14:09:21.999Z</time>
      </trkpt>
      <trkpt lat="48.85186" lon="2.37501">
        <ele>43</ele>
        <time>2022-02-07T14:09:51.999Z</time>
      </trkpt>
      <trkpt lat="48.85189" lon="2.37506">
        <ele>43</ele>
        <time>2022-02-07T14:09:56.999Z</time>
      </trkpt>
      <trkpt lat="48.85194" lon="2.37513">
        <ele>43</ele>
        <time>2022-02-07T14:10:01.999Z</time>
      </trkpt>
      <trkpt lat="48.85197" lon="2.37517">
        <ele>42</ele>
        <time>2022-02-07T14:10:05.999Z</time>
      </trkpt>
      <trkpt lat="48.85197" lon="2.37522">
        <ele>42</ele>
        <time>2022-02-07T14:10:09.999Z</time>
      </trkpt>
      <trkpt lat="48.852" lon="2.37525">
        <ele>42</ele>
        <time>2022-02-07T14:10:13.999Z</time>
      </trkpt>
      <trkpt lat="48.85206" lon="2.37531">
        <ele>42</ele>
        <time>2022-02-07T14:10:18.999Z</time>
      </trkpt>
      <trkpt lat="48.85209" lon="2.37531">
        <ele>42</ele>
        <time>2022-02-07T14:10:22.999Z</time>
      </trkpt>
      <trkpt lat="48.85212" lon="2.37529">
        <ele>42</ele>
        <time>2022-02-07T14:10:27.999Z</time>
      </trkpt>
      <trkpt lat="48.85206" lon="2.3753">
        <ele>42</ele>
        <time>2022-02-07T14:13:03.999Z</time>
      </trkpt>
      <trkpt lat="48.85202" lon="2.37529">
        <ele>42</ele>
        <time>2022-02-07T14:13:08.999Z</time>
      </trkpt>
      <trkpt lat="48.852" lon="2.3752">
        <ele>42</ele>
        <time>2022-02-07T14:13:13.999Z</time>
      </trkpt>
      <trkpt lat="48.85197" lon="2.37514">
        <ele>43</ele>
        <time>2022-02-07T14:13:18.999Z</time>
      </trkpt>
      <trkpt lat="48.85192" lon="2.37511">
        <ele>43</ele>
        <time>2022-02-07T14:13:23.999Z</time>
      </trkpt>
      <trkpt lat="48.8519" lon="2.37515">
        <ele>42</ele>
        <time>2022-02-07T14:13:28.999Z</time>
      </trkpt>
      <trkpt lat="48.85187" lon="2.37511">
        <ele>43</ele>
        <time>2022-02-07T14:13:32.999Z</time>
      </trkpt>
      <trkpt lat="48.85186" lon="2.37506">
        <ele>43</ele>
        <time>2022-02-07T14:13:37.175Z</time>
      </trkpt>
      <trkpt lat="48.85184" lon="2.37502">
        <ele>43</ele>
        <time>2022-02-07T14:13:41.999Z</time>
      </trkpt>
      <trkpt lat="48.85185" lon="2.37498">
        <ele>43</ele>
        <time>2022-02-07T14:13:50.999Z</time>
      </trkpt>
      <trkpt lat="48.85185" lon="2.37497">
        <ele>43</ele>
        <time>2022-02-07T14:13:55.999Z</time>
      </trkpt>
      <trkpt lat="48.85184" lon="2.37495">
        <ele>43</ele>
        <time>2022-02-07T14:13:59.999Z</time>
      </trkpt>
      <trkpt lat="48.85178" lon="2.37492">
        <ele>43</ele>
        <time>2022-02-07T14:14:04.999Z</time>
      </trkpt>
      <trkpt lat="48.8517" lon="2.37484">
        <ele>43</ele>
        <time>2022-02-07T14:14:09.999Z</time>
      </trkpt>
      <trkpt lat="48.85176" lon="2.37482">
        <ele>43</ele>
        <time>2022-02-07T14:14:22.999Z</time>
      </trkpt>
      <trkpt lat="48.85175" lon="2.37477">
        <ele>43</ele>
        <time>2022-02-07T14:14:27.999Z</time>
      </trkpt>
      <trkpt lat="48.85174" lon="2.37468">
        <ele>43</ele>
        <time>2022-02-07T14:14:32.999Z</time>
      </trkpt>
      <trkpt lat="48.85174" lon="2.37461">
        <ele>43</ele>
        <time>2022-02-07T14:14:37.999Z</time>
      </trkpt>
      <trkpt lat="48.85174" lon="2.37456">
        <ele>43</ele>
        <time>2022-02-07T14:14:42.999Z</time>
      </trkpt>
      <trkpt lat="48.85175" lon="2.3745">
        <ele>43</ele>
        <time>2022-02-07T14:14:47.999Z</time>
      </trkpt>
      <trkpt lat="48.85176" lon="2.37445">
        <ele>43</ele>
        <time>2022-02-07T14:14:52.999Z</time>
      </trkpt>
      <trkpt lat="48.85176" lon="2.37441">
        <ele>43</ele>
        <time>2022-02-07T14:14:56.999Z</time>
      </trkpt>
      <trkpt lat="48.85177" lon="2.37436">
        <ele>43</ele>
        <time>2022-02-07T14:15:01.999Z</time>
      </trkpt>
      <trkpt lat="48.85179" lon="2.37433">
        <ele>43</ele>
        <time>2022-02-07T14:15:06.999Z</time>
      </trkpt>
      <trkpt lat="48.85182" lon="2.37436">
        <ele>43</ele>
        <time>2022-02-07T14:15:11.999Z</time>
      </trkpt>
      <trkpt lat="48.85188" lon="2.37438">
        <ele>43</ele>
        <time>2022-02-07T14:15:16.999Z</time>
      </trkpt>
      <trkpt lat="48.85191" lon="2.37432">
        <ele>43</ele>
        <time>2022-02-07T14:15:21.999Z</time>
      </trkpt>
      <trkpt lat="48.85195" lon="2.3743">
        <ele>42</ele>
        <time>2022-02-07T14:15:26.999Z</time>
      </trkpt>
      <trkpt lat="48.85203" lon="2.37441">
        <ele>43</ele>
        <time>2022-02-07T14:15:31.999Z</time>
      </trkpt>
      <trkpt lat="48.85211" lon="2.37445">
        <ele>43</ele>
        <time>2022-02-07T14:15:35.999Z</time>
      </trkpt>
      <trkpt lat="48.85213" lon="2.37451">
        <ele>43</ele>
        <time>2022-02-07T14:15:40.999Z</time>
      </trkpt>
      <trkpt lat="48.85215" lon="2.37449">
        <ele>43</ele>
        <time>2022-02-07T14:18:07.999Z</time>
      </trkpt>
      <trkpt lat="48.85212" lon="2.37464">
        <ele>44</ele>
        <time>2022-02-07T14:18:12.999Z</time>
      </trkpt>
      <trkpt lat="48.85215" lon="2.37472">
        <ele>44</ele>
        <time>2022-02-07T14:18:17.999Z</time>
      </trkpt>
      <trkpt lat="48.85217" lon="2.37472">
        <ele>44</ele>
        <time>2022-02-07T14:18:22.999Z</time>
      </trkpt>
      <trkpt lat="48.8522" lon="2.37472">
        <ele>44</ele>
        <time>2022-02-07T14:18:26.999Z</time>
      </trkpt>
      <trkpt lat="48.85219" lon="2.37472">
        <ele>44</ele>
        <time>2022-02-07T14:20:38.999Z</time>
      </trkpt>
      <trkpt lat="48.85213" lon="2.37483">
        <ele>44</ele>
        <time>2022-02-07T14:20:43.999Z</time>
      </trkpt>
      <trkpt lat="48.85205" lon="2.37472">
        <ele>43</ele>
        <time>2022-02-07T14:20:48.999Z</time>
      </trkpt>
      <trkpt lat="48.85203" lon="2.37469">
        <ele>43</ele>
        <time>2022-02-07T14:20:52.999Z</time>
      </trkpt>
      <trkpt lat="48.85201" lon="2.37481">
        <ele>43</ele>
        <time>2022-02-07T14:20:56.999Z</time>
      </trkpt>
      <trkpt lat="48.85203" lon="2.37482">
        <ele>43</ele>
        <time>2022-02-07T14:21:00.999Z</time>
      </trkpt>
      <trkpt lat="48.85205" lon="2.37481">
        <ele>43</ele>
        <time>2022-02-07T14:21:05.999Z</time>
      </trkpt>
      <trkpt lat="48.85209" lon="2.37478">
        <ele>44</ele>
        <time>2022-02-07T14:21:10.999Z</time>
      </trkpt>
      <trkpt lat="48.85202" lon="2.37497">
        <ele>43</ele>
        <time>2022-02-07T14:21:15.999Z</time>
      </trkpt>
      <trkpt lat="48.85202" lon="2.37487">
        <ele>43</ele>
        <time>2022-02-07T14:22:42.999Z</time>
      </trkpt>
      <trkpt lat="48.85202" lon="2.37463">
        <ele>43</ele>
        <time>2022-02-07T14:22:47.999Z</time>
      </trkpt>
      <trkpt lat="48.85204" lon="2.37455">
        <ele>43</ele>
        <time>2022-02-07T14:22:52.999Z</time>
      </trkpt>
      <trkpt lat="48.85207" lon="2.37449">
        <ele>43</ele>
        <time>2022-02-07T14:22:57.999Z</time>
      </trkpt>
      <trkpt lat="48.85209" lon="2.37443">
        <ele>43</ele>
        <time>2022-02-07T14:23:16.999Z</time>
      </trkpt>
      <trkpt lat="48.85186" lon="2.37435">
        <ele>43</ele>
        <time>2022-02-07T14:23:34.999Z</time>
      </trkpt>
      <trkpt lat="48.85185" lon="2.37436">
        <ele>43</ele>
        <time>2022-02-07T14:23:39.999Z</time>
      </trkpt>
      <trkpt lat="48.85184" lon="2.3743">
        <ele>42</ele>
        <time>2022-02-07T14:23:43.999Z</time>
      </trkpt>
      <trkpt lat="48.85191" lon="2.37424">
        <ele>42</ele>
        <time>2022-02-07T14:23:48.999Z</time>
      </trkpt>
      <trkpt lat="48.85193" lon="2.37413">
        <ele>42</ele>
        <time>2022-02-07T14:23:53.999Z</time>
      </trkpt>
      <trkpt lat="48.85193" lon="2.37404">
        <ele>42</ele>
        <time>2022-02-07T14:23:57.999Z</time>
      </trkpt>
      <trkpt lat="48.85195" lon="2.37397">
        <ele>43</ele>
        <time>2022-02-07T14:24:02.999Z</time>
      </trkpt>
      <trkpt lat="48.85197" lon="2.37389">
        <ele>43</ele>
        <time>2022-02-07T14:24:07.999Z</time>
      </trkpt>
      <trkpt lat="48.852" lon="2.37384">
        <ele>43</ele>
        <time>2022-02-07T14:24:12.999Z</time>
      </trkpt>
      <trkpt lat="48.85198" lon="2.37377">
        <ele>43</ele>
        <time>2022-02-07T14:24:17.999Z</time>
      </trkpt>
      <trkpt lat="48.85193" lon="2.3738">
        <ele>43</ele>
        <time>2022-02-07T14:24:22.999Z</time>
      </trkpt>
      <trkpt lat="48.85189" lon="2.37383">
        <ele>43</ele>
        <time>2022-02-07T14:24:27.999Z</time>
      </trkpt>
      <trkpt lat="48.85184" lon="2.3739">
        <ele>43</ele>
        <time>2022-02-07T14:24:32.999Z</time>
      </trkpt>
      <trkpt lat="48.85181" lon="2.37398">
        <ele>43</ele>
        <time>2022-02-07T14:24:37.999Z</time>
      </trkpt>
      <trkpt lat="48.85179" lon="2.37401">
        <ele>44</ele>
        <time>2022-02-07T14:24:41.999Z</time>
      </trkpt>
      <trkpt lat="48.85175" lon="2.37405">
        <ele>43</ele>
        <time>2022-02-07T14:24:46.999Z</time>
      </trkpt>
      <trkpt lat="48.85172" lon="2.37403">
        <ele>44</ele>
        <time>2022-02-07T14:24:50.999Z</time>
      </trkpt>
      <trkpt lat="48.85151" lon="2.37415">
        <ele>45</ele>
        <time>2022-02-07T14:28:55.999Z</time>
      </trkpt>
      <trkpt lat="48.85148" lon="2.3741">
        <ele>45</ele>
        <time>2022-02-07T14:29:00.999Z</time>
      </trkpt>
      <trkpt lat="48.85146" lon="2.37408">
        <ele>45</ele>
        <time>2022-02-07T14:29:04.999Z</time>
      </trkpt>
      <trkpt lat="48.85145" lon="2.3741">
        <ele>45</ele>
        <time>2022-02-07T14:29:09.999Z</time>
      </trkpt>
      <trkpt lat="48.85142" lon="2.37415">
        <ele>45</ele>
        <time>2022-02-07T14:29:13.999Z</time>
      </trkpt>
      <trkpt lat="48.85143" lon="2.37421">
        <ele>45</ele>
        <time>2022-02-07T14:29:17.999Z</time>
      </trkpt>
      <trkpt lat="48.85143" lon="2.37421">
        <ele>45</ele>
        <time>2022-02-07T14:29:22.999Z</time>
      </trkpt>
      <trkpt lat="48.85142" lon="2.37424">
        <ele>45</ele>
        <time>2022-02-07T14:29:27.999Z</time>
      </trkpt>
      <trkpt lat="48.85164" lon="2.37413">
        <ele>43</ele>
        <time>2022-02-07T14:29:32.999Z</time>
      </trkpt>
      <trkpt lat="48.85174" lon="2.37406">
        <ele>43</ele>
        <time>2022-02-07T14:29:37.999Z</time>
      </trkpt>
      <trkpt lat="48.8518" lon="2.37399">
        <ele>44</ele>
        <time>2022-02-07T14:29:42.999Z</time>
      </trkpt>
      <trkpt lat="48.85184" lon="2.37394">
        <ele>43</ele>
        <time>2022-02-07T14:29:47.999Z</time>
      </trkpt>
      <trkpt lat="48.85187" lon="2.37392">
        <ele>43</ele>
        <time>2022-02-07T14:29:52.999Z</time>
      </trkpt>
      <trkpt lat="48.85189" lon="2.37389">
        <ele>43</ele>
        <time>2022-02-07T14:29:57.999Z</time>
      </trkpt>
      <trkpt lat="48.85193" lon="2.37385">
        <ele>43</ele>
        <time>2022-02-07T14:30:02.999Z</time>
      </trkpt>
      <trkpt lat="48.85195" lon="2.37381">
        <ele>43</ele>
        <time>2022-02-07T14:30:06.999Z</time>
      </trkpt>
      <trkpt lat="48.85196" lon="2.37373">
        <ele>43</ele>
        <time>2022-02-07T14:30:11.999Z</time>
      </trkpt>
      <trkpt lat="48.85184" lon="2.37359">
        <ele>43</ele>
        <time>2022-02-07T14:30:34.999Z</time>
      </trkpt>
      <trkpt lat="48.85182" lon="2.37362">
        <ele>43</ele>
        <time>2022-02-07T14:30:39.999Z</time>
      </trkpt>
      <trkpt lat="48.85181" lon="2.37361">
        <ele>43</ele>
        <time>2022-02-07T14:30:44.999Z</time>
      </trkpt>
      <trkpt lat="48.85181" lon="2.3736">
        <ele>43</ele>
        <time>2022-02-07T14:30:49.999Z</time>
      </trkpt>
      <trkpt lat="48.85179" lon="2.37359">
        <ele>44</ele>
        <time>2022-02-07T14:30:53.999Z</time>
      </trkpt>
      <trkpt lat="48.85149" lon="2.37344">
        <ele>45</ele>
        <time>2022-02-07T14:33:49.999Z</time>
      </trkpt>
      <trkpt lat="48.85147" lon="2.37338">
        <ele>45</ele>
        <time>2022-02-07T14:33:53.999Z</time>
      </trkpt>
      <trkpt lat="48.85147" lon="2.37331">
        <ele>45</ele>
        <time>2022-02-07T14:33:57.999Z</time>
      </trkpt>
      <trkpt lat="48.85142" lon="2.37327">
        <ele>45</ele>
        <time>2022-02-07T14:34:01.999Z</time>
      </trkpt>
      <trkpt lat="48.85135" lon="2.3733">
        <ele>45</ele>
        <time>2022-02-07T14:34:06.999Z</time>
      </trkpt>
      <trkpt lat="48.85134" lon="2.37324">
        <ele>45</ele>
        <time>2022-02-07T14:34:20.999Z</time>
      </trkpt>
      <trkpt lat="48.85131" lon="2.37328">
        <ele>45</ele>
        <time>2022-02-07T14:34:25.999Z</time>
      </trkpt>
      <trkpt lat="48.8512" lon="2.37327">
        <ele>45</ele>
        <time>2022-02-07T14:34:30.999Z</time>
      </trkpt>
      <trkpt lat="48.85115" lon="2.37326">
        <ele>45</ele>
        <time>2022-02-07T14:34:35.999Z</time>
      </trkpt>
      <trkpt lat="48.85112" lon="2.37325">
        <ele>45</ele>
        <time>2022-02-07T14:34:40.999Z</time>
      </trkpt>
      <trkpt lat="48.85109" lon="2.37312">
        <ele>45</ele>
        <time>2022-02-07T14:35:09.999Z</time>
      </trkpt>
      <trkpt lat="48.85108" lon="2.37313">
        <ele>45</ele>
        <time>2022-02-07T14:35:14.999Z</time>
      </trkpt>
      <trkpt lat="48.85107" lon="2.37312">
        <ele>45</ele>
        <time>2022-02-07T14:35:19.999Z</time>
      </trkpt>
      <trkpt lat="48.85104" lon="2.37309">
        <ele>45</ele>
        <time>2022-02-07T14:35:23.999Z</time>
      </trkpt>
      <trkpt lat="48.851" lon="2.37305">
        <ele>45</ele>
        <time>2022-02-07T14:35:28.999Z</time>
      </trkpt>
      <trkpt lat="48.85096" lon="2.37305">
        <ele>43</ele>
        <time>2022-02-07T14:35:32.999Z</time>
      </trkpt>
      <trkpt lat="48.85091" lon="2.37299">
        <ele>43</ele>
        <time>2022-02-07T14:35:37.999Z</time>
      </trkpt>
      <trkpt lat="48.85095" lon="2.37295">
        <ele>43</ele>
        <time>2022-02-07T14:35:42.999Z</time>
      </trkpt>
      <trkpt lat="48.85099" lon="2.37289">
        <ele>43</ele>
        <time>2022-02-07T14:35:46.999Z</time>
      </trkpt>
      <trkpt lat="48.85095" lon="2.3728">
        <ele>42</ele>
        <time>2022-02-07T14:37:21.999Z</time>
      </trkpt>
      <trkpt lat="48.85101" lon="2.37276">
        <ele>43</ele>
        <time>2022-02-07T14:37:25.999Z</time>
      </trkpt>
      <trkpt lat="48.85107" lon="2.3727">
        <ele>43</ele>
        <time>2022-02-07T14:37:30.999Z</time>
      </trkpt>
      <trkpt lat="48.85112" lon="2.37264">
        <ele>41</ele>
        <time>2022-02-07T14:37:35.999Z</time>
      </trkpt>
      <trkpt lat="48.85115" lon="2.37254">
        <ele>41</ele>
        <time>2022-02-07T14:37:40.999Z</time>
      </trkpt>
      <trkpt lat="48.85119" lon="2.37248">
        <ele>41</ele>
        <time>2022-02-07T14:37:44.999Z</time>
      </trkpt>
      <trkpt lat="48.85124" lon="2.37243">
        <ele>41</ele>
        <time>2022-02-07T14:37:49.999Z</time>
      </trkpt>
      <trkpt lat="48.85129" lon="2.3724">
        <ele>42</ele>
        <time>2022-02-07T14:37:54.999Z</time>
      </trkpt>
      <trkpt lat="48.85132" lon="2.37235">
        <ele>42</ele>
        <time>2022-02-07T14:37:59.999Z</time>
      </trkpt>
      <trkpt lat="48.85137" lon="2.37235">
        <ele>42</ele>
        <time>2022-02-07T14:40:34.999Z</time>
      </trkpt>
      <trkpt lat="48.85137" lon="2.37237">
        <ele>42</ele>
        <time>2022-02-07T14:40:38.999Z</time>
      </trkpt>
      <trkpt lat="48.8514" lon="2.37243">
        <ele>42</ele>
        <time>2022-02-07T14:40:43.999Z</time>
      </trkpt>
      <trkpt lat="48.85142" lon="2.37245">
        <ele>42</ele>
        <time>2022-02-07T14:40:47.999Z</time>
      </trkpt>
      <trkpt lat="48.85145" lon="2.37245">
        <ele>42</ele>
        <time>2022-02-07T14:40:52.999Z</time>
      </trkpt>
      <trkpt lat="48.8515" lon="2.37247">
        <ele>42</ele>
        <time>2022-02-07T14:40:56.999Z</time>
      </trkpt>
      <trkpt lat="48.85153" lon="2.37248">
        <ele>43</ele>
        <time>2022-02-07T14:41:00.999Z</time>
      </trkpt>
      <trkpt lat="48.85157" lon="2.37252">
        <ele>43</ele>
        <time>2022-02-07T14:41:05.999Z</time>
      </trkpt>
      <trkpt lat="48.8516" lon="2.37252">
        <ele>43</ele>
        <time>2022-02-07T14:41:09.999Z</time>
      </trkpt>
      <trkpt lat="48.85163" lon="2.37253">
        <ele>43</ele>
        <time>2022-02-07T14:41:14.999Z</time>
      </trkpt>
      <trkpt lat="48.85166" lon="2.37256">
        <ele>43</ele>
        <time>2022-02-07T14:41:18.999Z</time>
      </trkpt>
      <trkpt lat="48.85169" lon="2.37257">
        <ele>43</ele>
        <time>2022-02-07T14:41:23.999Z</time>
      </trkpt>
      <trkpt lat="48.8517" lon="2.37259">
        <ele>43</ele>
        <time>2022-02-07T14:41:27.999Z</time>
      </trkpt>
      <trkpt lat="48.85172" lon="2.37244">
        <ele>43</ele>
        <time>2022-02-07T14:41:31.999Z</time>
      </trkpt>
      <trkpt lat="48.85184" lon="2.37224">
        <ele>46</ele>
        <time>2022-02-07T14:43:06.999Z</time>
      </trkpt>
      <trkpt lat="48.85189" lon="2.37233">
        <ele>46</ele>
        <time>2022-02-07T14:43:11.999Z</time>
      </trkpt>
      <trkpt lat="48.85193" lon="2.37242">
        <ele>44</ele>
        <time>2022-02-07T14:43:16.999Z</time>
      </trkpt>
      <trkpt lat="48.85193" lon="2.37248">
        <ele>44</ele>
        <time>2022-02-07T14:43:21.999Z</time>
      </trkpt>
      <trkpt lat="48.85195" lon="2.37254">
        <ele>44</ele>
        <time>2022-02-07T14:43:25.999Z</time>
      </trkpt>
      <trkpt lat="48.85194" lon="2.37265">
        <ele>42</ele>
        <time>2022-02-07T14:43:30.999Z</time>
      </trkpt>
      <trkpt lat="48.8519" lon="2.37276">
        <ele>42</ele>
        <time>2022-02-07T14:43:35.999Z</time>
      </trkpt>
      <trkpt lat="48.85185" lon="2.37281">
        <ele>42</ele>
        <time>2022-02-07T14:43:40.999Z</time>
      </trkpt>
      <trkpt lat="48.85179" lon="2.37285">
        <ele>43</ele>
        <time>2022-02-07T14:43:44.999Z</time>
      </trkpt>
      <trkpt lat="48.85179" lon="2.37287">
        <ele>43</ele>
        <time>2022-02-07T14:43:49.999Z</time>
      </trkpt>
      <trkpt lat="48.85188" lon="2.37291">
        <ele>42</ele>
        <time>2022-02-07T14:43:54.999Z</time>
      </trkpt>
      <trkpt lat="48.85209" lon="2.37288">
        <ele>41</ele>
        <time>2022-02-07T14:43:59.999Z</time>
      </trkpt>
      <trkpt lat="48.85209" lon="2.37288">
        <ele>41</ele>
        <time>2022-02-07T14:44:04.999Z</time>
      </trkpt>
      <trkpt lat="48.85208" lon="2.37284">
        <ele>42</ele>
        <time>2022-02-07T14:44:18.999Z</time>
      </trkpt>
      <trkpt lat="48.85209" lon="2.37283">
        <ele>41</ele>
        <time>2022-02-07T14:44:23.999Z</time>
      </trkpt>
      <trkpt lat="48.8521" lon="2.37283">
        <ele>41</ele>
        <time>2022-02-07T14:44:28.999Z</time>
      </trkpt>
      <trkpt lat="48.85214" lon="2.3728">
        <ele>41</ele>
        <time>2022-02-07T14:44:32.999Z</time>
      </trkpt>
      <trkpt lat="48.85217" lon="2.37274">
        <ele>41</ele>
        <time>2022-02-07T14:44:37.999Z</time>
      </trkpt>
      <trkpt lat="48.8522" lon="2.37271">
        <ele>41</ele>
        <time>2022-02-07T14:44:42.999Z</time>
      </trkpt>
      <trkpt lat="48.8522" lon="2.37265">
        <ele>41</ele>
        <time>2022-02-07T14:44:47.999Z</time>
      </trkpt>
      <trkpt lat="48.85222" lon="2.3726">
        <ele>42</ele>
        <time>2022-02-07T14:44:51.999Z</time>
      </trkpt>
      <trkpt lat="48.85225" lon="2.37257">
        <ele>42</ele>
        <time>2022-02-07T14:44:55.999Z</time>
      </trkpt>
      <trkpt lat="48.85227" lon="2.37251">
        <ele>42</ele>
        <time>2022-02-07T14:45:00.999Z</time>
      </trkpt>
      <trkpt lat="48.85229" lon="2.37244">
        <ele>42</ele>
        <time>2022-02-07T14:45:05.999Z</time>
      </trkpt>
      <trkpt lat="48.85231" lon="2.37238">
        <ele>42</ele>
        <time>2022-02-07T14:45:10.999Z</time>
      </trkpt>
      <trkpt lat="48.85229" lon="2.37232">
        <ele>43</ele>
        <time>2022-02-07T14:45:15.999Z</time>
      </trkpt>
      <trkpt lat="48.8523" lon="2.37227">
        <ele>43</ele>
        <time>2022-02-07T14:45:19.999Z</time>
      </trkpt>
      <trkpt lat="48.85232" lon="2.37219">
        <ele>43</ele>
        <time>2022-02-07T14:45:24.999Z</time>
      </trkpt>
      <trkpt lat="48.85232" lon="2.37213">
        <ele>43</ele>
        <time>2022-02-07T14:45:29.999Z</time>
      </trkpt>
      <trkpt lat="48.85231" lon="2.37207">
        <ele>42</ele>
        <time>2022-02-07T14:45:34.999Z</time>
      </trkpt>
      <trkpt lat="48.85232" lon="2.372">
        <ele>42</ele>
        <time>2022-02-07T14:45:38.999Z</time>
      </trkpt>
      <trkpt lat="48.85234" lon="2.37195">
        <ele>42</ele>
        <time>2022-02-07T14:45:43.999Z</time>
      </trkpt>
      <trkpt lat="48.85236" lon="2.37188">
        <ele>42</ele>
        <time>2022-02-07T14:45:47.999Z</time>
      </trkpt>
      <trkpt lat="48.85239" lon="2.37178">
        <ele>42</ele>
        <time>2022-02-07T14:45:52.999Z</time>
      </trkpt>
      <trkpt lat="48.85241" lon="2.37174">
        <ele>42</ele>
        <time>2022-02-07T14:45:57.999Z</time>
      </trkpt>
      <trkpt lat="48.85243" lon="2.3717">
        <ele>42</ele>
        <time>2022-02-07T14:46:02.999Z</time>
      </trkpt>
      <trkpt lat="48.85247" lon="2.37165">
        <ele>42</ele>
        <time>2022-02-07T14:46:07.999Z</time>
      </trkpt>
      <trkpt lat="48.85249" lon="2.37161">
        <ele>42</ele>
        <time>2022-02-07T14:46:12.999Z</time>
      </trkpt>
      <trkpt lat="48.85253" lon="2.37156">
        <ele>42</ele>
        <time>2022-02-07T14:46:16.999Z</time>
      </trkpt>
      <trkpt lat="48.85256" lon="2.3715">
        <ele>43</ele>
        <time>2022-02-07T14:46:21.999Z</time>
      </trkpt>
      <trkpt lat="48.85258" lon="2.37146">
        <ele>43</ele>
        <time>2022-02-07T14:46:26.999Z</time>
      </trkpt>
      <trkpt lat="48.85259" lon="2.37141">
        <ele>43</ele>
        <time>2022-02-07T14:46:30.999Z</time>
      </trkpt>
      <trkpt lat="48.85261" lon="2.37135">
        <ele>43</ele>
        <time>2022-02-07T14:46:35.999Z</time>
      </trkpt>
      <trkpt lat="48.85264" lon="2.37131">
        <ele>41</ele>
        <time>2022-02-07T14:46:40.999Z</time>
      </trkpt>
      <trkpt lat="48.85268" lon="2.37127">
        <ele>41</ele>
        <time>2022-02-07T14:46:45.999Z</time>
      </trkpt>
      <trkpt lat="48.85273" lon="2.37127">
        <ele>41</ele>
        <time>2022-02-07T14:46:50.999Z</time>
      </trkpt>
      <trkpt lat="48.85276" lon="2.37125">
        <ele>42</ele>
        <time>2022-02-07T14:46:54.999Z</time>
      </trkpt>
      <trkpt lat="48.85279" lon="2.3712">
        <ele>42</ele>
        <time>2022-02-07T14:46:59.999Z</time>
      </trkpt>
      <trkpt lat="48.85279" lon="2.37115">
        <ele>42</ele>
        <time>2022-02-07T14:47:04.999Z</time>
      </trkpt>
      <trkpt lat="48.85283" lon="2.37115">
        <ele>42</ele>
        <time>2022-02-07T14:47:09.999Z</time>
      </trkpt>
      <trkpt lat="48.85285" lon="2.37113">
        <ele>42</ele>
        <time>2022-02-07T14:47:13.999Z</time>
      </trkpt>
      <trkpt lat="48.85288" lon="2.37117">
        <ele>42</ele>
        <time>2022-02-07T14:47:18.999Z</time>
      </trkpt>
      <trkpt lat="48.85294" lon="2.37129">
        <ele>40</ele>
        <time>2022-02-07T14:47:22.999Z</time>
      </trkpt>
      <trkpt lat="48.85299" lon="2.3714">
        <ele>40</ele>
        <time>2022-02-07T14:47:27.999Z</time>
      </trkpt>
      <trkpt lat="48.85302" lon="2.37146">
        <ele>40</ele>
        <time>2022-02-07T14:47:32.999Z</time>
      </trkpt>
      <trkpt lat="48.85309" lon="2.37153">
        <ele>41</ele>
        <time>2022-02-07T14:47:37.999Z</time>
      </trkpt>
      <trkpt lat="48.85312" lon="2.37158">
        <ele>41</ele>
        <time>2022-02-07T14:47:41.999Z</time>
      </trkpt>
      <trkpt lat="48.85316" lon="2.37159">
        <ele>41</ele>
        <time>2022-02-07T14:47:46.999Z</time>
      </trkpt>
      <trkpt lat="48.85324" lon="2.37163">
        <ele>43</ele>
        <time>2022-02-07T14:47:51.999Z</time>
      </trkpt>
      <trkpt lat="48.85328" lon="2.37166">
        <ele>43</ele>
        <time>2022-02-07T14:47:56.999Z</time>
      </trkpt>
      <trkpt lat="48.85324" lon="2.37172">
        <ele>43</ele>
        <time>2022-02-07T14:48:01.999Z</time>
      </trkpt>
      <trkpt lat="48.85325" lon="2.37178">
        <ele>43</ele>
        <time>2022-02-07T14:48:06.999Z</time>
      </trkpt>
      <trkpt lat="48.85322" lon="2.37185">
        <ele>44</ele>
        <time>2022-02-07T14:48:10.999Z</time>
      </trkpt>
      <trkpt lat="48.85321" lon="2.37195">
        <ele>44</ele>
        <time>2022-02-07T14:48:15.999Z</time>
      </trkpt>
      <trkpt lat="48.85319" lon="2.37205">
        <ele>43</ele>
        <time>2022-02-07T14:48:20.999Z</time>
      </trkpt>
      <trkpt lat="48.85316" lon="2.3721">
        <ele>44</ele>
        <time>2022-02-07T14:48:25.999Z</time>
      </trkpt>
      <trkpt lat="48.85313" lon="2.37229">
        <ele>44</ele>
        <time>2022-02-07T14:49:14.999Z</time>
      </trkpt>
      <trkpt lat="48.85313" lon="2.37229">
        <ele>44</ele>
        <time>2022-02-07T14:49:19.999Z</time>
      </trkpt>
      <trkpt lat="48.85313" lon="2.37229">
        <ele>44</ele>
        <time>2022-02-07T14:49:24.999Z</time>
      </trkpt>
      <trkpt lat="48.85313" lon="2.37229">
        <ele>44</ele>
        <time>2022-02-07T14:49:29.999Z</time>
      </trkpt>
      <trkpt lat="48.85313" lon="2.37229">
        <ele>44</ele>
        <time>2022-02-07T14:49:34.999Z</time>
      </trkpt>
      <trkpt lat="48.85314" lon="2.3723">
        <ele>44</ele>
        <time>2022-02-07T14:50:29.999Z</time>
      </trkpt>
      <trkpt lat="48.85312" lon="2.3723">
        <ele>44</ele>
        <time>2022-02-07T14:50:33.999Z</time>
      </trkpt>
      <trkpt lat="48.85306" lon="2.37224">
        <ele>44</ele>
        <time>2022-02-07T14:50:38.999Z</time>
      </trkpt>
      <trkpt lat="48.85304" lon="2.37206">
        <ele>43</ele>
        <time>2022-02-07T14:50:43.999Z</time>
      </trkpt>
      <trkpt lat="48.85304" lon="2.37201">
        <ele>43</ele>
        <time>2022-02-07T14:50:48.999Z</time>
      </trkpt>
      <trkpt lat="48.85304" lon="2.37198">
        <ele>43</ele>
        <time>2022-02-07T14:50:52.999Z</time>
      </trkpt>
      <trkpt lat="48.853" lon="2.37195">
        <ele>43</ele>
        <time>2022-02-07T14:50:57.999Z</time>
      </trkpt>
      <trkpt lat="48.85299" lon="2.37191">
        <ele>43</ele>
        <time>2022-02-07T14:51:02.999Z</time>
      </trkpt>
      <trkpt lat="48.85308" lon="2.37185">
        <ele>43</ele>
        <time>2022-02-07T14:51:07.999Z</time>
      </trkpt>
      <trkpt lat="48.85314" lon="2.37177">
        <ele>41</ele>
        <time>2022-02-07T14:51:12.999Z</time>
      </trkpt>
      <trkpt lat="48.8532" lon="2.37175">
        <ele>43</ele>
        <time>2022-02-07T14:51:17.999Z</time>
      </trkpt>
      <trkpt lat="48.85324" lon="2.37171">
        <ele>43</ele>
        <time>2022-02-07T14:51:21.999Z</time>
      </trkpt>
      <trkpt lat="48.85328" lon="2.37174">
        <ele>43</ele>
        <time>2022-02-07T14:51:26.999Z</time>
      </trkpt>
      <trkpt lat="48.8533" lon="2.37168">
        <ele>43</ele>
        <time>2022-02-07T14:51:30.999Z</time>
      </trkpt>
      <trkpt lat="48.85332" lon="2.37157">
        <ele>43</ele>
        <time>2022-02-07T14:51:35.999Z</time>
      </trkpt>
      <trkpt lat="48.85337" lon="2.3715">
        <ele>41</ele>
        <time>2022-02-07T14:51:40.999Z</time>
      </trkpt>
      <trkpt lat="48.8534" lon="2.37149">
        <ele>41</ele>
        <time>2022-02-07T14:51:45.999Z</time>
      </trkpt>
      <trkpt lat="48.8535" lon="2.37155">
        <ele>43</ele>
        <time>2022-02-07T14:51:59.999Z</time>
      </trkpt>
      <trkpt lat="48.85353" lon="2.37149">
        <ele>42</ele>
        <time>2022-02-07T14:52:04.999Z</time>
      </trkpt>
      <trkpt lat="48.85354" lon="2.37148">
        <ele>42</ele>
        <time>2022-02-07T14:52:08.999Z</time>
      </trkpt>
      <trkpt lat="48.85355" lon="2.3715">
        <ele>42</ele>
        <time>2022-02-07T14:52:12.999Z</time>
      </trkpt>
      <trkpt lat="48.85361" lon="2.37156">
        <ele>43</ele>
        <time>2022-02-07T14:52:17.999Z</time>
      </trkpt>
      <trkpt lat="48.85361" lon="2.37162">
        <ele>43</ele>
        <time>2022-02-07T14:54:04.999Z</time>
      </trkpt>
      <trkpt lat="48.8536" lon="2.3716">
        <ele>43</ele>
        <time>2022-02-07T14:54:09.999Z</time>
      </trkpt>
      <trkpt lat="48.85361" lon="2.37178">
        <ele>43</ele>
        <time>2022-02-07T14:54:13.999Z</time>
      </trkpt>
      <trkpt lat="48.85353" lon="2.37185">
        <ele>44</ele>
        <time>2022-02-07T14:54:18.999Z</time>
      </trkpt>
      <trkpt lat="48.85346" lon="2.37187">
        <ele>44</ele>
        <time>2022-02-07T14:54:22.999Z</time>
      </trkpt>
      <trkpt lat="48.85342" lon="2.37192">
        <ele>44</ele>
        <time>2022-02-07T14:54:26.999Z</time>
      </trkpt>
      <trkpt lat="48.85344" lon="2.37178">
        <ele>43</ele>
        <time>2022-02-07T14:54:31.999Z</time>
      </trkpt>
      <trkpt lat="48.85353" lon="2.37149">
        <ele>42</ele>
        <time>2022-02-07T14:54:36.999Z</time>
      </trkpt>
      <trkpt lat="48.85353" lon="2.37147">
        <ele>42</ele>
        <time>2022-02-07T14:54:40.999Z</time>
      </trkpt>
      <trkpt lat="48.85348" lon="2.37146">
        <ele>42</ele>
        <time>2022-02-07T14:54:45.999Z</time>
      </trkpt>
      <trkpt lat="48.85334" lon="2.37139">
        <ele>41</ele>
        <time>2022-02-07T14:54:50.999Z</time>
      </trkpt>
      <trkpt lat="48.85332" lon="2.37133">
        <ele>41</ele>
        <time>2022-02-07T14:54:54.999Z</time>
      </trkpt>
      <trkpt lat="48.85328" lon="2.37122">
        <ele>41</ele>
        <time>2022-02-07T14:54:59.999Z</time>
      </trkpt>
      <trkpt lat="48.85332" lon="2.37115">
        <ele>41</ele>
        <time>2022-02-07T14:55:04.999Z</time>
      </trkpt>
      <trkpt lat="48.85333" lon="2.37114">
        <ele>41</ele>
        <time>2022-02-07T14:55:08.999Z</time>
      </trkpt>
      <trkpt lat="48.85339" lon="2.37113">
        <ele>41</ele>
        <time>2022-02-07T14:55:13.999Z</time>
      </trkpt>
      <trkpt lat="48.85344" lon="2.37106">
        <ele>41</ele>
        <time>2022-02-07T14:55:17.999Z</time>
      </trkpt>
      <trkpt lat="48.85345" lon="2.37116">
        <ele>41</ele>
        <time>2022-02-07T14:55:22.999Z</time>
      </trkpt>
      <trkpt lat="48.85342" lon="2.37126">
        <ele>41</ele>
        <time>2022-02-07T14:55:27.999Z</time>
      </trkpt>
      <trkpt lat="48.85344" lon="2.37128">
        <ele>41</ele>
        <time>2022-02-07T14:55:31.999Z</time>
      </trkpt>
      <trkpt lat="48.85345" lon="2.3713">
        <ele>41</ele>
        <time>2022-02-07T14:55:35.999Z</time>
      </trkpt>
      <trkpt lat="48.85346" lon="2.37134">
        <ele>41</ele>
        <time>2022-02-07T14:56:27.999Z</time>
      </trkpt>
      <trkpt lat="48.85345" lon="2.37131">
        <ele>41</ele>
        <time>2022-02-07T14:56:32.999Z</time>
      </trkpt>
      <trkpt lat="48.85342" lon="2.37135">
        <ele>41</ele>
        <time>2022-02-07T14:56:37.999Z</time>
      </trkpt>
      <trkpt lat="48.85342" lon="2.37132">
        <ele>41</ele>
        <time>2022-02-07T14:56:41.999Z</time>
      </trkpt>
      <trkpt lat="48.85339" lon="2.37133">
        <ele>41</ele>
        <time>2022-02-07T14:56:46.999Z</time>
      </trkpt>
      <trkpt lat="48.85334" lon="2.37132">
        <ele>41</ele>
        <time>2022-02-07T14:56:50.999Z</time>
      </trkpt>
      <trkpt lat="48.85329" lon="2.37122">
        <ele>41</ele>
        <time>2022-02-07T14:56:55.999Z</time>
      </trkpt>
      <trkpt lat="48.85327" lon="2.37115">
        <ele>41</ele>
        <time>2022-02-07T14:57:00.999Z</time>
      </trkpt>
      <trkpt lat="48.85324" lon="2.37112">
        <ele>41</ele>
        <time>2022-02-07T14:57:05.999Z</time>
      </trkpt>
      <trkpt lat="48.85322" lon="2.37109">
        <ele>41</ele>
        <time>2022-02-07T14:57:09.999Z</time>
      </trkpt>
      <trkpt lat="48.85325" lon="2.37102">
        <ele>41</ele>
        <time>2022-02-07T14:57:14.999Z</time>
      </trkpt>
      <trkpt lat="48.85327" lon="2.37099">
        <ele>41</ele>
        <time>2022-02-07T14:57:18.999Z</time>
      </trkpt>
      <trkpt lat="48.85329" lon="2.37098">
        <ele>41</ele>
        <time>2022-02-07T14:57:22.999Z</time>
      </trkpt>
      <trkpt lat="48.85333" lon="2.37093">
        <ele>42</ele>
        <time>2022-02-07T14:57:27.999Z</time>
      </trkpt>
      <trkpt lat="48.85335" lon="2.37087">
        <ele>42</ele>
        <time>2022-02-07T14:57:32.999Z</time>
      </trkpt>
      <trkpt lat="48.85337" lon="2.3708">
        <ele>42</ele>
        <time>2022-02-07T14:57:37.999Z</time>
      </trkpt>
      <trkpt lat="48.85338" lon="2.37076">
        <ele>42</ele>
        <time>2022-02-07T14:57:42.999Z</time>
      </trkpt>
      <trkpt lat="48.8534" lon="2.37066">
        <ele>43</ele>
        <time>2022-02-07T14:58:02.999Z</time>
      </trkpt>
      <trkpt lat="48.85334" lon="2.37064">
        <ele>43</ele>
        <time>2022-02-07T14:58:06.999Z</time>
      </trkpt>
      <trkpt lat="48.85337" lon="2.3705">
        <ele>43</ele>
        <time>2022-02-07T14:58:11.999Z</time>
      </trkpt>
      <trkpt lat="48.85339" lon="2.37047">
        <ele>43</ele>
        <time>2022-02-07T14:58:15.999Z</time>
      </trkpt>
      <trkpt lat="48.85341" lon="2.37046">
        <ele>43</ele>
        <time>2022-02-07T14:58:20.999Z</time>
      </trkpt>
      <trkpt lat="48.85345" lon="2.37046">
        <ele>43</ele>
        <time>2022-02-07T14:58:24.999Z</time>
      </trkpt>
      <trkpt lat="48.85349" lon="2.37044">
        <ele>42</ele>
        <time>2022-02-07T14:58:29.999Z</time>
      </trkpt>
      <trkpt lat="48.85349" lon="2.37033">
        <ele>42</ele>
        <time>2022-02-07T14:58:34.999Z</time>
      </trkpt>
      <trkpt lat="48.85351" lon="2.37025">
        <ele>42</ele>
        <time>2022-02-07T14:58:39.999Z</time>
      </trkpt>
      <trkpt lat="48.85354" lon="2.37019">
        <ele>42</ele>
        <time>2022-02-07T14:58:44.999Z</time>
      </trkpt>
      <trkpt lat="48.85359" lon="2.37014">
        <ele>42</ele>
        <time>2022-02-07T14:58:48.999Z</time>
      </trkpt>
      <trkpt lat="48.85362" lon="2.37012">
        <ele>42</ele>
        <time>2022-02-07T14:58:53.999Z</time>
      </trkpt>
      <trkpt lat="48.85365" lon="2.3701">
        <ele>42</ele>
        <time>2022-02-07T14:58:57.999Z</time>
      </trkpt>
      <trkpt lat="48.8537" lon="2.37009">
        <ele>42</ele>
        <time>2022-02-07T14:59:02.999Z</time>
      </trkpt>
      <trkpt lat="48.85374" lon="2.37013">
        <ele>42</ele>
        <time>2022-02-07T14:59:07.999Z</time>
      </trkpt>
      <trkpt lat="48.85379" lon="2.37012">
        <ele>43</ele>
        <time>2022-02-07T14:59:12.999Z</time>
      </trkpt>
      <trkpt lat="48.85384" lon="2.3701">
        <ele>43</ele>
        <time>2022-02-07T14:59:17.999Z</time>
      </trkpt>
      <trkpt lat="48.85386" lon="2.37012">
        <ele>43</ele>
        <time>2022-02-07T14:59:22.999Z</time>
      </trkpt>
      <trkpt lat="48.85389" lon="2.37009">
        <ele>43</ele>
        <time>2022-02-07T14:59:27.999Z</time>
      </trkpt>
      <trkpt lat="48.85392" lon="2.37009">
        <ele>43</ele>
        <time>2022-02-07T14:59:31.999Z</time>
      </trkpt>
      <trkpt lat="48.85399" lon="2.37014">
        <ele>43</ele>
        <time>2022-02-07T14:59:36.999Z</time>
      </trkpt>
      <trkpt lat="48.85399" lon="2.37018">
        <ele>43</ele>
        <time>2022-02-07T14:59:40.999Z</time>
      </trkpt>
      <trkpt lat="48.854" lon="2.37025">
        <ele>43</ele>
        <time>2022-02-07T14:59:45.999Z</time>
      </trkpt>
      <trkpt lat="48.85401" lon="2.37029">
        <ele>43</ele>
        <time>2022-02-07T14:59:49.999Z</time>
      </trkpt>
      <trkpt lat="48.85405" lon="2.37029">
        <ele>43</ele>
        <time>2022-02-07T14:59:54.999Z</time>
      </trkpt>
      <trkpt lat="48.85409" lon="2.37028">
        <ele>43</ele>
        <time>2022-02-07T14:59:59.999Z</time>
      </trkpt>
      <trkpt lat="48.85412" lon="2.37023">
        <ele>43</ele>
        <time>2022-02-07T15:00:03.999Z</time>
      </trkpt>
      <trkpt lat="48.85417" lon="2.37019">
        <ele>43</ele>
        <time>2022-02-07T15:00:08.999Z</time>
      </trkpt>
      <trkpt lat="48.85424" lon="2.37028">
        <ele>43</ele>
        <time>2022-02-07T15:00:13.999Z</time>
      </trkpt>
      <trkpt lat="48.85423" lon="2.37038">
        <ele>43</ele>
        <time>2022-02-07T15:00:17.999Z</time>
      </trkpt>
      <trkpt lat="48.85424" lon="2.37046">
        <ele>43</ele>
        <time>2022-02-07T15:00:22.999Z</time>
      </trkpt>
      <trkpt lat="48.85431" lon="2.37045">
        <ele>43</ele>
        <time>2022-02-07T15:00:26.999Z</time>
      </trkpt>
      <trkpt lat="48.85436" lon="2.37047">
        <ele>43</ele>
        <time>2022-02-07T15:00:30.999Z</time>
      </trkpt>
      <trkpt lat="48.85464" lon="2.3706">
        <ele>44</ele>
        <time>2022-02-07T15:04:12.999Z</time>
      </trkpt>
      <trkpt lat="48.85465" lon="2.3706">
        <ele>44</ele>
        <time>2022-02-07T15:04:16.999Z</time>
      </trkpt>
      <trkpt lat="48.85466" lon="2.37061">
        <ele>44</ele>
        <time>2022-02-07T15:04:21.999Z</time>
      </trkpt>
      <trkpt lat="48.85468" lon="2.37067">
        <ele>44</ele>
        <time>2022-02-07T15:04:26.999Z</time>
      </trkpt>
      <trkpt lat="48.8547" lon="2.37064">
        <ele>44</ele>
        <time>2022-02-07T15:04:31.999Z</time>
      </trkpt>
      <trkpt lat="48.85468" lon="2.37074">
        <ele>44</ele>
        <time>2022-02-07T15:12:01.999Z</time>
      </trkpt>
      <trkpt lat="48.85466" lon="2.37075">
        <ele>44</ele>
        <time>2022-02-07T15:12:05.999Z</time>
      </trkpt>
      <trkpt lat="48.85471" lon="2.37081">
        <ele>44</ele>
        <time>2022-02-07T15:12:10.999Z</time>
      </trkpt>
      <trkpt lat="48.85476" lon="2.37083">
        <ele>44</ele>
        <time>2022-02-07T15:12:14.999Z</time>
      </trkpt>
      <trkpt lat="48.85476" lon="2.37083">
        <ele>44</ele>
        <time>2022-02-07T15:12:18.999Z</time>
      </trkpt>
      <trkpt lat="48.85484" lon="2.37076">
        <ele>44</ele>
        <time>2022-02-07T15:13:22.999Z</time>
      </trkpt>
      <trkpt lat="48.85484" lon="2.37076">
        <ele>44</ele>
        <time>2022-02-07T15:13:27.999Z</time>
      </trkpt>
      <trkpt lat="48.85484" lon="2.37076">
        <ele>44</ele>
        <time>2022-02-07T15:13:31.999Z</time>
      </trkpt>
      <trkpt lat="48.85484" lon="2.37076">
        <ele>44</ele>
        <time>2022-02-07T15:13:35.999Z</time>
      </trkpt>
      <trkpt lat="48.85484" lon="2.37076">
        <ele>44</ele>
        <time>2022-02-07T15:13:40.999Z</time>
      </trkpt>
      <trkpt lat="48.85489" lon="2.37066">
        <ele>46</ele>
        <time>2022-02-07T15:19:04.999Z</time>
      </trkpt>
      <trkpt lat="48.85489" lon="2.37066">
        <ele>46</ele>
        <time>2022-02-07T15:19:08.999Z</time>
      </trkpt>
      <trkpt lat="48.85489" lon="2.37066">
        <ele>46</ele>
        <time>2022-02-07T15:19:13.999Z</time>
      </trkpt>
      <trkpt lat="48.85489" lon="2.37066">
        <ele>46</ele>
        <time>2022-02-07T15:19:17.999Z</time>
      </trkpt>
      <trkpt lat="48.85491" lon="2.37067">
        <ele>46</ele>
        <time>2022-02-07T15:19:22.999Z</time>
      </trkpt>
      <trkpt lat="48.85492" lon="2.3707">
        <ele>46</ele>
        <time>2022-02-07T15:19:27.999Z</time>
      </trkpt>
      <trkpt lat="48.85492" lon="2.37069">
        <ele>46</ele>
        <time>2022-02-07T15:19:32.999Z</time>
      </trkpt>
      <trkpt lat="48.85486" lon="2.37073">
        <ele>44</ele>
        <time>2022-02-07T15:19:37.999Z</time>
      </trkpt>
      <trkpt lat="48.85485" lon="2.37068">
        <ele>44</ele>
        <time>2022-02-07T15:19:42.999Z</time>
      </trkpt>
      <trkpt lat="48.85481" lon="2.37068">
        <ele>44</ele>
        <time>2022-02-07T15:19:47.999Z</time>
      </trkpt>
      <trkpt lat="48.85483" lon="2.37065">
        <ele>44</ele>
        <time>2022-02-07T15:20:24.999Z</time>
      </trkpt>
      <trkpt lat="48.85483" lon="2.37064">
        <ele>44</ele>
        <time>2022-02-07T15:20:29.999Z</time>
      </trkpt>
      <trkpt lat="48.85476" lon="2.37066">
        <ele>44</ele>
        <time>2022-02-07T15:20:33.999Z</time>
      </trkpt>
      <trkpt lat="48.85474" lon="2.37075">
        <ele>44</ele>
        <time>2022-02-07T15:20:38.999Z</time>
      </trkpt>
      <trkpt lat="48.85474" lon="2.37078">
        <ele>44</ele>
        <time>2022-02-07T15:20:43.999Z</time>
      </trkpt>
      <trkpt lat="48.85471" lon="2.37079">
        <ele>44</ele>
        <time>2022-02-07T15:20:47.999Z</time>
      </trkpt>
      <trkpt lat="48.85469" lon="2.37084">
        <ele>44</ele>
        <time>2022-02-07T15:20:52.999Z</time>
      </trkpt>
      <trkpt lat="48.85466" lon="2.37085">
        <ele>44</ele>
        <time>2022-02-07T15:20:57.999Z</time>
      </trkpt>
      <trkpt lat="48.85459" lon="2.37079">
        <ele>44</ele>
        <time>2022-02-07T15:21:02.999Z</time>
      </trkpt>
      <trkpt lat="48.85472" lon="2.37095">
        <ele>44</ele>
        <time>2022-02-07T15:21:07.999Z</time>
      </trkpt>
      <trkpt lat="48.8547" lon="2.37094">
        <ele>44</ele>
        <time>2022-02-07T15:21:12.999Z</time>
      </trkpt>
      <trkpt lat="48.85459" lon="2.37089">
        <ele>44</ele>
        <time>2022-02-07T15:21:17.999Z</time>
      </trkpt>
      <trkpt lat="48.85453" lon="2.37068">
        <ele>43</ele>
        <time>2022-02-07T15:21:22.999Z</time>
      </trkpt>
      <trkpt lat="48.85445" lon="2.37049">
        <ele>43</ele>
        <time>2022-02-07T15:21:27.999Z</time>
      </trkpt>
      <trkpt lat="48.85437" lon="2.37048">
        <ele>43</ele>
        <time>2022-02-07T15:21:32.999Z</time>
      </trkpt>
      <trkpt lat="48.85433" lon="2.37046">
        <ele>43</ele>
        <time>2022-02-07T15:21:37.999Z</time>
      </trkpt>
      <trkpt lat="48.85428" lon="2.37045">
        <ele>43</ele>
        <time>2022-02-07T15:21:41.999Z</time>
      </trkpt>
      <trkpt lat="48.85424" lon="2.37043">
        <ele>43</ele>
        <time>2022-02-07T15:21:45.999Z</time>
      </trkpt>
      <trkpt lat="48.85421" lon="2.37041">
        <ele>43</ele>
        <time>2022-02-07T15:21:50.999Z</time>
      </trkpt>
      <trkpt lat="48.85419" lon="2.37037">
        <ele>43</ele>
        <time>2022-02-07T15:21:55.999Z</time>
      </trkpt>
      <trkpt lat="48.85418" lon="2.3703">
        <ele>43</ele>
        <time>2022-02-07T15:22:00.999Z</time>
      </trkpt>
      <trkpt lat="48.85417" lon="2.37031">
        <ele>43</ele>
        <time>2022-02-07T15:22:04.999Z</time>
      </trkpt>
      <trkpt lat="48.85412" lon="2.37027">
        <ele>43</ele>
        <time>2022-02-07T15:22:09.999Z</time>
      </trkpt>
      <trkpt lat="48.85406" lon="2.37025">
        <ele>43</ele>
        <time>2022-02-07T15:22:14.999Z</time>
      </trkpt>
      <trkpt lat="48.85399" lon="2.37024">
        <ele>43</ele>
        <time>2022-02-07T15:22:18.999Z</time>
      </trkpt>
      <trkpt lat="48.85395" lon="2.37032">
        <ele>43</ele>
        <time>2022-02-07T15:22:23.999Z</time>
      </trkpt>
      <trkpt lat="48.85391" lon="2.37036">
        <ele>43</ele>
        <time>2022-02-07T15:22:27.999Z</time>
      </trkpt>
      <trkpt lat="48.85389" lon="2.37038">
        <ele>43</ele>
        <time>2022-02-07T15:22:32.999Z</time>
      </trkpt>
      <trkpt lat="48.85389" lon="2.37047">
        <ele>43</ele>
        <time>2022-02-07T15:22:37.999Z</time>
      </trkpt>
      <trkpt lat="48.85389" lon="2.37049">
        <ele>43</ele>
        <time>2022-02-07T15:22:42.999Z</time>
      </trkpt>
      <trkpt lat="48.85395" lon="2.37048">
        <ele>43</ele>
        <time>2022-02-07T15:22:46.999Z</time>
      </trkpt>
      <trkpt lat="48.85397" lon="2.37048">
        <ele>43</ele>
        <time>2022-02-07T15:22:51.999Z</time>
      </trkpt>
      <trkpt lat="48.85382" lon="2.37017">
        <ele>43</ele>
        <time>2022-02-07T15:22:56.999Z</time>
      </trkpt>
      <trkpt lat="48.85359" lon="2.37005">
        <ele>42</ele>
        <time>2022-02-07T15:23:00.999Z</time>
      </trkpt>
      <trkpt lat="48.85353" lon="2.37006">
        <ele>42</ele>
        <time>2022-02-07T15:23:05.999Z</time>
      </trkpt>
      <trkpt lat="48.8535" lon="2.37006">
        <ele>42</ele>
        <time>2022-02-07T15:23:09.999Z</time>
      </trkpt>
      <trkpt lat="48.85347" lon="2.37006">
        <ele>42</ele>
        <time>2022-02-07T15:23:14.999Z</time>
      </trkpt>
      <trkpt lat="48.85343" lon="2.37006">
        <ele>42</ele>
        <time>2022-02-07T15:23:19.999Z</time>
      </trkpt>
      <trkpt lat="48.8534" lon="2.37008">
        <ele>42</ele>
        <time>2022-02-07T15:23:23.999Z</time>
      </trkpt>
      <trkpt lat="48.85336" lon="2.37008">
        <ele>42</ele>
        <time>2022-02-07T15:23:28.999Z</time>
      </trkpt>
      <trkpt lat="48.85332" lon="2.37008">
        <ele>42</ele>
        <time>2022-02-07T15:23:33.999Z</time>
      </trkpt>
      <trkpt lat="48.85331" lon="2.37007">
        <ele>42</ele>
        <time>2022-02-07T15:23:38.999Z</time>
      </trkpt>
      <trkpt lat="48.85328" lon="2.37006">
        <ele>42</ele>
        <time>2022-02-07T15:23:43.999Z</time>
      </trkpt>
      <trkpt lat="48.85324" lon="2.37005">
        <ele>42</ele>
        <time>2022-02-07T15:23:47.999Z</time>
      </trkpt>
      <trkpt lat="48.85318" lon="2.37006">
        <ele>43</ele>
        <time>2022-02-07T15:23:52.999Z</time>
      </trkpt>
      <trkpt lat="48.85313" lon="2.37005">
        <ele>43</ele>
        <time>2022-02-07T15:23:57.999Z</time>
      </trkpt>
      <trkpt lat="48.85308" lon="2.37003">
        <ele>43</ele>
        <time>2022-02-07T15:24:02.999Z</time>
      </trkpt>
      <trkpt lat="48.85303" lon="2.37002">
        <ele>43</ele>
        <time>2022-02-07T15:24:07.999Z</time>
      </trkpt>
      <trkpt lat="48.85299" lon="2.37">
        <ele>43</ele>
        <time>2022-02-07T15:24:11.999Z</time>
      </trkpt>
      <trkpt lat="48.85296" lon="2.36999">
        <ele>43</ele>
        <time>2022-02-07T15:24:15.999Z</time>
      </trkpt>
      <trkpt lat="48.85292" lon="2.36996">
        <ele>43</ele>
        <time>2022-02-07T15:24:20.999Z</time>
      </trkpt>
      <trkpt lat="48.85289" lon="2.36993">
        <ele>45</ele>
        <time>2022-02-07T15:24:24.999Z</time>
      </trkpt>
      <trkpt lat="48.85285" lon="2.36991">
        <ele>45</ele>
        <time>2022-02-07T15:24:28.999Z</time>
      </trkpt>
      <trkpt lat="48.85282" lon="2.36989">
        <ele>45</ele>
        <time>2022-02-07T15:24:32.999Z</time>
      </trkpt>
      <trkpt lat="48.85278" lon="2.36986">
        <ele>46</ele>
        <time>2022-02-07T15:24:37.999Z</time>
      </trkpt>
      <trkpt lat="48.85274" lon="2.36983">
        <ele>46</ele>
        <time>2022-02-07T15:24:42.999Z</time>
      </trkpt>
      <trkpt lat="48.85269" lon="2.36982">
        <ele>46</ele>
        <time>2022-02-07T15:24:47.999Z</time>
      </trkpt>
      <trkpt lat="48.85264" lon="2.36979">
        <ele>46</ele>
        <time>2022-02-07T15:24:52.999Z</time>
      </trkpt>
      <trkpt lat="48.85261" lon="2.36977">
        <ele>50</ele>
        <time>2022-02-07T15:24:56.999Z</time>
      </trkpt>
      <trkpt lat="48.85257" lon="2.36973">
        <ele>50</ele>
        <time>2022-02-07T15:25:01.999Z</time>
      </trkpt>
      <trkpt lat="48.85252" lon="2.36971">
        <ele>50</ele>
        <time>2022-02-07T15:25:06.999Z</time>
      </trkpt>
      <trkpt lat="48.85248" lon="2.36969">
        <ele>50</ele>
        <time>2022-02-07T15:25:11.999Z</time>
      </trkpt>
      <trkpt lat="48.85244" lon="2.3697">
        <ele>50</ele>
        <time>2022-02-07T15:25:15.999Z</time>
      </trkpt>
      <trkpt lat="48.85239" lon="2.36972">
        <ele>50</ele>
        <time>2022-02-07T15:25:20.999Z</time>
      </trkpt>
      <trkpt lat="48.85234" lon="2.36977">
        <ele>52</ele>
        <time>2022-02-07T15:25:25.999Z</time>
      </trkpt>
      <trkpt lat="48.85229" lon="2.36978">
        <ele>52</ele>
        <time>2022-02-07T15:25:30.999Z</time>
      </trkpt>
      <trkpt lat="48.85225" lon="2.3698">
        <ele>52</ele>
        <time>2022-02-07T15:25:34.999Z</time>
      </trkpt>
      <trkpt lat="48.85221" lon="2.36984">
        <ele>52</ele>
        <time>2022-02-07T15:25:38.999Z</time>
      </trkpt>
      <trkpt lat="48.85217" lon="2.36985">
        <ele>52</ele>
        <time>2022-02-07T15:25:43.999Z</time>
      </trkpt>
      <trkpt lat="48.85215" lon="2.36988">
        <ele>54</ele>
        <time>2022-02-07T15:25:47.999Z</time>
      </trkpt>
      <trkpt lat="48.85211" lon="2.3699">
        <ele>54</ele>
        <time>2022-02-07T15:25:52.999Z</time>
      </trkpt>
      <trkpt lat="48.85207" lon="2.36991">
        <ele>53</ele>
        <time>2022-02-07T15:25:56.999Z</time>
      </trkpt>
      <trkpt lat="48.85203" lon="2.36994">
        <ele>53</ele>
        <time>2022-02-07T15:26:01.999Z</time>
      </trkpt>
      <trkpt lat="48.85198" lon="2.36996">
        <ele>53</ele>
        <time>2022-02-07T15:26:06.999Z</time>
      </trkpt>
      <trkpt lat="48.85191" lon="2.36994">
        <ele>53</ele>
        <time>2022-02-07T15:26:11.999Z</time>
      </trkpt>
      <trkpt lat="48.85186" lon="2.36996">
        <ele>53</ele>
        <time>2022-02-07T15:26:16.999Z</time>
      </trkpt>
      <trkpt lat="48.85181" lon="2.36997">
        <ele>53</ele>
        <time>2022-02-07T15:26:21.999Z</time>
      </trkpt>
      <trkpt lat="48.85176" lon="2.36996">
        <ele>48</ele>
        <time>2022-02-07T15:26:26.999Z</time>
      </trkpt>
      <trkpt lat="48.85171" lon="2.36997">
        <ele>48</ele>
        <time>2022-02-07T15:26:30.999Z</time>
      </trkpt>
      <trkpt lat="48.85165" lon="2.36998">
        <ele>48</ele>
        <time>2022-02-07T15:26:35.999Z</time>
      </trkpt>
      <trkpt lat="48.85159" lon="2.36998">
        <ele>48</ele>
        <time>2022-02-07T15:26:40.999Z</time>
      </trkpt>
      <trkpt lat="48.85154" lon="2.37">
        <ele>48</ele>
        <time>2022-02-07T15:26:45.999Z</time>
      </trkpt>
      <trkpt lat="48.85149" lon="2.37003">
        <ele>43</ele>
        <time>2022-02-07T15:26:50.999Z</time>
      </trkpt>
      <trkpt lat="48.85146" lon="2.37001">
        <ele>43</ele>
        <time>2022-02-07T15:26:54.999Z</time>
      </trkpt>
      <trkpt lat="48.85144" lon="2.37003">
        <ele>43</ele>
        <time>2022-02-07T15:26:58.999Z</time>
      </trkpt>
      <trkpt lat="48.85141" lon="2.37012">
        <ele>43</ele>
        <time>2022-02-07T15:27:03.999Z</time>
      </trkpt>
      <trkpt lat="48.85141" lon="2.37019">
        <ele>45</ele>
        <time>2022-02-07T15:27:08.999Z</time>
      </trkpt>
      <trkpt lat="48.85137" lon="2.3703">
        <ele>45</ele>
        <time>2022-02-07T15:27:13.999Z</time>
      </trkpt>
      <trkpt lat="48.85131" lon="2.37034">
        <ele>45</ele>
        <time>2022-02-07T15:27:17.999Z</time>
      </trkpt>
      <trkpt lat="48.85126" lon="2.37036">
        <ele>45</ele>
        <time>2022-02-07T15:27:22.999Z</time>
      </trkpt>
      <trkpt lat="48.85122" lon="2.37036">
        <ele>47</ele>
        <time>2022-02-07T15:27:26.999Z</time>
      </trkpt>
      <trkpt lat="48.85118" lon="2.37036">
        <ele>47</ele>
        <time>2022-02-07T15:27:30.999Z</time>
      </trkpt>
      <trkpt lat="48.85114" lon="2.37037">
        <ele>47</ele>
        <time>2022-02-07T15:27:35.999Z</time>
      </trkpt>
      <trkpt lat="48.85106" lon="2.37045">
        <ele>47</ele>
        <time>2022-02-07T15:27:40.999Z</time>
      </trkpt>
      <trkpt lat="48.851" lon="2.3705">
        <ele>47</ele>
        <time>2022-02-07T15:27:44.999Z</time>
      </trkpt>
      <trkpt lat="48.85095" lon="2.37051">
        <ele>46</ele>
        <time>2022-02-07T15:27:49.999Z</time>
      </trkpt>
      <trkpt lat="48.8509" lon="2.37049">
        <ele>46</ele>
        <time>2022-02-07T15:27:53.999Z</time>
      </trkpt>
      <trkpt lat="48.85084" lon="2.37044">
        <ele>46</ele>
        <time>2022-02-07T15:27:58.999Z</time>
      </trkpt>
      <trkpt lat="48.85076" lon="2.37046">
        <ele>46</ele>
        <time>2022-02-07T15:28:03.999Z</time>
      </trkpt>
      <trkpt lat="48.85069" lon="2.3705">
        <ele>45</ele>
        <time>2022-02-07T15:28:07.999Z</time>
      </trkpt>
      <trkpt lat="48.85064" lon="2.37059">
        <ele>45</ele>
        <time>2022-02-07T15:28:12.999Z</time>
      </trkpt>
      <trkpt lat="48.85056" lon="2.37064">
        <ele>45</ele>
        <time>2022-02-07T15:28:17.999Z</time>
      </trkpt>
      <trkpt lat="48.85039" lon="2.37052">
        <ele>44</ele>
        <time>2022-02-07T15:28:22.999Z</time>
      </trkpt>
      <trkpt lat="48.85029" lon="2.37046">
        <ele>44</ele>
        <time>2022-02-07T15:28:27.999Z</time>
      </trkpt>
      <trkpt lat="48.85021" lon="2.37041">
        <ele>46</ele>
        <time>2022-02-07T15:28:31.999Z</time>
      </trkpt>
      <trkpt lat="48.85008" lon="2.37034">
        <ele>44</ele>
        <time>2022-02-07T15:28:36.999Z</time>
      </trkpt>
      <trkpt lat="48.85004" lon="2.37035">
        <ele>44</ele>
        <time>2022-02-07T15:28:40.999Z</time>
      </trkpt>
      <trkpt lat="48.84999" lon="2.37036">
        <ele>44</ele>
        <time>2022-02-07T15:28:44.999Z</time>
      </trkpt>
      <trkpt lat="48.84995" lon="2.37037">
        <ele>44</ele>
        <time>2022-02-07T15:28:49.999Z</time>
      </trkpt>
      <trkpt lat="48.84994" lon="2.37048">
        <ele>44</ele>
        <time>2022-02-07T15:28:55.103Z</time>
      </trkpt>
      <trkpt lat="48.84992" lon="2.37057">
        <ele>44</ele>
        <time>2022-02-07T15:28:59.999Z</time>
      </trkpt>
      <trkpt lat="48.84991" lon="2.37063">
        <ele>44</ele>
        <time>2022-02-07T15:29:04.999Z</time>
      </trkpt>
      <trkpt lat="48.84987" lon="2.37067">
        <ele>44</ele>
        <time>2022-02-07T15:29:09.999Z</time>
      </trkpt>
      <trkpt lat="48.84985" lon="2.3707">
        <ele>42</ele>
        <time>2022-02-07T15:29:14.999Z</time>
      </trkpt>
      <trkpt lat="48.84982" lon="2.37076">
        <ele>42</ele>
        <time>2022-02-07T15:29:19.999Z</time>
      </trkpt>
      <trkpt lat="48.8498" lon="2.37079">
        <ele>42</ele>
        <time>2022-02-07T15:29:23.999Z</time>
      </trkpt>
      <trkpt lat="48.84975" lon="2.37082">
        <ele>42</ele>
        <time>2022-02-07T15:29:28.999Z</time>
      </trkpt>
      <trkpt lat="48.84972" lon="2.37086">
        <ele>42</ele>
        <time>2022-02-07T15:29:32.999Z</time>
      </trkpt>
      <trkpt lat="48.84968" lon="2.37092">
        <ele>42</ele>
        <time>2022-02-07T15:29:37.999Z</time>
      </trkpt>
      <trkpt lat="48.84963" lon="2.37098">
        <ele>39</ele>
        <time>2022-02-07T15:29:42.999Z</time>
      </trkpt>
      <trkpt lat="48.84959" lon="2.37103">
        <ele>39</ele>
        <time>2022-02-07T15:29:47.999Z</time>
      </trkpt>
      <trkpt lat="48.84955" lon="2.37107">
        <ele>40</ele>
        <time>2022-02-07T15:29:51.999Z</time>
      </trkpt>
      <trkpt lat="48.84952" lon="2.37112">
        <ele>40</ele>
        <time>2022-02-07T15:29:56.999Z</time>
      </trkpt>
      <trkpt lat="48.84954" lon="2.37118">
        <ele>40</ele>
        <time>2022-02-07T15:30:01.999Z</time>
      </trkpt>
      <trkpt lat="48.84958" lon="2.37118">
        <ele>40</ele>
        <time>2022-02-07T15:30:05.999Z</time>
      </trkpt>
      <trkpt lat="48.84963" lon="2.37117">
        <ele>39</ele>
        <time>2022-02-07T15:30:10.999Z</time>
      </trkpt>
      <trkpt lat="48.84966" lon="2.37116">
        <ele>39</ele>
        <time>2022-02-07T15:30:14.999Z</time>
      </trkpt>
      <trkpt lat="48.84968" lon="2.3712">
        <ele>39</ele>
        <time>2022-02-07T15:30:20.100Z</time>
      </trkpt>
      <trkpt lat="48.84969" lon="2.37126">
        <ele>39</ele>
        <time>2022-02-07T15:30:24.999Z</time>
      </trkpt>
      <trkpt lat="48.84966" lon="2.37129">
        <ele>39</ele>
        <time>2022-02-07T15:30:29.999Z</time>
      </trkpt>
      <trkpt lat="48.84963" lon="2.37133">
        <ele>39</ele>
        <time>2022-02-07T15:30:34.999Z</time>
      </trkpt>
      <trkpt lat="48.84959" lon="2.37135">
        <ele>39</ele>
        <time>2022-02-07T15:30:39.999Z</time>
      </trkpt>
      <trkpt lat="48.84956" lon="2.37136">
        <ele>38</ele>
        <time>2022-02-07T15:30:44.999Z</time>
      </trkpt>
      <trkpt lat="48.84954" lon="2.37138">
        <ele>38</ele>
        <time>2022-02-07T15:30:49.999Z</time>
      </trkpt>
      <trkpt lat="48.84951" lon="2.37141">
        <ele>38</ele>
        <time>2022-02-07T15:30:54.999Z</time>
      </trkpt>
      <trkpt lat="48.84948" lon="2.37146">
        <ele>38</ele>
        <time>2022-02-07T15:30:59.999Z</time>
      </trkpt>
      <trkpt lat="48.84944" lon="2.37149">
        <ele>38</ele>
        <time>2022-02-07T15:31:04.999Z</time>
      </trkpt>
      <trkpt lat="48.8494" lon="2.37151">
        <ele>38</ele>
        <time>2022-02-07T15:31:09.999Z</time>
      </trkpt>
      <trkpt lat="48.84937" lon="2.37154">
        <ele>37</ele>
        <time>2022-02-07T15:31:14.999Z</time>
      </trkpt>
      <trkpt lat="48.84935" lon="2.37158">
        <ele>37</ele>
        <time>2022-02-07T15:31:18.999Z</time>
      </trkpt>
      <trkpt lat="48.84933" lon="2.37162">
        <ele>37</ele>
        <time>2022-02-07T15:31:22.999Z</time>
      </trkpt>
      <trkpt lat="48.84931" lon="2.37167">
        <ele>37</ele>
        <time>2022-02-07T15:31:27.999Z</time>
      </trkpt>
      <trkpt lat="48.84929" lon="2.37171">
        <ele>38</ele>
        <time>2022-02-07T15:31:31.999Z</time>
      </trkpt>
      <trkpt lat="48.84927" lon="2.37176">
        <ele>38</ele>
        <time>2022-02-07T15:31:36.102Z</time>
      </trkpt>
      <trkpt lat="48.84925" lon="2.37181">
        <ele>38</ele>
        <time>2022-02-07T15:31:40.999Z</time>
      </trkpt>
      <trkpt lat="48.84922" lon="2.37186">
        <ele>38</ele>
        <time>2022-02-07T15:31:45.999Z</time>
      </trkpt>
      <trkpt lat="48.84919" lon="2.3719">
        <ele>38</ele>
        <time>2022-02-07T15:31:50.999Z</time>
      </trkpt>
      <trkpt lat="48.84917" lon="2.37194">
        <ele>38</ele>
        <time>2022-02-07T15:31:54.999Z</time>
      </trkpt>
      <trkpt lat="48.84914" lon="2.37199">
        <ele>38</ele>
        <time>2022-02-07T15:31:59.999Z</time>
      </trkpt>
      <trkpt lat="48.84912" lon="2.37204">
        <ele>38</ele>
        <time>2022-02-07T15:32:04.999Z</time>
      </trkpt>
      <trkpt lat="48.8491" lon="2.37209">
        <ele>38</ele>
        <time>2022-02-07T15:32:08.999Z</time>
      </trkpt>
      <trkpt lat="48.84908" lon="2.37214">
        <ele>38</ele>
        <time>2022-02-07T15:32:13.999Z</time>
      </trkpt>
      <trkpt lat="48.84904" lon="2.3722">
        <ele>38</ele>
        <time>2022-02-07T15:32:18.999Z</time>
      </trkpt>
      <trkpt lat="48.84901" lon="2.37225">
        <ele>36</ele>
        <time>2022-02-07T15:32:23.999Z</time>
      </trkpt>
      <trkpt lat="48.84898" lon="2.37231">
        <ele>36</ele>
        <time>2022-02-07T15:32:28.999Z</time>
      </trkpt>
      <trkpt lat="48.84896" lon="2.37236">
        <ele>36</ele>
        <time>2022-02-07T15:32:32.999Z</time>
      </trkpt>
      <trkpt lat="48.84893" lon="2.37241">
        <ele>36</ele>
        <time>2022-02-07T15:32:37.999Z</time>
      </trkpt>
      <trkpt lat="48.84891" lon="2.37245">
        <ele>36</ele>
        <time>2022-02-07T15:32:41.999Z</time>
      </trkpt>
      <trkpt lat="48.84887" lon="2.37251">
        <ele>36</ele>
        <time>2022-02-07T15:32:46.999Z</time>
      </trkpt>
      <trkpt lat="48.84884" lon="2.37256">
        <ele>36</ele>
        <time>2022-02-07T15:32:51.999Z</time>
      </trkpt>
      <trkpt lat="48.84882" lon="2.37261">
        <ele>36</ele>
        <time>2022-02-07T15:32:55.999Z</time>
      </trkpt>
      <trkpt lat="48.84879" lon="2.37267">
        <ele>36</ele>
        <time>2022-02-07T15:33:01.104Z</time>
      </trkpt>
      <trkpt lat="48.84876" lon="2.37273">
        <ele>36</ele>
        <time>2022-02-07T15:33:05.999Z</time>
      </trkpt>
      <trkpt lat="48.84873" lon="2.37279">
        <ele>38</ele>
        <time>2022-02-07T15:33:10.999Z</time>
      </trkpt>
      <trkpt lat="48.84869" lon="2.37291">
        <ele>38</ele>
        <time>2022-02-07T15:33:15.999Z</time>
      </trkpt>
      <trkpt lat="48.84868" lon="2.37303">
        <ele>39</ele>
        <time>2022-02-07T15:33:21.181Z</time>
      </trkpt>
      <trkpt lat="48.84866" lon="2.37306">
        <ele>39</ele>
        <time>2022-02-07T15:33:25.999Z</time>
      </trkpt>
      <trkpt lat="48.84866" lon="2.37308">
        <ele>39</ele>
        <time>2022-02-07T15:33:30.999Z</time>
      </trkpt>
      <trkpt lat="48.84862" lon="2.37313">
        <ele>39</ele>
        <time>2022-02-07T15:33:35.999Z</time>
      </trkpt>
      <trkpt lat="48.8486" lon="2.37317">
        <ele>39</ele>
        <time>2022-02-07T15:33:39.999Z</time>
      </trkpt>
      <trkpt lat="48.84858" lon="2.37322">
        <ele>40</ele>
        <time>2022-02-07T15:33:44.999Z</time>
      </trkpt>
      <trkpt lat="48.84856" lon="2.37326">
        <ele>40</ele>
        <time>2022-02-07T15:33:48.999Z</time>
      </trkpt>
      <trkpt lat="48.84853" lon="2.37331">
        <ele>40</ele>
        <time>2022-02-07T15:33:53.999Z</time>
      </trkpt>
      <trkpt lat="48.84852" lon="2.37333">
        <ele>40</ele>
        <time>2022-02-07T15:33:57.999Z</time>
      </trkpt>
      <trkpt lat="48.84849" lon="2.37335">
        <ele>40</ele>
        <time>2022-02-07T15:34:01.999Z</time>
      </trkpt>
      <trkpt lat="48.8485" lon="2.37344">
        <ele>40</ele>
        <time>2022-02-07T15:34:06.999Z</time>
      </trkpt>
      <trkpt lat="48.84847" lon="2.3735">
        <ele>41</ele>
        <time>2022-02-07T15:34:11.999Z</time>
      </trkpt>
      <trkpt lat="48.84845" lon="2.37354">
        <ele>41</ele>
        <time>2022-02-07T15:34:15.999Z</time>
      </trkpt>
      <trkpt lat="48.84842" lon="2.3736">
        <ele>41</ele>
        <time>2022-02-07T15:34:20.999Z</time>
      </trkpt>
      <trkpt lat="48.84835" lon="2.37363">
        <ele>41</ele>
        <time>2022-02-07T15:34:24.999Z</time>
      </trkpt>
      <trkpt lat="48.84832" lon="2.37369">
        <ele>41</ele>
        <time>2022-02-07T15:34:28.999Z</time>
      </trkpt>
      <trkpt lat="48.8483" lon="2.37375">
        <ele>41</ele>
        <time>2022-02-07T15:34:33.999Z</time>
      </trkpt>
      <trkpt lat="48.84826" lon="2.37386">
        <ele>41</ele>
        <time>2022-02-07T15:34:38.999Z</time>
      </trkpt>
      <trkpt lat="48.84819" lon="2.37393">
        <ele>39</ele>
        <time>2022-02-07T15:34:43.999Z</time>
      </trkpt>
      <trkpt lat="48.84816" lon="2.37397">
        <ele>39</ele>
        <time>2022-02-07T15:34:48.999Z</time>
      </trkpt>
      <trkpt lat="48.84815" lon="2.37406">
        <ele>39</ele>
        <time>2022-02-07T15:34:53.999Z</time>
      </trkpt>
      <trkpt lat="48.84813" lon="2.37409">
        <ele>39</ele>
        <time>2022-02-07T15:34:57.999Z</time>
      </trkpt>
      <trkpt lat="48.84812" lon="2.37415">
        <ele>39</ele>
        <time>2022-02-07T15:35:02.999Z</time>
      </trkpt>
      <trkpt lat="48.8481" lon="2.37418">
        <ele>39</ele>
        <time>2022-02-07T15:35:07.999Z</time>
      </trkpt>
      <trkpt lat="48.84806" lon="2.37423">
        <ele>39</ele>
        <time>2022-02-07T15:35:12.999Z</time>
      </trkpt>
      <trkpt lat="48.848" lon="2.37431">
        <ele>39</ele>
        <time>2022-02-07T15:35:17.999Z</time>
      </trkpt>
      <trkpt lat="48.84797" lon="2.37436">
        <ele>39</ele>
        <time>2022-02-07T15:35:22.999Z</time>
      </trkpt>
      <trkpt lat="48.84793" lon="2.37439">
        <ele>39</ele>
        <time>2022-02-07T15:35:26.999Z</time>
      </trkpt>
      <trkpt lat="48.84791" lon="2.37444">
        <ele>40</ele>
        <time>2022-02-07T15:35:31.999Z</time>
      </trkpt>
      <trkpt lat="48.84788" lon="2.3745">
        <ele>40</ele>
        <time>2022-02-07T15:35:36.999Z</time>
      </trkpt>
      <trkpt lat="48.8479" lon="2.37455">
        <ele>40</ele>
        <time>2022-02-07T15:35:41.999Z</time>
      </trkpt>
      <trkpt lat="48.84792" lon="2.37467">
        <ele>39</ele>
        <time>2022-02-07T15:35:46.999Z</time>
      </trkpt>
      <trkpt lat="48.84794" lon="2.37477">
        <ele>39</ele>
        <time>2022-02-07T15:35:50.999Z</time>
      </trkpt>
      <trkpt lat="48.8479" lon="2.37481">
        <ele>39</ele>
        <time>2022-02-07T15:35:55.999Z</time>
      </trkpt>
      <trkpt lat="48.84787" lon="2.37488">
        <ele>38</ele>
        <time>2022-02-07T15:36:00.999Z</time>
      </trkpt>
      <trkpt lat="48.84784" lon="2.37492">
        <ele>38</ele>
        <time>2022-02-07T15:36:04.999Z</time>
      </trkpt>
      <trkpt lat="48.84781" lon="2.37494">
        <ele>38</ele>
        <time>2022-02-07T15:36:09.999Z</time>
      </trkpt>
      <trkpt lat="48.84781" lon="2.37498">
        <ele>38</ele>
        <time>2022-02-07T15:36:14.999Z</time>
      </trkpt>
      <trkpt lat="48.84782" lon="2.37506">
        <ele>38</ele>
        <time>2022-02-07T15:36:19.999Z</time>
      </trkpt>
      <trkpt lat="48.84782" lon="2.37512">
        <ele>38</ele>
        <time>2022-02-07T15:36:24.999Z</time>
      </trkpt>
      <trkpt lat="48.84782" lon="2.37516">
        <ele>38</ele>
        <time>2022-02-07T15:36:29.999Z</time>
      </trkpt>
      <trkpt lat="48.84783" lon="2.3752">
        <ele>38</ele>
        <time>2022-02-07T15:36:33.999Z</time>
      </trkpt>
      <trkpt lat="48.8478" lon="2.37528">
        <ele>38</ele>
        <time>2022-02-07T15:36:38.999Z</time>
      </trkpt>
      <trkpt lat="48.84765" lon="2.37533">
        <ele>38</ele>
        <time>2022-02-07T15:36:42.999Z</time>
      </trkpt>
      <trkpt lat="48.84756" lon="2.37541">
        <ele>38</ele>
        <time>2022-02-07T15:36:47.999Z</time>
      </trkpt>
      <trkpt lat="48.84751" lon="2.37546">
        <ele>38</ele>
        <time>2022-02-07T15:36:51.999Z</time>
      </trkpt>
      <trkpt lat="48.84746" lon="2.37551">
        <ele>38</ele>
        <time>2022-02-07T15:36:56.999Z</time>
      </trkpt>
      <trkpt lat="48.84742" lon="2.37558">
        <ele>38</ele>
        <time>2022-02-07T15:37:01.999Z</time>
      </trkpt>
      <trkpt lat="48.8474" lon="2.37563">
        <ele>38</ele>
        <time>2022-02-07T15:37:06.999Z</time>
      </trkpt>
      <trkpt lat="48.84738" lon="2.37569">
        <ele>38</ele>
        <time>2022-02-07T15:37:11.999Z</time>
      </trkpt>
      <trkpt lat="48.84736" lon="2.37573">
        <ele>41</ele>
        <time>2022-02-07T15:37:15.999Z</time>
      </trkpt>
      <trkpt lat="48.84735" lon="2.37577">
        <ele>41</ele>
        <time>2022-02-07T15:37:19.999Z</time>
      </trkpt>
      <trkpt lat="48.84732" lon="2.37584">
        <ele>41</ele>
        <time>2022-02-07T15:37:24.999Z</time>
      </trkpt>
      <trkpt lat="48.84729" lon="2.37589">
        <ele>41</ele>
        <time>2022-02-07T15:37:29.999Z</time>
      </trkpt>
      <trkpt lat="48.84726" lon="2.37596">
        <ele>41</ele>
        <time>2022-02-07T15:37:34.999Z</time>
      </trkpt>
      <trkpt lat="48.84723" lon="2.37601">
        <ele>42</ele>
        <time>2022-02-07T15:37:39.999Z</time>
      </trkpt>
      <trkpt lat="48.8472" lon="2.37608">
        <ele>42</ele>
        <time>2022-02-07T15:37:44.999Z</time>
      </trkpt>
      <trkpt lat="48.84717" lon="2.37614">
        <ele>42</ele>
        <time>2022-02-07T15:37:49.999Z</time>
      </trkpt>
      <trkpt lat="48.84714" lon="2.3762">
        <ele>42</ele>
        <time>2022-02-07T15:37:54.999Z</time>
      </trkpt>
      <trkpt lat="48.84711" lon="2.37625">
        <ele>42</ele>
        <time>2022-02-07T15:37:59.999Z</time>
      </trkpt>
      <trkpt lat="48.84708" lon="2.3763">
        <ele>42</ele>
        <time>2022-02-07T15:38:03.999Z</time>
      </trkpt>
      <trkpt lat="48.84706" lon="2.37635">
        <ele>40</ele>
        <time>2022-02-07T15:38:08.999Z</time>
      </trkpt>
      <trkpt lat="48.84703" lon="2.37641">
        <ele>40</ele>
        <time>2022-02-07T15:38:13.999Z</time>
      </trkpt>
      <trkpt lat="48.847" lon="2.37647">
        <ele>40</ele>
        <time>2022-02-07T15:38:18.999Z</time>
      </trkpt>
      <trkpt lat="48.84698" lon="2.37653">
        <ele>40</ele>
        <time>2022-02-07T15:38:23.999Z</time>
      </trkpt>
      <trkpt lat="48.84695" lon="2.37658">
        <ele>40</ele>
        <time>2022-02-07T15:38:27.999Z</time>
      </trkpt>
      <trkpt lat="48.84693" lon="2.37664">
        <ele>40</ele>
        <time>2022-02-07T15:38:32.999Z</time>
      </trkpt>
      <trkpt lat="48.84691" lon="2.37668">
        <ele>40</ele>
        <time>2022-02-07T15:38:36.999Z</time>
      </trkpt>
      <trkpt lat="48.84688" lon="2.37673">
        <ele>40</ele>
        <time>2022-02-07T15:38:41.999Z</time>
      </trkpt>
      <trkpt lat="48.84685" lon="2.37678">
        <ele>40</ele>
        <time>2022-02-07T15:38:46.999Z</time>
      </trkpt>
      <trkpt lat="48.84682" lon="2.37683">
        <ele>41</ele>
        <time>2022-02-07T15:38:50.999Z</time>
      </trkpt>
      <trkpt lat="48.8468" lon="2.37682">
        <ele>42</ele>
        <time>2022-02-07T15:39:22.999Z</time>
      </trkpt>
      <trkpt lat="48.8468" lon="2.37692">
        <ele>42</ele>
        <time>2022-02-07T15:39:27.999Z</time>
      </trkpt>
      <trkpt lat="48.84676" lon="2.377">
        <ele>42</ele>
        <time>2022-02-07T15:39:31.999Z</time>
      </trkpt>
      <trkpt lat="48.84674" lon="2.37703">
        <ele>42</ele>
        <time>2022-02-07T15:39:35.999Z</time>
      </trkpt>
      <trkpt lat="48.84671" lon="2.37707">
        <ele>42</ele>
        <time>2022-02-07T15:39:40.999Z</time>
      </trkpt>
      <trkpt lat="48.84668" lon="2.37709">
        <ele>43</ele>
        <time>2022-02-07T15:39:44.999Z</time>
      </trkpt>
      <trkpt lat="48.84666" lon="2.3771">
        <ele>43</ele>
        <time>2022-02-07T15:39:49.999Z</time>
      </trkpt>
      <trkpt lat="48.84662" lon="2.37715">
        <ele>43</ele>
        <time>2022-02-07T15:39:54.999Z</time>
      </trkpt>
      <trkpt lat="48.84663" lon="2.3772">
        <ele>43</ele>
        <time>2022-02-07T15:39:58.999Z</time>
      </trkpt>
      <trkpt lat="48.84666" lon="2.37729">
        <ele>43</ele>
        <time>2022-02-07T15:40:03.999Z</time>
      </trkpt>
      <trkpt lat="48.84667" lon="2.37736">
        <ele>43</ele>
        <time>2022-02-07T15:40:07.999Z</time>
      </trkpt>
      <trkpt lat="48.84666" lon="2.3774">
        <ele>43</ele>
        <time>2022-02-07T15:40:11.999Z</time>
      </trkpt>
      <trkpt lat="48.84667" lon="2.37746">
        <ele>43</ele>
        <time>2022-02-07T15:40:16.999Z</time>
      </trkpt>
      <trkpt lat="48.84664" lon="2.37751">
        <ele>43</ele>
        <time>2022-02-07T15:40:20.999Z</time>
      </trkpt>
      <trkpt lat="48.84659" lon="2.37758">
        <ele>43</ele>
        <time>2022-02-07T15:40:25.999Z</time>
      </trkpt>
      <trkpt lat="48.84653" lon="2.37763">
        <ele>43</ele>
        <time>2022-02-07T15:40:30.999Z</time>
      </trkpt>
      <trkpt lat="48.84648" lon="2.37769">
        <ele>44</ele>
        <time>2022-02-07T15:40:35.999Z</time>
      </trkpt>
      <trkpt lat="48.84643" lon="2.37776">
        <ele>44</ele>
        <time>2022-02-07T15:40:40.999Z</time>
      </trkpt>
      <trkpt lat="48.84638" lon="2.37783">
        <ele>44</ele>
        <time>2022-02-07T15:40:45.999Z</time>
      </trkpt>
      <trkpt lat="48.84635" lon="2.37788">
        <ele>44</ele>
        <time>2022-02-07T15:40:49.999Z</time>
      </trkpt>
      <trkpt lat="48.84631" lon="2.37794">
        <ele>43</ele>
        <time>2022-02-07T15:40:54.999Z</time>
      </trkpt>
      <trkpt lat="48.84627" lon="2.37801">
        <ele>43</ele>
        <time>2022-02-07T15:40:59.999Z</time>
      </trkpt>
      <trkpt lat="48.84624" lon="2.37808">
        <ele>42</ele>
        <time>2022-02-07T15:41:04.999Z</time>
      </trkpt>
      <trkpt lat="48.84621" lon="2.37814">
        <ele>42</ele>
        <time>2022-02-07T15:41:08.999Z</time>
      </trkpt>
      <trkpt lat="48.84619" lon="2.37821">
        <ele>41</ele>
        <time>2022-02-07T15:41:12.999Z</time>
      </trkpt>
      <trkpt lat="48.84615" lon="2.37827">
        <ele>41</ele>
        <time>2022-02-07T15:41:17.999Z</time>
      </trkpt>
      <trkpt lat="48.84612" lon="2.37833">
        <ele>41</ele>
        <time>2022-02-07T15:41:22.999Z</time>
      </trkpt>
      <trkpt lat="48.84609" lon="2.37839">
        <ele>41</ele>
        <time>2022-02-07T15:41:27.999Z</time>
      </trkpt>
      <trkpt lat="48.84605" lon="2.37842">
        <ele>41</ele>
        <time>2022-02-07T15:41:32.999Z</time>
      </trkpt>
      <trkpt lat="48.84602" lon="2.37847">
        <ele>39</ele>
        <time>2022-02-07T15:41:37.999Z</time>
      </trkpt>
      <trkpt lat="48.846" lon="2.37849">
        <ele>39</ele>
        <time>2022-02-07T15:41:42.999Z</time>
      </trkpt>
      <trkpt lat="48.846" lon="2.37851">
        <ele>39</ele>
        <time>2022-02-07T15:41:47.999Z</time>
      </trkpt>
      <trkpt lat="48.84599" lon="2.37855">
        <ele>39</ele>
        <time>2022-02-07T15:41:51.999Z</time>
      </trkpt>
      <trkpt lat="48.84598" lon="2.37859">
        <ele>39</ele>
        <time>2022-02-07T15:41:56.999Z</time>
      </trkpt>
      <trkpt lat="48.84595" lon="2.37864">
        <ele>37</ele>
        <time>2022-02-07T15:42:01.999Z</time>
      </trkpt>
      <trkpt lat="48.84592" lon="2.37869">
        <ele>37</ele>
        <time>2022-02-07T15:42:06.999Z</time>
      </trkpt>
      <trkpt lat="48.8459" lon="2.37875">
        <ele>37</ele>
        <time>2022-02-07T15:42:10.999Z</time>
      </trkpt>
      <trkpt lat="48.84587" lon="2.37882">
        <ele>35</ele>
        <time>2022-02-07T15:42:15.999Z</time>
      </trkpt>
      <trkpt lat="48.84585" lon="2.37886">
        <ele>35</ele>
        <time>2022-02-07T15:42:19.999Z</time>
      </trkpt>
      <trkpt lat="48.84582" lon="2.37893">
        <ele>35</ele>
        <time>2022-02-07T15:42:24.999Z</time>
      </trkpt>
      <trkpt lat="48.84579" lon="2.37901">
        <ele>35</ele>
        <time>2022-02-07T15:42:29.999Z</time>
      </trkpt>
      <trkpt lat="48.84577" lon="2.37907">
        <ele>34</ele>
        <time>2022-02-07T15:42:34.999Z</time>
      </trkpt>
      <trkpt lat="48.84574" lon="2.37913">
        <ele>34</ele>
        <time>2022-02-07T15:42:39.999Z</time>
      </trkpt>
      <trkpt lat="48.84571" lon="2.37919">
        <ele>34</ele>
        <time>2022-02-07T15:42:44.999Z</time>
      </trkpt>
      <trkpt lat="48.84569" lon="2.37926">
        <ele>36</ele>
        <time>2022-02-07T15:42:49.999Z</time>
      </trkpt>
      <trkpt lat="48.84567" lon="2.37932">
        <ele>37</ele>
        <time>2022-02-07T15:42:54.999Z</time>
      </trkpt>
      <trkpt lat="48.84565" lon="2.37937">
        <ele>37</ele>
        <time>2022-02-07T15:42:59.999Z</time>
      </trkpt>
      <trkpt lat="48.84562" lon="2.37943">
        <ele>37</ele>
        <time>2022-02-07T15:43:04.999Z</time>
      </trkpt>
      <trkpt lat="48.84558" lon="2.37949">
        <ele>37</ele>
        <time>2022-02-07T15:43:09.999Z</time>
      </trkpt>
      <trkpt lat="48.84555" lon="2.37954">
        <ele>37</ele>
        <time>2022-02-07T15:43:14.999Z</time>
      </trkpt>
      <trkpt lat="48.84553" lon="2.37961">
        <ele>38</ele>
        <time>2022-02-07T15:43:19.999Z</time>
      </trkpt>
      <trkpt lat="48.84549" lon="2.37968">
        <ele>38</ele>
        <time>2022-02-07T15:43:24.999Z</time>
      </trkpt>
      <trkpt lat="48.84544" lon="2.37975">
        <ele>38</ele>
        <time>2022-02-07T15:43:28.999Z</time>
      </trkpt>
      <trkpt lat="48.84541" lon="2.37979">
        <ele>39</ele>
        <time>2022-02-07T15:43:33.999Z</time>
      </trkpt>
      <trkpt lat="48.84538" lon="2.37983">
        <ele>39</ele>
        <time>2022-02-07T15:43:38.999Z</time>
      </trkpt>
      <trkpt lat="48.84536" lon="2.37992">
        <ele>39</ele>
        <time>2022-02-07T15:43:42.999Z</time>
      </trkpt>
      <trkpt lat="48.84535" lon="2.37999">
        <ele>39</ele>
        <time>2022-02-07T15:43:47.999Z</time>
      </trkpt>
      <trkpt lat="48.84533" lon="2.38002">
        <ele>39</ele>
        <time>2022-02-07T15:43:51.999Z</time>
      </trkpt>
      <trkpt lat="48.8453" lon="2.38005">
        <ele>39</ele>
        <time>2022-02-07T15:43:56.999Z</time>
      </trkpt>
      <trkpt lat="48.84528" lon="2.38009">
        <ele>39</ele>
        <time>2022-02-07T15:44:00.999Z</time>
      </trkpt>
      <trkpt lat="48.84527" lon="2.38013">
        <ele>39</ele>
        <time>2022-02-07T15:44:05.999Z</time>
      </trkpt>
      <trkpt lat="48.84524" lon="2.38018">
        <ele>40</ele>
        <time>2022-02-07T15:44:10.999Z</time>
      </trkpt>
      <trkpt lat="48.84522" lon="2.38023">
        <ele>40</ele>
        <time>2022-02-07T15:44:15.999Z</time>
      </trkpt>
      <trkpt lat="48.84519" lon="2.3803">
        <ele>40</ele>
        <time>2022-02-07T15:44:20.999Z</time>
      </trkpt>
      <trkpt lat="48.84516" lon="2.38034">
        <ele>40</ele>
        <time>2022-02-07T15:44:24.999Z</time>
      </trkpt>
      <trkpt lat="48.84513" lon="2.38039">
        <ele>39</ele>
        <time>2022-02-07T15:44:29.999Z</time>
      </trkpt>
      <trkpt lat="48.84511" lon="2.38045">
        <ele>40</ele>
        <time>2022-02-07T15:44:34.999Z</time>
      </trkpt>
      <trkpt lat="48.84508" lon="2.38051">
        <ele>40</ele>
        <time>2022-02-07T15:44:39.999Z</time>
      </trkpt>
      <trkpt lat="48.84506" lon="2.38055">
        <ele>40</ele>
        <time>2022-02-07T15:44:43.999Z</time>
      </trkpt>
      <trkpt lat="48.84503" lon="2.3806">
        <ele>40</ele>
        <time>2022-02-07T15:44:48.999Z</time>
      </trkpt>
      <trkpt lat="48.84501" lon="2.38066">
        <ele>40</ele>
        <time>2022-02-07T15:44:53.999Z</time>
      </trkpt>
      <trkpt lat="48.84498" lon="2.3807">
        <ele>41</ele>
        <time>2022-02-07T15:44:57.999Z</time>
      </trkpt>
      <trkpt lat="48.84495" lon="2.38076">
        <ele>41</ele>
        <time>2022-02-07T15:45:02.999Z</time>
      </trkpt>
      <trkpt lat="48.84492" lon="2.38081">
        <ele>41</ele>
        <time>2022-02-07T15:45:07.999Z</time>
      </trkpt>
      <trkpt lat="48.8449" lon="2.38085">
        <ele>41</ele>
        <time>2022-02-07T15:45:11.999Z</time>
      </trkpt>
      <trkpt lat="48.84487" lon="2.38091">
        <ele>41</ele>
        <time>2022-02-07T15:45:16.999Z</time>
      </trkpt>
      <trkpt lat="48.84485" lon="2.38095">
        <ele>40</ele>
        <time>2022-02-07T15:45:20.999Z</time>
      </trkpt>
      <trkpt lat="48.84482" lon="2.38099">
        <ele>40</ele>
        <time>2022-02-07T15:45:25.999Z</time>
      </trkpt>
      <trkpt lat="48.84479" lon="2.38104">
        <ele>40</ele>
        <time>2022-02-07T15:45:30.999Z</time>
      </trkpt>
      <trkpt lat="48.84476" lon="2.3811">
        <ele>40</ele>
        <time>2022-02-07T15:45:35.999Z</time>
      </trkpt>
      <trkpt lat="48.84474" lon="2.38116">
        <ele>40</ele>
        <time>2022-02-07T15:45:40.999Z</time>
      </trkpt>
      <trkpt lat="48.84472" lon="2.38121">
        <ele>40</ele>
        <time>2022-02-07T15:45:44.999Z</time>
      </trkpt>
      <trkpt lat="48.84469" lon="2.38127">
        <ele>41</ele>
        <time>2022-02-07T15:45:49.999Z</time>
      </trkpt>
      <trkpt lat="48.84467" lon="2.38132">
        <ele>41</ele>
        <time>2022-02-07T15:45:54.999Z</time>
      </trkpt>
      <trkpt lat="48.84465" lon="2.38136">
        <ele>41</ele>
        <time>2022-02-07T15:45:58.999Z</time>
      </trkpt>
      <trkpt lat="48.84462" lon="2.38141">
        <ele>41</ele>
        <time>2022-02-07T15:46:03.999Z</time>
      </trkpt>
      <trkpt lat="48.8446" lon="2.38147">
        <ele>41</ele>
        <time>2022-02-07T15:46:08.999Z</time>
      </trkpt>
      <trkpt lat="48.84458" lon="2.38152">
        <ele>39</ele>
        <time>2022-02-07T15:46:13.999Z</time>
      </trkpt>
      <trkpt lat="48.84456" lon="2.38158">
        <ele>38</ele>
        <time>2022-02-07T15:46:18.999Z</time>
      </trkpt>
      <trkpt lat="48.84453" lon="2.38164">
        <ele>38</ele>
        <time>2022-02-07T15:46:23.999Z</time>
      </trkpt>
      <trkpt lat="48.8445" lon="2.38171">
        <ele>38</ele>
        <time>2022-02-07T15:46:28.999Z</time>
      </trkpt>
      <trkpt lat="48.84448" lon="2.38177">
        <ele>38</ele>
        <time>2022-02-07T15:46:33.999Z</time>
      </trkpt>
      <trkpt lat="48.84446" lon="2.38182">
        <ele>38</ele>
        <time>2022-02-07T15:46:37.999Z</time>
      </trkpt>
      <trkpt lat="48.84442" lon="2.38188">
        <ele>38</ele>
        <time>2022-02-07T15:46:42.999Z</time>
      </trkpt>
      <trkpt lat="48.84438" lon="2.38194">
        <ele>38</ele>
        <time>2022-02-07T15:46:47.999Z</time>
      </trkpt>
      <trkpt lat="48.84435" lon="2.38199">
        <ele>38</ele>
        <time>2022-02-07T15:46:52.999Z</time>
      </trkpt>
      <trkpt lat="48.84432" lon="2.38202">
        <ele>38</ele>
        <time>2022-02-07T15:46:56.999Z</time>
      </trkpt>
      <trkpt lat="48.84431" lon="2.38207">
        <ele>36</ele>
        <time>2022-02-07T15:47:00.999Z</time>
      </trkpt>
      <trkpt lat="48.84429" lon="2.38215">
        <ele>37</ele>
        <time>2022-02-07T15:47:05.999Z</time>
      </trkpt>
      <trkpt lat="48.8443" lon="2.38223">
        <ele>37</ele>
        <time>2022-02-07T15:47:09.999Z</time>
      </trkpt>
      <trkpt lat="48.84431" lon="2.38231">
        <ele>39</ele>
        <time>2022-02-07T15:47:13.999Z</time>
      </trkpt>
      <trkpt lat="48.84428" lon="2.38234">
        <ele>37</ele>
        <time>2022-02-07T15:47:18.999Z</time>
      </trkpt>
      <trkpt lat="48.84423" lon="2.38237">
        <ele>39</ele>
        <time>2022-02-07T15:47:23.999Z</time>
      </trkpt>
      <trkpt lat="48.8442" lon="2.3824">
        <ele>39</ele>
        <time>2022-02-07T15:47:28.999Z</time>
      </trkpt>
      <trkpt lat="48.84419" lon="2.38244">
        <ele>39</ele>
        <time>2022-02-07T15:47:32.999Z</time>
      </trkpt>
      <trkpt lat="48.84416" lon="2.38248">
        <ele>39</ele>
        <time>2022-02-07T15:47:37.999Z</time>
      </trkpt>
      <trkpt lat="48.84415" lon="2.38252">
        <ele>39</ele>
        <time>2022-02-07T15:47:41.999Z</time>
      </trkpt>
      <trkpt lat="48.84412" lon="2.38256">
        <ele>39</ele>
        <time>2022-02-07T15:47:46.999Z</time>
      </trkpt>
      <trkpt lat="48.84409" lon="2.38258">
        <ele>39</ele>
        <time>2022-02-07T15:47:51.159Z</time>
      </trkpt>
      <trkpt lat="48.84405" lon="2.3826">
        <ele>39</ele>
        <time>2022-02-07T15:47:55.999Z</time>
      </trkpt>
      <trkpt lat="48.84402" lon="2.38264">
        <ele>39</ele>
        <time>2022-02-07T15:47:59.999Z</time>
      </trkpt>
      <trkpt lat="48.84402" lon="2.38266">
        <ele>39</ele>
        <time>2022-02-07T15:48:23.999Z</time>
      </trkpt>
      <trkpt lat="48.84402" lon="2.38265">
        <ele>39</ele>
        <time>2022-02-07T15:48:27.999Z</time>
      </trkpt>
      <trkpt lat="48.844" lon="2.38269">
        <ele>39</ele>
        <time>2022-02-07T15:48:32.999Z</time>
      </trkpt>
      <trkpt lat="48.84398" lon="2.38272">
        <ele>39</ele>
        <time>2022-02-07T15:48:36.999Z</time>
      </trkpt>
      <trkpt lat="48.84395" lon="2.38278">
        <ele>39</ele>
        <time>2022-02-07T15:48:41.999Z</time>
      </trkpt>
      <trkpt lat="48.84393" lon="2.38283">
        <ele>39</ele>
        <time>2022-02-07T15:48:45.999Z</time>
      </trkpt>
      <trkpt lat="48.8439" lon="2.38287">
        <ele>39</ele>
        <time>2022-02-07T15:48:50.999Z</time>
      </trkpt>
      <trkpt lat="48.84387" lon="2.38292">
        <ele>39</ele>
        <time>2022-02-07T15:48:55.999Z</time>
      </trkpt>
      <trkpt lat="48.84385" lon="2.38296">
        <ele>40</ele>
        <time>2022-02-07T15:48:59.999Z</time>
      </trkpt>
      <trkpt lat="48.84384" lon="2.38301">
        <ele>40</ele>
        <time>2022-02-07T15:49:03.999Z</time>
      </trkpt>
      <trkpt lat="48.84384" lon="2.38308">
        <ele>40</ele>
        <time>2022-02-07T15:49:08.999Z</time>
      </trkpt>
      <trkpt lat="48.84382" lon="2.38311">
        <ele>40</ele>
        <time>2022-02-07T15:49:12.999Z</time>
      </trkpt>
      <trkpt lat="48.84379" lon="2.38316">
        <ele>40</ele>
        <time>2022-02-07T15:49:17.999Z</time>
      </trkpt>
      <trkpt lat="48.84377" lon="2.38321">
        <ele>39</ele>
        <time>2022-02-07T15:49:22.999Z</time>
      </trkpt>
      <trkpt lat="48.84374" lon="2.38325">
        <ele>39</ele>
        <time>2022-02-07T15:49:27.999Z</time>
      </trkpt>
      <trkpt lat="48.84372" lon="2.3833">
        <ele>39</ele>
        <time>2022-02-07T15:49:32.999Z</time>
      </trkpt>
      <trkpt lat="48.8437" lon="2.38333">
        <ele>39</ele>
        <time>2022-02-07T15:49:36.999Z</time>
      </trkpt>
      <trkpt lat="48.84366" lon="2.38337">
        <ele>39</ele>
        <time>2022-02-07T15:49:41.999Z</time>
      </trkpt>
      <trkpt lat="48.84363" lon="2.3834">
        <ele>39</ele>
        <time>2022-02-07T15:49:45.999Z</time>
      </trkpt>
      <trkpt lat="48.84361" lon="2.38344">
        <ele>39</ele>
        <time>2022-02-07T15:49:49.999Z</time>
      </trkpt>
      <trkpt lat="48.84359" lon="2.3835">
        <ele>37</ele>
        <time>2022-02-07T15:49:54.999Z</time>
      </trkpt>
      <trkpt lat="48.84357" lon="2.38355">
        <ele>37</ele>
        <time>2022-02-07T15:49:58.999Z</time>
      </trkpt>
      <trkpt lat="48.84355" lon="2.38359">
        <ele>37</ele>
        <time>2022-02-07T15:50:03.999Z</time>
      </trkpt>
      <trkpt lat="48.84352" lon="2.38358">
        <ele>37</ele>
        <time>2022-02-07T15:50:08.999Z</time>
      </trkpt>
      <trkpt lat="48.84348" lon="2.38362">
        <ele>37</ele>
        <time>2022-02-07T15:50:12.999Z</time>
      </trkpt>
      <trkpt lat="48.84345" lon="2.38368">
        <ele>39</ele>
        <time>2022-02-07T15:50:17.999Z</time>
      </trkpt>
      <trkpt lat="48.84343" lon="2.3837">
        <ele>39</ele>
        <time>2022-02-07T15:50:21.999Z</time>
      </trkpt>
      <trkpt lat="48.84341" lon="2.38375">
        <ele>37</ele>
        <time>2022-02-07T15:50:26.999Z</time>
      </trkpt>
      <trkpt lat="48.84338" lon="2.3838">
        <ele>37</ele>
        <time>2022-02-07T15:50:31.999Z</time>
      </trkpt>
      <trkpt lat="48.84336" lon="2.38385">
        <ele>37</ele>
        <time>2022-02-07T15:50:36.999Z</time>
      </trkpt>
      <trkpt lat="48.84333" lon="2.3839">
        <ele>37</ele>
        <time>2022-02-07T15:50:41.999Z</time>
      </trkpt>
      <trkpt lat="48.8433" lon="2.38394">
        <ele>37</ele>
        <time>2022-02-07T15:50:46.999Z</time>
      </trkpt>
      <trkpt lat="48.84326" lon="2.38398">
        <ele>37</ele>
        <time>2022-02-07T15:50:51.999Z</time>
      </trkpt>
      <trkpt lat="48.84323" lon="2.38403">
        <ele>37</ele>
        <time>2022-02-07T15:50:56.999Z</time>
      </trkpt>
      <trkpt lat="48.84321" lon="2.38408">
        <ele>37</ele>
        <time>2022-02-07T15:51:01.999Z</time>
      </trkpt>
      <trkpt lat="48.84319" lon="2.38415">
        <ele>39</ele>
        <time>2022-02-07T15:51:06.999Z</time>
      </trkpt>
      <trkpt lat="48.84317" lon="2.38424">
        <ele>39</ele>
        <time>2022-02-07T15:51:11.999Z</time>
      </trkpt>
      <trkpt lat="48.84314" lon="2.38427">
        <ele>39</ele>
        <time>2022-02-07T15:51:15.999Z</time>
      </trkpt>
      <trkpt lat="48.84311" lon="2.38429">
        <ele>39</ele>
        <time>2022-02-07T15:51:19.999Z</time>
      </trkpt>
      <trkpt lat="48.84309" lon="2.38432">
        <ele>40</ele>
        <time>2022-02-07T15:51:24.999Z</time>
      </trkpt>
      <trkpt lat="48.84307" lon="2.3844">
        <ele>40</ele>
        <time>2022-02-07T15:51:29.999Z</time>
      </trkpt>
      <trkpt lat="48.84305" lon="2.38447">
        <ele>40</ele>
        <time>2022-02-07T15:51:34.999Z</time>
      </trkpt>
      <trkpt lat="48.84302" lon="2.38455">
        <ele>40</ele>
        <time>2022-02-07T15:51:38.999Z</time>
      </trkpt>
      <trkpt lat="48.84304" lon="2.3847">
        <ele>39</ele>
        <time>2022-02-07T15:51:43.999Z</time>
      </trkpt>
      <trkpt lat="48.84305" lon="2.38477">
        <ele>39</ele>
        <time>2022-02-07T15:51:47.999Z</time>
      </trkpt>
      <trkpt lat="48.84303" lon="2.38485">
        <ele>39</ele>
        <time>2022-02-07T15:51:51.999Z</time>
      </trkpt>
      <trkpt lat="48.84298" lon="2.38494">
        <ele>37</ele>
        <time>2022-02-07T15:51:56.999Z</time>
      </trkpt>
      <trkpt lat="48.84296" lon="2.385">
        <ele>37</ele>
        <time>2022-02-07T15:52:00.999Z</time>
      </trkpt>
      <trkpt lat="48.84292" lon="2.38506">
        <ele>37</ele>
        <time>2022-02-07T15:52:04.999Z</time>
      </trkpt>
      <trkpt lat="48.84289" lon="2.38511">
        <ele>40</ele>
        <time>2022-02-07T15:52:09.999Z</time>
      </trkpt>
      <trkpt lat="48.84287" lon="2.38515">
        <ele>38</ele>
        <time>2022-02-07T15:52:13.999Z</time>
      </trkpt>
      <trkpt lat="48.84285" lon="2.3852">
        <ele>38</ele>
        <time>2022-02-07T15:52:18.999Z</time>
      </trkpt>
      <trkpt lat="48.84283" lon="2.38524">
        <ele>38</ele>
        <time>2022-02-07T15:52:23.999Z</time>
      </trkpt>
      <trkpt lat="48.8428" lon="2.38527">
        <ele>38</ele>
        <time>2022-02-07T15:52:28.999Z</time>
      </trkpt>
      <trkpt lat="48.84278" lon="2.38532">
        <ele>38</ele>
        <time>2022-02-07T15:52:33.999Z</time>
      </trkpt>
      <trkpt lat="48.84275" lon="2.38535">
        <ele>38</ele>
        <time>2022-02-07T15:52:38.999Z</time>
      </trkpt>
      <trkpt lat="48.84273" lon="2.38541">
        <ele>38</ele>
        <time>2022-02-07T15:52:43.999Z</time>
      </trkpt>
      <trkpt lat="48.84271" lon="2.38546">
        <ele>38</ele>
        <time>2022-02-07T15:52:48.999Z</time>
      </trkpt>
      <trkpt lat="48.84268" lon="2.3855">
        <ele>38</ele>
        <time>2022-02-07T15:52:53.999Z</time>
      </trkpt>
      <trkpt lat="48.84266" lon="2.38556">
        <ele>38</ele>
        <time>2022-02-07T15:52:58.999Z</time>
      </trkpt>
      <trkpt lat="48.84267" lon="2.38562">
        <ele>38</ele>
        <time>2022-02-07T15:53:02.999Z</time>
      </trkpt>
      <trkpt lat="48.84267" lon="2.38569">
        <ele>38</ele>
        <time>2022-02-07T15:53:06.999Z</time>
      </trkpt>
      <trkpt lat="48.84266" lon="2.38578">
        <ele>40</ele>
        <time>2022-02-07T15:53:11.999Z</time>
      </trkpt>
      <trkpt lat="48.84266" lon="2.38587">
        <ele>40</ele>
        <time>2022-02-07T15:53:16.999Z</time>
      </trkpt>
      <trkpt lat="48.84265" lon="2.38595">
        <ele>40</ele>
        <time>2022-02-07T15:53:20.999Z</time>
      </trkpt>
      <trkpt lat="48.84264" lon="2.38602">
        <ele>45</ele>
        <time>2022-02-07T15:53:25.999Z</time>
      </trkpt>
      <trkpt lat="48.84264" lon="2.3861">
        <ele>45</ele>
        <time>2022-02-07T15:53:30.999Z</time>
      </trkpt>
      <trkpt lat="48.84263" lon="2.38616">
        <ele>45</ele>
        <time>2022-02-07T15:53:35.999Z</time>
      </trkpt>
      <trkpt lat="48.84261" lon="2.38623">
        <ele>45</ele>
        <time>2022-02-07T15:53:40.999Z</time>
      </trkpt>
      <trkpt lat="48.8426" lon="2.38627">
        <ele>46</ele>
        <time>2022-02-07T15:53:44.999Z</time>
      </trkpt>
      <trkpt lat="48.84259" lon="2.38633">
        <ele>46</ele>
        <time>2022-02-07T15:53:49.999Z</time>
      </trkpt>
      <trkpt lat="48.84258" lon="2.3864">
        <ele>46</ele>
        <time>2022-02-07T15:53:54.999Z</time>
      </trkpt>
      <trkpt lat="48.84256" lon="2.38647">
        <ele>46</ele>
        <time>2022-02-07T15:53:59.999Z</time>
      </trkpt>
      <trkpt lat="48.84255" lon="2.38654">
        <ele>47</ele>
        <time>2022-02-07T15:54:04.999Z</time>
      </trkpt>
      <trkpt lat="48.84254" lon="2.38662">
        <ele>47</ele>
        <time>2022-02-07T15:54:09.999Z</time>
      </trkpt>
      <trkpt lat="48.84252" lon="2.3867">
        <ele>47</ele>
        <time>2022-02-07T15:54:14.999Z</time>
      </trkpt>
      <trkpt lat="48.8425" lon="2.38677">
        <ele>47</ele>
        <time>2022-02-07T15:54:19.999Z</time>
      </trkpt>
      <trkpt lat="48.84247" lon="2.38684">
        <ele>47</ele>
        <time>2022-02-07T15:54:23.999Z</time>
      </trkpt>
      <trkpt lat="48.84245" lon="2.38694">
        <ele>47</ele>
        <time>2022-02-07T15:54:28.999Z</time>
      </trkpt>
      <trkpt lat="48.84244" lon="2.38706">
        <ele>47</ele>
        <time>2022-02-07T15:54:32.999Z</time>
      </trkpt>
      <trkpt lat="48.8424" lon="2.38716">
        <ele>47</ele>
        <time>2022-02-07T15:54:37.999Z</time>
      </trkpt>
      <trkpt lat="48.84237" lon="2.38724">
        <ele>47</ele>
        <time>2022-02-07T15:54:42.999Z</time>
      </trkpt>
      <trkpt lat="48.84234" lon="2.38733">
        <ele>43</ele>
        <time>2022-02-07T15:54:47.999Z</time>
      </trkpt>
      <trkpt lat="48.84234" lon="2.38739">
        <ele>43</ele>
        <time>2022-02-07T15:54:51.999Z</time>
      </trkpt>
      <trkpt lat="48.84232" lon="2.38746">
        <ele>43</ele>
        <time>2022-02-07T15:54:56.999Z</time>
      </trkpt>
      <trkpt lat="48.84231" lon="2.38752">
        <ele>43</ele>
        <time>2022-02-07T15:55:00.999Z</time>
      </trkpt>
      <trkpt lat="48.8423" lon="2.38757">
        <ele>43</ele>
        <time>2022-02-07T15:55:04.999Z</time>
      </trkpt>
      <trkpt lat="48.84228" lon="2.38765">
        <ele>43</ele>
        <time>2022-02-07T15:55:09.999Z</time>
      </trkpt>
      <trkpt lat="48.84227" lon="2.38771">
        <ele>43</ele>
        <time>2022-02-07T15:55:14.999Z</time>
      </trkpt>
      <trkpt lat="48.84226" lon="2.38777">
        <ele>43</ele>
        <time>2022-02-07T15:55:18.999Z</time>
      </trkpt>
      <trkpt lat="48.84224" lon="2.38785">
        <ele>43</ele>
        <time>2022-02-07T15:55:23.999Z</time>
      </trkpt>
      <trkpt lat="48.84222" lon="2.38791">
        <ele>43</ele>
        <time>2022-02-07T15:55:28.999Z</time>
      </trkpt>
      <trkpt lat="48.84221" lon="2.38797">
        <ele>42</ele>
        <time>2022-02-07T15:55:32.999Z</time>
      </trkpt>
      <trkpt lat="48.84218" lon="2.38804">
        <ele>42</ele>
        <time>2022-02-07T15:55:37.999Z</time>
      </trkpt>
      <trkpt lat="48.84217" lon="2.38809">
        <ele>42</ele>
        <time>2022-02-07T15:55:41.999Z</time>
      </trkpt>
      <trkpt lat="48.84216" lon="2.38817">
        <ele>42</ele>
        <time>2022-02-07T15:55:46.999Z</time>
      </trkpt>
      <trkpt lat="48.84214" lon="2.38823">
        <ele>42</ele>
        <time>2022-02-07T15:55:51.999Z</time>
      </trkpt>
      <trkpt lat="48.84213" lon="2.38828">
        <ele>42</ele>
        <time>2022-02-07T15:55:55.999Z</time>
      </trkpt>
      <trkpt lat="48.84211" lon="2.38836">
        <ele>42</ele>
        <time>2022-02-07T15:56:00.999Z</time>
      </trkpt>
      <trkpt lat="48.8421" lon="2.38841">
        <ele>42</ele>
        <time>2022-02-07T15:56:04.999Z</time>
      </trkpt>
      <trkpt lat="48.84209" lon="2.38848">
        <ele>44</ele>
        <time>2022-02-07T15:56:09.999Z</time>
      </trkpt>
      <trkpt lat="48.84208" lon="2.3884">
        <ele>40</ele>
        <time>2022-02-07T15:56:14.999Z</time>
      </trkpt>
      <trkpt lat="48.8421" lon="2.38833">
        <ele>42</ele>
        <time>2022-02-07T15:56:19.999Z</time>
      </trkpt>
      <trkpt lat="48.84211" lon="2.38824">
        <ele>42</ele>
        <time>2022-02-07T15:56:24.999Z</time>
      </trkpt>
      <trkpt lat="48.84209" lon="2.38817">
        <ele>42</ele>
        <time>2022-02-07T15:56:28.999Z</time>
      </trkpt>
      <trkpt lat="48.84204" lon="2.38813">
        <ele>38</ele>
        <time>2022-02-07T15:56:33.999Z</time>
      </trkpt>
      <trkpt lat="48.842" lon="2.38809">
        <ele>38</ele>
        <time>2022-02-07T15:56:37.999Z</time>
      </trkpt>
      <trkpt lat="48.84195" lon="2.38806">
        <ele>38</ele>
        <time>2022-02-07T15:56:42.999Z</time>
      </trkpt>
      <trkpt lat="48.84193" lon="2.38802">
        <ele>38</ele>
        <time>2022-02-07T15:56:46.999Z</time>
      </trkpt>
      <trkpt lat="48.8419" lon="2.38797">
        <ele>38</ele>
        <time>2022-02-07T15:56:51.999Z</time>
      </trkpt>
      <trkpt lat="48.84188" lon="2.38792">
        <ele>38</ele>
        <time>2022-02-07T15:56:56.999Z</time>
      </trkpt>
      <trkpt lat="48.84188" lon="2.38783">
        <ele>40</ele>
        <time>2022-02-07T15:57:01.999Z</time>
      </trkpt>
      <trkpt lat="48.84188" lon="2.38778">
        <ele>40</ele>
        <time>2022-02-07T15:57:05.999Z</time>
      </trkpt>
      <trkpt lat="48.84182" lon="2.38774">
        <ele>40</ele>
        <time>2022-02-07T15:57:10.999Z</time>
      </trkpt>
      <trkpt lat="48.84176" lon="2.38774">
        <ele>42</ele>
        <time>2022-02-07T15:57:15.999Z</time>
      </trkpt>
      <trkpt lat="48.84171" lon="2.38775">
        <ele>42</ele>
        <time>2022-02-07T15:57:20.999Z</time>
      </trkpt>
      <trkpt lat="48.84167" lon="2.38775">
        <ele>42</ele>
        <time>2022-02-07T15:57:24.999Z</time>
      </trkpt>
      <trkpt lat="48.84163" lon="2.38775">
        <ele>42</ele>
        <time>2022-02-07T15:57:29.999Z</time>
      </trkpt>
      <trkpt lat="48.8416" lon="2.38774">
        <ele>42</ele>
        <time>2022-02-07T15:57:33.999Z</time>
      </trkpt>
      <trkpt lat="48.84157" lon="2.38775">
        <ele>42</ele>
        <time>2022-02-07T15:57:37.999Z</time>
      </trkpt>
      <trkpt lat="48.84154" lon="2.38778">
        <ele>42</ele>
        <time>2022-02-07T15:57:42.999Z</time>
      </trkpt>
      <trkpt lat="48.84149" lon="2.38756">
        <ele>45</ele>
        <time>2022-02-07T15:58:32.999Z</time>
      </trkpt>
      <trkpt lat="48.84146" lon="2.38753">
        <ele>45</ele>
        <time>2022-02-07T15:58:37.999Z</time>
      </trkpt>
      <trkpt lat="48.84141" lon="2.38749">
        <ele>45</ele>
        <time>2022-02-07T15:58:42.999Z</time>
      </trkpt>
      <trkpt lat="48.84137" lon="2.38745">
        <ele>45</ele>
        <time>2022-02-07T15:58:47.999Z</time>
      </trkpt>
      <trkpt lat="48.84134" lon="2.38743">
        <ele>45</ele>
        <time>2022-02-07T15:58:51.999Z</time>
      </trkpt>
      <trkpt lat="48.84129" lon="2.38738">
        <ele>45</ele>
        <time>2022-02-07T15:58:56.999Z</time>
      </trkpt>
      <trkpt lat="48.84125" lon="2.38733">
        <ele>47</ele>
        <time>2022-02-07T15:59:01.999Z</time>
      </trkpt>
      <trkpt lat="48.84121" lon="2.38731">
        <ele>47</ele>
        <time>2022-02-07T15:59:06.999Z</time>
      </trkpt>
      <trkpt lat="48.84117" lon="2.38732">
        <ele>47</ele>
        <time>2022-02-07T15:59:10.999Z</time>
      </trkpt>
      <trkpt lat="48.84114" lon="2.38735">
        <ele>47</ele>
        <time>2022-02-07T15:59:15.999Z</time>
      </trkpt>
      <trkpt lat="48.84111" lon="2.38739">
        <ele>47</ele>
        <time>2022-02-07T15:59:19.999Z</time>
      </trkpt>
      <trkpt lat="48.84108" lon="2.38743">
        <ele>47</ele>
        <time>2022-02-07T15:59:24.999Z</time>
      </trkpt>
      <trkpt lat="48.84104" lon="2.38745">
        <ele>47</ele>
        <time>2022-02-07T15:59:29.999Z</time>
      </trkpt>
      <trkpt lat="48.84101" lon="2.38747">
        <ele>47</ele>
        <time>2022-02-07T15:59:33.999Z</time>
      </trkpt>
      <trkpt lat="48.84099" lon="2.3875">
        <ele>47</ele>
        <time>2022-02-07T15:59:37.999Z</time>
      </trkpt>
      <trkpt lat="48.84095" lon="2.38753">
        <ele>46</ele>
        <time>2022-02-07T15:59:42.999Z</time>
      </trkpt>
      <trkpt lat="48.84092" lon="2.38756">
        <ele>46</ele>
        <time>2022-02-07T15:59:47.999Z</time>
      </trkpt>
      <trkpt lat="48.84089" lon="2.38759">
        <ele>46</ele>
        <time>2022-02-07T15:59:51.999Z</time>
      </trkpt>
      <trkpt lat="48.84085" lon="2.38761">
        <ele>46</ele>
        <time>2022-02-07T15:59:55.999Z</time>
      </trkpt>
      <trkpt lat="48.84081" lon="2.38764">
        <ele>46</ele>
        <time>2022-02-07T16:00:00.999Z</time>
      </trkpt>
      <trkpt lat="48.84078" lon="2.38765">
        <ele>46</ele>
        <time>2022-02-07T16:00:04.999Z</time>
      </trkpt>
      <trkpt lat="48.84073" lon="2.38769">
        <ele>46</ele>
        <time>2022-02-07T16:00:09.999Z</time>
      </trkpt>
      <trkpt lat="48.84068" lon="2.38772">
        <ele>46</ele>
        <time>2022-02-07T16:00:14.999Z</time>
      </trkpt>
      <trkpt lat="48.84064" lon="2.38776">
        <ele>46</ele>
        <time>2022-02-07T16:00:19.999Z</time>
      </trkpt>
      <trkpt lat="48.84059" lon="2.38777">
        <ele>46</ele>
        <time>2022-02-07T16:00:23.999Z</time>
      </trkpt>
      <trkpt lat="48.84055" lon="2.3878">
        <ele>46</ele>
        <time>2022-02-07T16:00:27.999Z</time>
      </trkpt>
      <trkpt lat="48.84051" lon="2.38781">
        <ele>46</ele>
        <time>2022-02-07T16:00:31.999Z</time>
      </trkpt>
      <trkpt lat="48.84048" lon="2.38786">
        <ele>46</ele>
        <time>2022-02-07T16:00:36.999Z</time>
      </trkpt>
      <trkpt lat="48.84044" lon="2.38792">
        <ele>47</ele>
        <time>2022-02-07T16:00:41.999Z</time>
      </trkpt>
      <trkpt lat="48.8404" lon="2.38797">
        <ele>47</ele>
        <time>2022-02-07T16:00:46.999Z</time>
      </trkpt>
      <trkpt lat="48.84037" lon="2.38802">
        <ele>47</ele>
        <time>2022-02-07T16:00:51.999Z</time>
      </trkpt>
      <trkpt lat="48.84033" lon="2.38804">
        <ele>47</ele>
        <time>2022-02-07T16:00:56.999Z</time>
      </trkpt>
      <trkpt lat="48.84029" lon="2.38806">
        <ele>47</ele>
        <time>2022-02-07T16:01:00.999Z</time>
      </trkpt>
      <trkpt lat="48.84024" lon="2.38805">
        <ele>47</ele>
        <time>2022-02-07T16:01:04.999Z</time>
      </trkpt>
      <trkpt lat="48.8402" lon="2.38808">
        <ele>47</ele>
        <time>2022-02-07T16:01:09.999Z</time>
      </trkpt>
      <trkpt lat="48.84017" lon="2.38811">
        <ele>47</ele>
        <time>2022-02-07T16:01:13.999Z</time>
      </trkpt>
      <trkpt lat="48.84012" lon="2.38813">
        <ele>44</ele>
        <time>2022-02-07T16:01:18.999Z</time>
      </trkpt>
      <trkpt lat="48.84007" lon="2.38815">
        <ele>44</ele>
        <time>2022-02-07T16:01:23.999Z</time>
      </trkpt>
      <trkpt lat="48.84003" lon="2.38819">
        <ele>44</ele>
        <time>2022-02-07T16:01:28.999Z</time>
      </trkpt>
      <trkpt lat="48.83999" lon="2.38821">
        <ele>46</ele>
        <time>2022-02-07T16:01:32.999Z</time>
      </trkpt>
      <trkpt lat="48.83995" lon="2.38823">
        <ele>46</ele>
        <time>2022-02-07T16:01:36.999Z</time>
      </trkpt>
      <trkpt lat="48.83991" lon="2.38825">
        <ele>46</ele>
        <time>2022-02-07T16:01:41.999Z</time>
      </trkpt>
      <trkpt lat="48.83987" lon="2.38826">
        <ele>46</ele>
        <time>2022-02-07T16:01:45.999Z</time>
      </trkpt>
      <trkpt lat="48.83983" lon="2.38831">
        <ele>44</ele>
        <time>2022-02-07T16:01:50.999Z</time>
      </trkpt>
      <trkpt lat="48.83982" lon="2.38833">
        <ele>44</ele>
        <time>2022-02-07T16:01:55.999Z</time>
      </trkpt>
      <trkpt lat="48.83982" lon="2.38834">
        <ele>44</ele>
        <time>2022-02-07T16:01:59.999Z</time>
      </trkpt>
      <trkpt lat="48.83982" lon="2.38834">
        <ele>44</ele>
        <time>2022-02-07T16:02:04.999Z</time>
      </trkpt>
      <trkpt lat="48.83976" lon="2.38837">
        <ele>44</ele>
        <time>2022-02-07T16:02:09.999Z</time>
      </trkpt>
      <trkpt lat="48.83969" lon="2.3884">
        <ele>44</ele>
        <time>2022-02-07T16:02:14.999Z</time>
      </trkpt>
      <trkpt lat="48.83965" lon="2.3884">
        <ele>44</ele>
        <time>2022-02-07T16:02:19.999Z</time>
      </trkpt>
      <trkpt lat="48.83959" lon="2.38844">
        <ele>44</ele>
        <time>2022-02-07T16:02:23.999Z</time>
      </trkpt>
      <trkpt lat="48.83954" lon="2.38844">
        <ele>44</ele>
        <time>2022-02-07T16:02:28.999Z</time>
      </trkpt>
      <trkpt lat="48.83953" lon="2.38844">
        <ele>44</ele>
        <time>2022-02-07T16:02:32.999Z</time>
      </trkpt>
      <trkpt lat="48.83946" lon="2.38846">
        <ele>44</ele>
        <time>2022-02-07T16:02:37.999Z</time>
      </trkpt>
      <trkpt lat="48.83942" lon="2.3885">
        <ele>47</ele>
        <time>2022-02-07T16:02:42.999Z</time>
      </trkpt>
      <trkpt lat="48.83939" lon="2.38855">
        <ele>47</ele>
        <time>2022-02-07T16:02:46.999Z</time>
      </trkpt>
      <trkpt lat="48.83935" lon="2.38859">
        <ele>47</ele>
        <time>2022-02-07T16:02:51.999Z</time>
      </trkpt>
      <trkpt lat="48.83932" lon="2.38866">
        <ele>47</ele>
        <time>2022-02-07T16:02:56.999Z</time>
      </trkpt>
      <trkpt lat="48.83927" lon="2.3887">
        <ele>50</ele>
        <time>2022-02-07T16:03:01.999Z</time>
      </trkpt>
      <trkpt lat="48.83923" lon="2.38875">
        <ele>50</ele>
        <time>2022-02-07T16:03:06.999Z</time>
      </trkpt>
      <trkpt lat="48.83921" lon="2.38882">
        <ele>51</ele>
        <time>2022-02-07T16:03:11.999Z</time>
      </trkpt>
      <trkpt lat="48.83922" lon="2.38895">
        <ele>51</ele>
        <time>2022-02-07T16:03:16.999Z</time>
      </trkpt>
      <trkpt lat="48.83921" lon="2.38902">
        <ele>51</ele>
        <time>2022-02-07T16:03:20.999Z</time>
      </trkpt>
      <trkpt lat="48.8392" lon="2.3891">
        <ele>52</ele>
        <time>2022-02-07T16:03:25.999Z</time>
      </trkpt>
      <trkpt lat="48.83917" lon="2.38916">
        <ele>52</ele>
        <time>2022-02-07T16:03:30.999Z</time>
      </trkpt>
      <trkpt lat="48.83913" lon="2.38923">
        <ele>52</ele>
        <time>2022-02-07T16:03:54.999Z</time>
      </trkpt>
      <trkpt lat="48.83913" lon="2.38923">
        <ele>52</ele>
        <time>2022-02-07T16:03:58.999Z</time>
      </trkpt>
      <trkpt lat="48.83912" lon="2.38924">
        <ele>52</ele>
        <time>2022-02-07T16:04:03.999Z</time>
      </trkpt>
      <trkpt lat="48.83907" lon="2.38928">
        <ele>52</ele>
        <time>2022-02-07T16:04:08.999Z</time>
      </trkpt>
      <trkpt lat="48.83902" lon="2.38933">
        <ele>49</ele>
        <time>2022-02-07T16:04:13.999Z</time>
      </trkpt>
      <trkpt lat="48.83898" lon="2.38938">
        <ele>49</ele>
        <time>2022-02-07T16:04:17.999Z</time>
      </trkpt>
      <trkpt lat="48.83892" lon="2.38942">
        <ele>49</ele>
        <time>2022-02-07T16:04:22.999Z</time>
      </trkpt>
      <trkpt lat="48.83887" lon="2.38945">
        <ele>49</ele>
        <time>2022-02-07T16:04:27.999Z</time>
      </trkpt>
      <trkpt lat="48.83882" lon="2.38949">
        <ele>49</ele>
        <time>2022-02-07T16:04:32.999Z</time>
      </trkpt>
      <trkpt lat="48.83877" lon="2.38954">
        <ele>49</ele>
        <time>2022-02-07T16:04:37.999Z</time>
      </trkpt>
      <trkpt lat="48.83872" lon="2.38959">
        <ele>47</ele>
        <time>2022-02-07T16:04:42.999Z</time>
      </trkpt>
      <trkpt lat="48.83867" lon="2.38963">
        <ele>47</ele>
        <time>2022-02-07T16:04:47.999Z</time>
      </trkpt>
      <trkpt lat="48.83861" lon="2.38969">
        <ele>47</ele>
        <time>2022-02-07T16:04:52.999Z</time>
      </trkpt>
      <trkpt lat="48.83858" lon="2.38973">
        <ele>47</ele>
        <time>2022-02-07T16:04:57.999Z</time>
      </trkpt>
      <trkpt lat="48.83853" lon="2.38978">
        <ele>47</ele>
        <time>2022-02-07T16:05:02.999Z</time>
      </trkpt>
      <trkpt lat="48.83849" lon="2.38982">
        <ele>47</ele>
        <time>2022-02-07T16:05:07.999Z</time>
      </trkpt>
      <trkpt lat="48.83847" lon="2.38987">
        <ele>47</ele>
        <time>2022-02-07T16:05:11.999Z</time>
      </trkpt>
      <trkpt lat="48.83846" lon="2.38993">
        <ele>47</ele>
        <time>2022-02-07T16:05:15.999Z</time>
      </trkpt>
      <trkpt lat="48.83842" lon="2.38999">
        <ele>47</ele>
        <time>2022-02-07T16:05:20.999Z</time>
      </trkpt>
      <trkpt lat="48.8384" lon="2.39004">
        <ele>47</ele>
        <time>2022-02-07T16:05:24.999Z</time>
      </trkpt>
      <trkpt lat="48.83836" lon="2.39008">
        <ele>47</ele>
        <time>2022-02-07T16:05:28.999Z</time>
      </trkpt>
      <trkpt lat="48.83833" lon="2.39013">
        <ele>47</ele>
        <time>2022-02-07T16:05:33.999Z</time>
      </trkpt>
      <trkpt lat="48.83833" lon="2.39014">
        <ele>47</ele>
        <time>2022-02-07T16:05:38.999Z</time>
      </trkpt>
      <trkpt lat="48.8383" lon="2.39017">
        <ele>46</ele>
        <time>2022-02-07T16:05:42.999Z</time>
      </trkpt>
      <trkpt lat="48.83825" lon="2.39021">
        <ele>46</ele>
        <time>2022-02-07T16:05:47.999Z</time>
      </trkpt>
      <trkpt lat="48.83822" lon="2.39024">
        <ele>46</ele>
        <time>2022-02-07T16:05:51.999Z</time>
      </trkpt>
      <trkpt lat="48.83818" lon="2.39028">
        <ele>43</ele>
        <time>2022-02-07T16:05:56.999Z</time>
      </trkpt>
      <trkpt lat="48.83817" lon="2.39034">
        <ele>43</ele>
        <time>2022-02-07T16:06:00.999Z</time>
      </trkpt>
      <trkpt lat="48.83813" lon="2.39038">
        <ele>43</ele>
        <time>2022-02-07T16:06:05.999Z</time>
      </trkpt>
      <trkpt lat="48.83808" lon="2.39041">
        <ele>43</ele>
        <time>2022-02-07T16:06:10.999Z</time>
      </trkpt>
      <trkpt lat="48.83804" lon="2.39045">
        <ele>42</ele>
        <time>2022-02-07T16:06:15.999Z</time>
      </trkpt>
      <trkpt lat="48.83799" lon="2.39049">
        <ele>42</ele>
        <time>2022-02-07T16:06:21.155Z</time>
      </trkpt>
      <trkpt lat="48.83795" lon="2.39053">
        <ele>42</ele>
        <time>2022-02-07T16:06:25.999Z</time>
      </trkpt>
      <trkpt lat="48.8379" lon="2.39056">
        <ele>42</ele>
        <time>2022-02-07T16:06:30.999Z</time>
      </trkpt>
      <trkpt lat="48.83785" lon="2.39057">
        <ele>42</ele>
        <time>2022-02-07T16:06:35.999Z</time>
      </trkpt>
      <trkpt lat="48.83781" lon="2.3906">
        <ele>42</ele>
        <time>2022-02-07T16:06:40.999Z</time>
      </trkpt>
      <trkpt lat="48.83778" lon="2.39062">
        <ele>42</ele>
        <time>2022-02-07T16:06:44.999Z</time>
      </trkpt>
      <trkpt lat="48.83774" lon="2.39065">
        <ele>42</ele>
        <time>2022-02-07T16:06:49.999Z</time>
      </trkpt>
      <trkpt lat="48.83773" lon="2.3907">
        <ele>42</ele>
        <time>2022-02-07T16:06:53.999Z</time>
      </trkpt>
      <trkpt lat="48.8377" lon="2.39074">
        <ele>42</ele>
        <time>2022-02-07T16:06:58.999Z</time>
      </trkpt>
      <trkpt lat="48.83767" lon="2.39079">
        <ele>42</ele>
        <time>2022-02-07T16:07:03.999Z</time>
      </trkpt>
      <trkpt lat="48.83764" lon="2.39083">
        <ele>42</ele>
        <time>2022-02-07T16:07:07.999Z</time>
      </trkpt>
      <trkpt lat="48.83761" lon="2.39087">
        <ele>42</ele>
        <time>2022-02-07T16:07:11.999Z</time>
      </trkpt>
      <trkpt lat="48.83758" lon="2.39092">
        <ele>42</ele>
        <time>2022-02-07T16:07:16.999Z</time>
      </trkpt>
      <trkpt lat="48.83754" lon="2.39095">
        <ele>42</ele>
        <time>2022-02-07T16:07:21.999Z</time>
      </trkpt>
      <trkpt lat="48.8375" lon="2.39098">
        <ele>43</ele>
        <time>2022-02-07T16:07:26.999Z</time>
      </trkpt>
      <trkpt lat="48.83747" lon="2.39103">
        <ele>43</ele>
        <time>2022-02-07T16:07:31.999Z</time>
      </trkpt>
      <trkpt lat="48.83744" lon="2.39107">
        <ele>43</ele>
        <time>2022-02-07T16:07:35.999Z</time>
      </trkpt>
      <trkpt lat="48.83742" lon="2.39112">
        <ele>43</ele>
        <time>2022-02-07T16:07:40.999Z</time>
      </trkpt>
      <trkpt lat="48.8374" lon="2.39123">
        <ele>43</ele>
        <time>2022-02-07T16:08:16.999Z</time>
      </trkpt>
      <trkpt lat="48.8374" lon="2.39124">
        <ele>43</ele>
        <time>2022-02-07T16:08:21.999Z</time>
      </trkpt>
      <trkpt lat="48.83745" lon="2.39128">
        <ele>43</ele>
        <time>2022-02-07T16:08:26.999Z</time>
      </trkpt>
      <trkpt lat="48.83742" lon="2.39136">
        <ele>43</ele>
        <time>2022-02-07T16:08:30.999Z</time>
      </trkpt>
      <trkpt lat="48.83741" lon="2.39142">
        <ele>43</ele>
        <time>2022-02-07T16:08:34.999Z</time>
      </trkpt>
      <trkpt lat="48.83748" lon="2.39136">
        <ele>43</ele>
        <time>2022-02-07T16:12:41.999Z</time>
      </trkpt>
      <trkpt lat="48.83748" lon="2.39136">
        <ele>43</ele>
        <time>2022-02-07T16:12:45.999Z</time>
      </trkpt>
      <trkpt lat="48.83748" lon="2.39136">
        <ele>43</ele>
        <time>2022-02-07T16:12:50.999Z</time>
      </trkpt>
      <trkpt lat="48.83748" lon="2.39136">
        <ele>43</ele>
        <time>2022-02-07T16:12:55.999Z</time>
      </trkpt>
      <trkpt lat="48.83748" lon="2.39136">
        <ele>43</ele>
        <time>2022-02-07T16:12:59.999Z</time>
      </trkpt>
      <trkpt lat="48.83748" lon="2.39136">
        <ele>43</ele>
        <time>2022-02-07T16:13:55.999Z</time>
      </trkpt>
      <trkpt lat="48.83748" lon="2.39135">
        <ele>43</ele>
        <time>2022-02-07T16:14:00.999Z</time>
      </trkpt>
      <trkpt lat="48.83746" lon="2.39132">
        <ele>43</ele>
        <time>2022-02-07T16:14:05.999Z</time>
      </trkpt>
      <trkpt lat="48.83742" lon="2.39129">
        <ele>43</ele>
        <time>2022-02-07T16:14:09.999Z</time>
      </trkpt>
      <trkpt lat="48.83734" lon="2.39131">
        <ele>42</ele>
        <time>2022-02-07T16:14:14.999Z</time>
      </trkpt>
      <trkpt lat="48.83727" lon="2.39136">
        <ele>42</ele>
        <time>2022-02-07T16:14:19.999Z</time>
      </trkpt>
      <trkpt lat="48.83722" lon="2.39135">
        <ele>42</ele>
        <time>2022-02-07T16:14:24.999Z</time>
      </trkpt>
      <trkpt lat="48.83721" lon="2.39129">
        <ele>42</ele>
        <time>2022-02-07T16:14:28.999Z</time>
      </trkpt>
      <trkpt lat="48.83718" lon="2.3912">
        <ele>41</ele>
        <time>2022-02-07T16:14:33.999Z</time>
      </trkpt>
      <trkpt lat="48.83718" lon="2.39114">
        <ele>41</ele>
        <time>2022-02-07T16:14:37.999Z</time>
      </trkpt>
      <trkpt lat="48.83718" lon="2.39108">
        <ele>41</ele>
        <time>2022-02-07T16:14:42.999Z</time>
      </trkpt>
      <trkpt lat="48.83717" lon="2.39101">
        <ele>41</ele>
        <time>2022-02-07T16:14:47.999Z</time>
      </trkpt>
      <trkpt lat="48.83717" lon="2.39095">
        <ele>41</ele>
        <time>2022-02-07T16:14:51.999Z</time>
      </trkpt>
      <trkpt lat="48.83715" lon="2.39088">
        <ele>41</ele>
        <time>2022-02-07T16:14:56.999Z</time>
      </trkpt>
      <trkpt lat="48.83713" lon="2.39081">
        <ele>41</ele>
        <time>2022-02-07T16:15:01.999Z</time>
      </trkpt>
      <trkpt lat="48.83712" lon="2.39075">
        <ele>41</ele>
        <time>2022-02-07T16:15:06.999Z</time>
      </trkpt>
      <trkpt lat="48.8371" lon="2.39068">
        <ele>40</ele>
        <time>2022-02-07T16:15:11.999Z</time>
      </trkpt>
      <trkpt lat="48.8371" lon="2.3906">
        <ele>40</ele>
        <time>2022-02-07T16:15:16.999Z</time>
      </trkpt>
      <trkpt lat="48.83709" lon="2.39052">
        <ele>40</ele>
        <time>2022-02-07T16:15:21.999Z</time>
      </trkpt>
      <trkpt lat="48.83708" lon="2.39045">
        <ele>40</ele>
        <time>2022-02-07T16:15:25.999Z</time>
      </trkpt>
      <trkpt lat="48.83707" lon="2.39038">
        <ele>39</ele>
        <time>2022-02-07T16:15:30.999Z</time>
      </trkpt>
      <trkpt lat="48.83706" lon="2.39032">
        <ele>39</ele>
        <time>2022-02-07T16:15:34.999Z</time>
      </trkpt>
      <trkpt lat="48.83704" lon="2.39023">
        <ele>39</ele>
        <time>2022-02-07T16:15:39.999Z</time>
      </trkpt>
      <trkpt lat="48.83702" lon="2.39018">
        <ele>39</ele>
        <time>2022-02-07T16:15:43.999Z</time>
      </trkpt>
      <trkpt lat="48.83701" lon="2.39008">
        <ele>39</ele>
        <time>2022-02-07T16:15:48.999Z</time>
      </trkpt>
      <trkpt lat="48.83699" lon="2.39">
        <ele>39</ele>
        <time>2022-02-07T16:15:53.999Z</time>
      </trkpt>
      <trkpt lat="48.83697" lon="2.38994">
        <ele>39</ele>
        <time>2022-02-07T16:15:58.999Z</time>
      </trkpt>
      <trkpt lat="48.83695" lon="2.38987">
        <ele>39</ele>
        <time>2022-02-07T16:16:03.999Z</time>
      </trkpt>
      <trkpt lat="48.83692" lon="2.38979">
        <ele>37</ele>
        <time>2022-02-07T16:16:08.999Z</time>
      </trkpt>
      <trkpt lat="48.83689" lon="2.3897">
        <ele>37</ele>
        <time>2022-02-07T16:16:13.999Z</time>
      </trkpt>
      <trkpt lat="48.83686" lon="2.38962">
        <ele>37</ele>
        <time>2022-02-07T16:16:18.999Z</time>
      </trkpt>
      <trkpt lat="48.83684" lon="2.38954">
        <ele>36</ele>
        <time>2022-02-07T16:16:23.999Z</time>
      </trkpt>
      <trkpt lat="48.83684" lon="2.38945">
        <ele>36</ele>
        <time>2022-02-07T16:16:28.999Z</time>
      </trkpt>
      <trkpt lat="48.83681" lon="2.38938">
        <ele>36</ele>
        <time>2022-02-07T16:16:33.999Z</time>
      </trkpt>
      <trkpt lat="48.83677" lon="2.38932">
        <ele>36</ele>
        <time>2022-02-07T16:16:38.999Z</time>
      </trkpt>
      <trkpt lat="48.83675" lon="2.38923">
        <ele>36</ele>
        <time>2022-02-07T16:16:43.999Z</time>
      </trkpt>
      <trkpt lat="48.83673" lon="2.38917">
        <ele>36</ele>
        <time>2022-02-07T16:16:47.999Z</time>
      </trkpt>
      <trkpt lat="48.8367" lon="2.38908">
        <ele>36</ele>
        <time>2022-02-07T16:16:52.999Z</time>
      </trkpt>
      <trkpt lat="48.83666" lon="2.38897">
        <ele>36</ele>
        <time>2022-02-07T16:16:57.999Z</time>
      </trkpt>
      <trkpt lat="48.83665" lon="2.3889">
        <ele>36</ele>
        <time>2022-02-07T16:17:01.999Z</time>
      </trkpt>
      <trkpt lat="48.83663" lon="2.38885">
        <ele>36</ele>
        <time>2022-02-07T16:17:05.999Z</time>
      </trkpt>
      <trkpt lat="48.8366" lon="2.38878">
        <ele>36</ele>
        <time>2022-02-07T16:17:10.999Z</time>
      </trkpt>
      <trkpt lat="48.83658" lon="2.3887">
        <ele>37</ele>
        <time>2022-02-07T16:17:15.999Z</time>
      </trkpt>
      <trkpt lat="48.83656" lon="2.38862">
        <ele>37</ele>
        <time>2022-02-07T16:17:20.999Z</time>
      </trkpt>
      <trkpt lat="48.83655" lon="2.38853">
        <ele>37</ele>
        <time>2022-02-07T16:17:25.999Z</time>
      </trkpt>
      <trkpt lat="48.8365" lon="2.38846">
        <ele>38</ele>
        <time>2022-02-07T16:17:30.999Z</time>
      </trkpt>
      <trkpt lat="48.83646" lon="2.38842">
        <ele>38</ele>
        <time>2022-02-07T16:17:34.999Z</time>
      </trkpt>
      <trkpt lat="48.83641" lon="2.38834">
        <ele>38</ele>
        <time>2022-02-07T16:17:39.999Z</time>
      </trkpt>
      <trkpt lat="48.83638" lon="2.38825">
        <ele>38</ele>
        <time>2022-02-07T16:17:44.999Z</time>
      </trkpt>
      <trkpt lat="48.83637" lon="2.38815">
        <ele>38</ele>
        <time>2022-02-07T16:17:49.999Z</time>
      </trkpt>
      <trkpt lat="48.83636" lon="2.38807">
        <ele>38</ele>
        <time>2022-02-07T16:17:54.999Z</time>
      </trkpt>
      <trkpt lat="48.83633" lon="2.38803">
        <ele>38</ele>
        <time>2022-02-07T16:17:58.999Z</time>
      </trkpt>
      <trkpt lat="48.8363" lon="2.38797">
        <ele>38</ele>
        <time>2022-02-07T16:18:03.999Z</time>
      </trkpt>
      <trkpt lat="48.83628" lon="2.38791">
        <ele>37</ele>
        <time>2022-02-07T16:18:08.999Z</time>
      </trkpt>
      <trkpt lat="48.83625" lon="2.38786">
        <ele>37</ele>
        <time>2022-02-07T16:18:13.999Z</time>
      </trkpt>
      <trkpt lat="48.83623" lon="2.38781">
        <ele>38</ele>
        <time>2022-02-07T16:18:17.999Z</time>
      </trkpt>
      <trkpt lat="48.8362" lon="2.38775">
        <ele>38</ele>
        <time>2022-02-07T16:18:22.999Z</time>
      </trkpt>
      <trkpt lat="48.83618" lon="2.3877">
        <ele>38</ele>
        <time>2022-02-07T16:18:26.999Z</time>
      </trkpt>
      <trkpt lat="48.83615" lon="2.38764">
        <ele>38</ele>
        <time>2022-02-07T16:18:30.999Z</time>
      </trkpt>
      <trkpt lat="48.83611" lon="2.38759">
        <ele>37</ele>
        <time>2022-02-07T16:18:35.999Z</time>
      </trkpt>
      <trkpt lat="48.83608" lon="2.38754">
        <ele>37</ele>
        <time>2022-02-07T16:18:39.999Z</time>
      </trkpt>
      <trkpt lat="48.83603" lon="2.3875">
        <ele>37</ele>
        <time>2022-02-07T16:18:44.999Z</time>
      </trkpt>
      <trkpt lat="48.836" lon="2.38743">
        <ele>37</ele>
        <time>2022-02-07T16:18:48.999Z</time>
      </trkpt>
      <trkpt lat="48.83597" lon="2.38734">
        <ele>36</ele>
        <time>2022-02-07T16:18:53.999Z</time>
      </trkpt>
      <trkpt lat="48.83593" lon="2.38724">
        <ele>36</ele>
        <time>2022-02-07T16:18:58.999Z</time>
      </trkpt>
      <trkpt lat="48.83587" lon="2.38718">
        <ele>36</ele>
        <time>2022-02-07T16:19:03.999Z</time>
      </trkpt>
      <trkpt lat="48.83583" lon="2.3871">
        <ele>36</ele>
        <time>2022-02-07T16:19:08.999Z</time>
      </trkpt>
      <trkpt lat="48.8358" lon="2.387">
        <ele>36</ele>
        <time>2022-02-07T16:19:13.999Z</time>
      </trkpt>
      <trkpt lat="48.83577" lon="2.38695">
        <ele>36</ele>
        <time>2022-02-07T16:19:17.999Z</time>
      </trkpt>
      <trkpt lat="48.83575" lon="2.38691">
        <ele>36</ele>
        <time>2022-02-07T16:19:41.999Z</time>
      </trkpt>
      <trkpt lat="48.83575" lon="2.38689">
        <ele>36</ele>
        <time>2022-02-07T16:19:45.999Z</time>
      </trkpt>
      <trkpt lat="48.83575" lon="2.38689">
        <ele>36</ele>
        <time>2022-02-07T16:19:49.999Z</time>
      </trkpt>
      <trkpt lat="48.83575" lon="2.38688">
        <ele>36</ele>
        <time>2022-02-07T16:19:54.105Z</time>
      </trkpt>
      <trkpt lat="48.83577" lon="2.38665">
        <ele>36</ele>
        <time>2022-02-07T16:19:58.999Z</time>
      </trkpt>
      <trkpt lat="48.83575" lon="2.38662">
        <ele>36</ele>
        <time>2022-02-07T16:20:03.999Z</time>
      </trkpt>
      <trkpt lat="48.8357" lon="2.38658">
        <ele>36</ele>
        <time>2022-02-07T16:20:08.999Z</time>
      </trkpt>
      <trkpt lat="48.83564" lon="2.38656">
        <ele>37</ele>
        <time>2022-02-07T16:20:13.999Z</time>
      </trkpt>
      <trkpt lat="48.83561" lon="2.3865">
        <ele>39</ele>
        <time>2022-02-07T16:20:18.999Z</time>
      </trkpt>
      <trkpt lat="48.83563" lon="2.38643">
        <ele>39</ele>
        <time>2022-02-07T16:20:22.999Z</time>
      </trkpt>
      <trkpt lat="48.83564" lon="2.38634">
        <ele>39</ele>
        <time>2022-02-07T16:20:27.999Z</time>
      </trkpt>
      <trkpt lat="48.83567" lon="2.38628">
        <ele>39</ele>
        <time>2022-02-07T16:20:32.999Z</time>
      </trkpt>
      <trkpt lat="48.83568" lon="2.38627">
        <ele>39</ele>
        <time>2022-02-07T16:20:37.999Z</time>
      </trkpt>
      <trkpt lat="48.83568" lon="2.38627">
        <ele>39</ele>
        <time>2022-02-07T16:20:47.999Z</time>
      </trkpt>
      <trkpt lat="48.83569" lon="2.38626">
        <ele>39</ele>
        <time>2022-02-07T16:20:52.999Z</time>
      </trkpt>
      <trkpt lat="48.8357" lon="2.38621">
        <ele>39</ele>
        <time>2022-02-07T16:20:57.999Z</time>
      </trkpt>
      <trkpt lat="48.8357" lon="2.38616">
        <ele>39</ele>
        <time>2022-02-07T16:21:01.999Z</time>
      </trkpt>
      <trkpt lat="48.83568" lon="2.38612">
        <ele>40</ele>
        <time>2022-02-07T16:21:05.999Z</time>
      </trkpt>
      <trkpt lat="48.83569" lon="2.38606">
        <ele>40</ele>
        <time>2022-02-07T16:21:09.999Z</time>
      </trkpt>
      <trkpt lat="48.83574" lon="2.38599">
        <ele>39</ele>
        <time>2022-02-07T16:21:14.999Z</time>
      </trkpt>
      <trkpt lat="48.83579" lon="2.38589">
        <ele>40</ele>
        <time>2022-02-07T16:21:19.999Z</time>
      </trkpt>
      <trkpt lat="48.83585" lon="2.38581">
        <ele>40</ele>
        <time>2022-02-07T16:21:24.999Z</time>
      </trkpt>
      <trkpt lat="48.8359" lon="2.38574">
        <ele>40</ele>
        <time>2022-02-07T16:21:29.999Z</time>
      </trkpt>
      <trkpt lat="48.83595" lon="2.38568">
        <ele>39</ele>
        <time>2022-02-07T16:21:34.999Z</time>
      </trkpt>
      <trkpt lat="48.83602" lon="2.38563">
        <ele>36</ele>
        <time>2022-02-07T16:21:39.999Z</time>
      </trkpt>
      <trkpt lat="48.83609" lon="2.38559">
        <ele>36</ele>
        <time>2022-02-07T16:21:44.999Z</time>
      </trkpt>
      <trkpt lat="48.83613" lon="2.38553">
        <ele>36</ele>
        <time>2022-02-07T16:21:49.999Z</time>
      </trkpt>
      <trkpt lat="48.83617" lon="2.38546">
        <ele>36</ele>
        <time>2022-02-07T16:21:53.999Z</time>
      </trkpt>
      <trkpt lat="48.83622" lon="2.3854">
        <ele>36</ele>
        <time>2022-02-07T16:21:58.999Z</time>
      </trkpt>
      <trkpt lat="48.83626" lon="2.38536">
        <ele>36</ele>
        <time>2022-02-07T16:22:02.999Z</time>
      </trkpt>
      <trkpt lat="48.83632" lon="2.38532">
        <ele>36</ele>
        <time>2022-02-07T16:22:07.999Z</time>
      </trkpt>
      <trkpt lat="48.83637" lon="2.38525">
        <ele>36</ele>
        <time>2022-02-07T16:22:12.999Z</time>
      </trkpt>
      <trkpt lat="48.83641" lon="2.38514">
        <ele>36</ele>
        <time>2022-02-07T16:22:17.999Z</time>
      </trkpt>
      <trkpt lat="48.83644" lon="2.38506">
        <ele>36</ele>
        <time>2022-02-07T16:22:22.999Z</time>
      </trkpt>
      <trkpt lat="48.83648" lon="2.38499">
        <ele>36</ele>
        <time>2022-02-07T16:22:28.104Z</time>
      </trkpt>
      <trkpt lat="48.83652" lon="2.38492">
        <ele>36</ele>
        <time>2022-02-07T16:22:32.999Z</time>
      </trkpt>
      <trkpt lat="48.83656" lon="2.38485">
        <ele>37</ele>
        <time>2022-02-07T16:22:37.999Z</time>
      </trkpt>
      <trkpt lat="48.83659" lon="2.38478">
        <ele>37</ele>
        <time>2022-02-07T16:22:42.999Z</time>
      </trkpt>
      <trkpt lat="48.83662" lon="2.38474">
        <ele>37</ele>
        <time>2022-02-07T16:22:46.999Z</time>
      </trkpt>
      <trkpt lat="48.83665" lon="2.38469">
        <ele>37</ele>
        <time>2022-02-07T16:22:50.999Z</time>
      </trkpt>
      <trkpt lat="48.83669" lon="2.38461">
        <ele>37</ele>
        <time>2022-02-07T16:22:55.999Z</time>
      </trkpt>
      <trkpt lat="48.83672" lon="2.38455">
        <ele>38</ele>
        <time>2022-02-07T16:22:59.999Z</time>
      </trkpt>
      <trkpt lat="48.83679" lon="2.38451">
        <ele>38</ele>
        <time>2022-02-07T16:23:13.999Z</time>
      </trkpt>
      <trkpt lat="48.83681" lon="2.38448">
        <ele>39</ele>
        <time>2022-02-07T16:23:17.999Z</time>
      </trkpt>
      <trkpt lat="48.83681" lon="2.38446">
        <ele>39</ele>
        <time>2022-02-07T16:23:22.999Z</time>
      </trkpt>
      <trkpt lat="48.83684" lon="2.38443">
        <ele>39</ele>
        <time>2022-02-07T16:23:27.999Z</time>
      </trkpt>
      <trkpt lat="48.83683" lon="2.38433">
        <ele>39</ele>
        <time>2022-02-07T16:23:32.999Z</time>
      </trkpt>
      <trkpt lat="48.83681" lon="2.38425">
        <ele>41</ele>
        <time>2022-02-07T16:23:37.999Z</time>
      </trkpt>
      <trkpt lat="48.83682" lon="2.38419">
        <ele>41</ele>
        <time>2022-02-07T16:23:41.999Z</time>
      </trkpt>
      <trkpt lat="48.8368" lon="2.38412">
        <ele>40</ele>
        <time>2022-02-07T16:23:45.999Z</time>
      </trkpt>
      <trkpt lat="48.83679" lon="2.38405">
        <ele>40</ele>
        <time>2022-02-07T16:23:50.100Z</time>
      </trkpt>
      <trkpt lat="48.8368" lon="2.38396">
        <ele>42</ele>
        <time>2022-02-07T16:23:54.999Z</time>
      </trkpt>
      <trkpt lat="48.83681" lon="2.38391">
        <ele>43</ele>
        <time>2022-02-07T16:23:59.101Z</time>
      </trkpt>
      <trkpt lat="48.83683" lon="2.38385">
        <ele>43</ele>
        <time>2022-02-07T16:24:03.999Z</time>
      </trkpt>
      <trkpt lat="48.83683" lon="2.38378">
        <ele>43</ele>
        <time>2022-02-07T16:24:07.999Z</time>
      </trkpt>
      <trkpt lat="48.83685" lon="2.3837">
        <ele>44</ele>
        <time>2022-02-07T16:24:12.999Z</time>
      </trkpt>
      <trkpt lat="48.83688" lon="2.38362">
        <ele>44</ele>
        <time>2022-02-07T16:24:17.999Z</time>
      </trkpt>
      <trkpt lat="48.83692" lon="2.38357">
        <ele>44</ele>
        <time>2022-02-07T16:24:21.999Z</time>
      </trkpt>
      <trkpt lat="48.83696" lon="2.38347">
        <ele>43</ele>
        <time>2022-02-07T16:24:26.999Z</time>
      </trkpt>
      <trkpt lat="48.83699" lon="2.38342">
        <ele>43</ele>
        <time>2022-02-07T16:24:31.999Z</time>
      </trkpt>
      <trkpt lat="48.83702" lon="2.38337">
        <ele>43</ele>
        <time>2022-02-07T16:24:36.999Z</time>
      </trkpt>
      <trkpt lat="48.83705" lon="2.38329">
        <ele>43</ele>
        <time>2022-02-07T16:24:41.999Z</time>
      </trkpt>
      <trkpt lat="48.83709" lon="2.38323">
        <ele>47</ele>
        <time>2022-02-07T16:24:46.999Z</time>
      </trkpt>
      <trkpt lat="48.83713" lon="2.38316">
        <ele>46</ele>
        <time>2022-02-07T16:24:51.999Z</time>
      </trkpt>
      <trkpt lat="48.83718" lon="2.38309">
        <ele>46</ele>
        <time>2022-02-07T16:24:56.999Z</time>
      </trkpt>
      <trkpt lat="48.83723" lon="2.38303">
        <ele>46</ele>
        <time>2022-02-07T16:25:01.999Z</time>
      </trkpt>
      <trkpt lat="48.83726" lon="2.38296">
        <ele>46</ele>
        <time>2022-02-07T16:25:05.999Z</time>
      </trkpt>
      <trkpt lat="48.8373" lon="2.38289">
        <ele>46</ele>
        <time>2022-02-07T16:25:10.999Z</time>
      </trkpt>
      <trkpt lat="48.83734" lon="2.38282">
        <ele>46</ele>
        <time>2022-02-07T16:25:15.999Z</time>
      </trkpt>
      <trkpt lat="48.83737" lon="2.38275">
        <ele>42</ele>
        <time>2022-02-07T16:25:20.999Z</time>
      </trkpt>
      <trkpt lat="48.83741" lon="2.38268">
        <ele>42</ele>
        <time>2022-02-07T16:25:25.999Z</time>
      </trkpt>
      <trkpt lat="48.83747" lon="2.38266">
        <ele>42</ele>
        <time>2022-02-07T16:25:30.999Z</time>
      </trkpt>
      <trkpt lat="48.83752" lon="2.38263">
        <ele>43</ele>
        <time>2022-02-07T16:25:34.999Z</time>
      </trkpt>
      <trkpt lat="48.83757" lon="2.38257">
        <ele>43</ele>
        <time>2022-02-07T16:25:39.999Z</time>
      </trkpt>
      <trkpt lat="48.83762" lon="2.38252">
        <ele>43</ele>
        <time>2022-02-07T16:25:44.999Z</time>
      </trkpt>
      <trkpt lat="48.83766" lon="2.38247">
        <ele>40</ele>
        <time>2022-02-07T16:25:48.999Z</time>
      </trkpt>
      <trkpt lat="48.83771" lon="2.38241">
        <ele>40</ele>
        <time>2022-02-07T16:25:53.999Z</time>
      </trkpt>
      <trkpt lat="48.83775" lon="2.38237">
        <ele>40</ele>
        <time>2022-02-07T16:25:57.999Z</time>
      </trkpt>
      <trkpt lat="48.8378" lon="2.38231">
        <ele>42</ele>
        <time>2022-02-07T16:26:02.999Z</time>
      </trkpt>
      <trkpt lat="48.83784" lon="2.38226">
        <ele>42</ele>
        <time>2022-02-07T16:26:06.999Z</time>
      </trkpt>
      <trkpt lat="48.83789" lon="2.38221">
        <ele>42</ele>
        <time>2022-02-07T16:26:11.999Z</time>
      </trkpt>
      <trkpt lat="48.83793" lon="2.38214">
        <ele>41</ele>
        <time>2022-02-07T16:26:16.999Z</time>
      </trkpt>
      <trkpt lat="48.83797" lon="2.38209">
        <ele>41</ele>
        <time>2022-02-07T16:26:20.999Z</time>
      </trkpt>
      <trkpt lat="48.83801" lon="2.38204">
        <ele>40</ele>
        <time>2022-02-07T16:26:25.999Z</time>
      </trkpt>
      <trkpt lat="48.83806" lon="2.38198">
        <ele>40</ele>
        <time>2022-02-07T16:26:30.999Z</time>
      </trkpt>
      <trkpt lat="48.8381" lon="2.38191">
        <ele>40</ele>
        <time>2022-02-07T16:26:35.999Z</time>
      </trkpt>
      <trkpt lat="48.83813" lon="2.38185">
        <ele>40</ele>
        <time>2022-02-07T16:26:39.999Z</time>
      </trkpt>
      <trkpt lat="48.83818" lon="2.38178">
        <ele>40</ele>
        <time>2022-02-07T16:26:44.999Z</time>
      </trkpt>
      <trkpt lat="48.83822" lon="2.38173">
        <ele>41</ele>
        <time>2022-02-07T16:26:48.999Z</time>
      </trkpt>
      <trkpt lat="48.83827" lon="2.38167">
        <ele>41</ele>
        <time>2022-02-07T16:26:53.999Z</time>
      </trkpt>
      <trkpt lat="48.83831" lon="2.3816">
        <ele>41</ele>
        <time>2022-02-07T16:26:58.999Z</time>
      </trkpt>
      <trkpt lat="48.83835" lon="2.38154">
        <ele>41</ele>
        <time>2022-02-07T16:27:04.106Z</time>
      </trkpt>
      <trkpt lat="48.8384" lon="2.38148">
        <ele>41</ele>
        <time>2022-02-07T16:27:08.999Z</time>
      </trkpt>
      <trkpt lat="48.83844" lon="2.38143">
        <ele>41</ele>
        <time>2022-02-07T16:27:12.999Z</time>
      </trkpt>
      <trkpt lat="48.83849" lon="2.38138">
        <ele>46</ele>
        <time>2022-02-07T16:27:17.999Z</time>
      </trkpt>
      <trkpt lat="48.83854" lon="2.38129">
        <ele>46</ele>
        <time>2022-02-07T16:27:22.999Z</time>
      </trkpt>
      <trkpt lat="48.83859" lon="2.38123">
        <ele>44</ele>
        <time>2022-02-07T16:27:27.999Z</time>
      </trkpt>
      <trkpt lat="48.83862" lon="2.38116">
        <ele>44</ele>
        <time>2022-02-07T16:27:32.999Z</time>
      </trkpt>
      <trkpt lat="48.83866" lon="2.38114">
        <ele>44</ele>
        <time>2022-02-07T16:27:37.999Z</time>
      </trkpt>
      <trkpt lat="48.83866" lon="2.38114">
        <ele>44</ele>
        <time>2022-02-07T16:27:41.999Z</time>
      </trkpt>
      <trkpt lat="48.8387" lon="2.38108">
        <ele>44</ele>
        <time>2022-02-07T16:27:46.999Z</time>
      </trkpt>
      <trkpt lat="48.83874" lon="2.38104">
        <ele>44</ele>
        <time>2022-02-07T16:27:50.999Z</time>
      </trkpt>
      <trkpt lat="48.8388" lon="2.381">
        <ele>48</ele>
        <time>2022-02-07T16:27:55.999Z</time>
      </trkpt>
      <trkpt lat="48.83886" lon="2.38091">
        <ele>44</ele>
        <time>2022-02-07T16:28:00.999Z</time>
      </trkpt>
      <trkpt lat="48.8389" lon="2.38086">
        <ele>44</ele>
        <time>2022-02-07T16:28:04.999Z</time>
      </trkpt>
      <trkpt lat="48.83896" lon="2.38081">
        <ele>44</ele>
        <time>2022-02-07T16:28:09.999Z</time>
      </trkpt>
      <trkpt lat="48.83901" lon="2.38079">
        <ele>44</ele>
        <time>2022-02-07T16:28:13.999Z</time>
      </trkpt>
      <trkpt lat="48.83905" lon="2.38075">
        <ele>44</ele>
        <time>2022-02-07T16:28:17.999Z</time>
      </trkpt>
      <trkpt lat="48.8391" lon="2.38069">
        <ele>42</ele>
        <time>2022-02-07T16:28:22.999Z</time>
      </trkpt>
      <trkpt lat="48.83914" lon="2.38064">
        <ele>42</ele>
        <time>2022-02-07T16:28:27.999Z</time>
      </trkpt>
      <trkpt lat="48.83919" lon="2.38059">
        <ele>42</ele>
        <time>2022-02-07T16:28:32.999Z</time>
      </trkpt>
      <trkpt lat="48.83922" lon="2.38054">
        <ele>42</ele>
        <time>2022-02-07T16:28:36.999Z</time>
      </trkpt>
      <trkpt lat="48.83925" lon="2.38048">
        <ele>42</ele>
        <time>2022-02-07T16:28:40.999Z</time>
      </trkpt>
      <trkpt lat="48.8393" lon="2.38043">
        <ele>42</ele>
        <time>2022-02-07T16:28:45.999Z</time>
      </trkpt>
      <trkpt lat="48.83933" lon="2.38038">
        <ele>45</ele>
        <time>2022-02-07T16:28:49.999Z</time>
      </trkpt>
      <trkpt lat="48.83938" lon="2.38031">
        <ele>45</ele>
        <time>2022-02-07T16:28:53.999Z</time>
      </trkpt>
      <trkpt lat="48.83943" lon="2.38026">
        <ele>45</ele>
        <time>2022-02-07T16:28:58.999Z</time>
      </trkpt>
      <trkpt lat="48.83947" lon="2.3802">
        <ele>45</ele>
        <time>2022-02-07T16:29:02.999Z</time>
      </trkpt>
      <trkpt lat="48.83951" lon="2.38016">
        <ele>45</ele>
        <time>2022-02-07T16:29:07.111Z</time>
      </trkpt>
      <trkpt lat="48.83957" lon="2.38011">
        <ele>45</ele>
        <time>2022-02-07T16:29:11.999Z</time>
      </trkpt>
      <trkpt lat="48.8396" lon="2.38008">
        <ele>46</ele>
        <time>2022-02-07T16:29:15.999Z</time>
      </trkpt>
      <trkpt lat="48.83965" lon="2.38002">
        <ele>46</ele>
        <time>2022-02-07T16:29:20.999Z</time>
      </trkpt>
      <trkpt lat="48.83968" lon="2.37996">
        <ele>46</ele>
        <time>2022-02-07T16:29:25.999Z</time>
      </trkpt>
      <trkpt lat="48.83973" lon="2.3799">
        <ele>46</ele>
        <time>2022-02-07T16:29:30.999Z</time>
      </trkpt>
      <trkpt lat="48.83976" lon="2.37986">
        <ele>48</ele>
        <time>2022-02-07T16:29:34.999Z</time>
      </trkpt>
      <trkpt lat="48.8398" lon="2.37979">
        <ele>48</ele>
        <time>2022-02-07T16:29:40.106Z</time>
      </trkpt>
      <trkpt lat="48.83984" lon="2.37974">
        <ele>48</ele>
        <time>2022-02-07T16:29:44.999Z</time>
      </trkpt>
      <trkpt lat="48.83988" lon="2.3797">
        <ele>45</ele>
        <time>2022-02-07T16:29:48.999Z</time>
      </trkpt>
      <trkpt lat="48.83994" lon="2.37968">
        <ele>45</ele>
        <time>2022-02-07T16:29:53.999Z</time>
      </trkpt>
      <trkpt lat="48.84" lon="2.37965">
        <ele>45</ele>
        <time>2022-02-07T16:29:58.999Z</time>
      </trkpt>
      <trkpt lat="48.84004" lon="2.37963">
        <ele>45</ele>
        <time>2022-02-07T16:30:02.999Z</time>
      </trkpt>
      <trkpt lat="48.84009" lon="2.37959">
        <ele>45</ele>
        <time>2022-02-07T16:30:07.999Z</time>
      </trkpt>
      <trkpt lat="48.84014" lon="2.37955">
        <ele>48</ele>
        <time>2022-02-07T16:30:12.999Z</time>
      </trkpt>
      <trkpt lat="48.84017" lon="2.37951">
        <ele>47</ele>
        <time>2022-02-07T16:30:16.999Z</time>
      </trkpt>
      <trkpt lat="48.84021" lon="2.3795">
        <ele>47</ele>
        <time>2022-02-07T16:30:20.999Z</time>
      </trkpt>
      <trkpt lat="48.84027" lon="2.37954">
        <ele>47</ele>
        <time>2022-02-07T16:30:25.999Z</time>
      </trkpt>
      <trkpt lat="48.8403" lon="2.3796">
        <ele>44</ele>
        <time>2022-02-07T16:30:29.999Z</time>
      </trkpt>
      <trkpt lat="48.84032" lon="2.3797">
        <ele>44</ele>
        <time>2022-02-07T16:30:34.999Z</time>
      </trkpt>
      <trkpt lat="48.84032" lon="2.37976">
        <ele>44</ele>
        <time>2022-02-07T16:30:38.999Z</time>
      </trkpt>
      <trkpt lat="48.84034" lon="2.3799">
        <ele>40</ele>
        <time>2022-02-07T16:31:05.999Z</time>
      </trkpt>
      <trkpt lat="48.84034" lon="2.3799">
        <ele>40</ele>
        <time>2022-02-07T16:31:10.999Z</time>
      </trkpt>
      <trkpt lat="48.84034" lon="2.3799">
        <ele>40</ele>
        <time>2022-02-07T16:31:15.999Z</time>
      </trkpt>
      <trkpt lat="48.84037" lon="2.37993">
        <ele>40</ele>
        <time>2022-02-07T16:31:20.999Z</time>
      </trkpt>
      <trkpt lat="48.84043" lon="2.37993">
        <ele>40</ele>
        <time>2022-02-07T16:31:25.999Z</time>
      </trkpt>
      <trkpt lat="48.84048" lon="2.37988">
        <ele>40</ele>
        <time>2022-02-07T16:31:30.999Z</time>
      </trkpt>
      <trkpt lat="48.84049" lon="2.37979">
        <ele>43</ele>
        <time>2022-02-07T16:31:35.999Z</time>
      </trkpt>
      <trkpt lat="48.84051" lon="2.37971">
        <ele>43</ele>
        <time>2022-02-07T16:31:40.999Z</time>
      </trkpt>
      <trkpt lat="48.84055" lon="2.37963">
        <ele>43</ele>
        <time>2022-02-07T16:31:45.999Z</time>
      </trkpt>
      <trkpt lat="48.84057" lon="2.37954">
        <ele>47</ele>
        <time>2022-02-07T16:31:50.999Z</time>
      </trkpt>
      <trkpt lat="48.84058" lon="2.37944">
        <ele>47</ele>
        <time>2022-02-07T16:31:55.999Z</time>
      </trkpt>
      <trkpt lat="48.84059" lon="2.37937">
        <ele>47</ele>
        <time>2022-02-07T16:31:59.999Z</time>
      </trkpt>
      <trkpt lat="48.8406" lon="2.3793">
        <ele>52</ele>
        <time>2022-02-07T16:32:03.999Z</time>
      </trkpt>
      <trkpt lat="48.8406" lon="2.37922">
        <ele>52</ele>
        <time>2022-02-07T16:32:08.999Z</time>
      </trkpt>
      <trkpt lat="48.84062" lon="2.37914">
        <ele>52</ele>
        <time>2022-02-07T16:32:12.999Z</time>
      </trkpt>
      <trkpt lat="48.84063" lon="2.37905">
        <ele>52</ele>
        <time>2022-02-07T16:32:17.999Z</time>
      </trkpt>
      <trkpt lat="48.84066" lon="2.37898">
        <ele>54</ele>
        <time>2022-02-07T16:32:22.999Z</time>
      </trkpt>
      <trkpt lat="48.8407" lon="2.37893">
        <ele>46</ele>
        <time>2022-02-07T16:32:26.999Z</time>
      </trkpt>
      <trkpt lat="48.84074" lon="2.37887">
        <ele>46</ele>
        <time>2022-02-07T16:32:31.999Z</time>
      </trkpt>
      <trkpt lat="48.84077" lon="2.37883">
        <ele>46</ele>
        <time>2022-02-07T16:32:35.999Z</time>
      </trkpt>
      <trkpt lat="48.84081" lon="2.37875">
        <ele>46</ele>
        <time>2022-02-07T16:32:40.999Z</time>
      </trkpt>
      <trkpt lat="48.84084" lon="2.37869">
        <ele>41</ele>
        <time>2022-02-07T16:32:45.999Z</time>
      </trkpt>
      <trkpt lat="48.84087" lon="2.37864">
        <ele>41</ele>
        <time>2022-02-07T16:32:49.999Z</time>
      </trkpt>
      <trkpt lat="48.84091" lon="2.37859">
        <ele>41</ele>
        <time>2022-02-07T16:32:54.999Z</time>
      </trkpt>
      <trkpt lat="48.84095" lon="2.37854">
        <ele>41</ele>
        <time>2022-02-07T16:32:58.999Z</time>
      </trkpt>
      <trkpt lat="48.841" lon="2.37849">
        <ele>37</ele>
        <time>2022-02-07T16:33:03.999Z</time>
      </trkpt>
      <trkpt lat="48.84103" lon="2.37844">
        <ele>36</ele>
        <time>2022-02-07T16:33:07.999Z</time>
      </trkpt>
      <trkpt lat="48.84108" lon="2.3784">
        <ele>36</ele>
        <time>2022-02-07T16:33:12.999Z</time>
      </trkpt>
      <trkpt lat="48.84113" lon="2.37834">
        <ele>36</ele>
        <time>2022-02-07T16:33:17.999Z</time>
      </trkpt>
      <trkpt lat="48.84117" lon="2.37827">
        <ele>36</ele>
        <time>2022-02-07T16:33:22.999Z</time>
      </trkpt>
      <trkpt lat="48.84122" lon="2.37822">
        <ele>36</ele>
        <time>2022-02-07T16:33:27.999Z</time>
      </trkpt>
      <trkpt lat="48.84127" lon="2.37817">
        <ele>40</ele>
        <time>2022-02-07T16:33:32.999Z</time>
      </trkpt>
      <trkpt lat="48.84131" lon="2.37812">
        <ele>40</ele>
        <time>2022-02-07T16:33:36.999Z</time>
      </trkpt>
      <trkpt lat="48.84136" lon="2.37807">
        <ele>40</ele>
        <time>2022-02-07T16:33:41.999Z</time>
      </trkpt>
      <trkpt lat="48.8414" lon="2.37803">
        <ele>40</ele>
        <time>2022-02-07T16:33:45.999Z</time>
      </trkpt>
      <trkpt lat="48.84144" lon="2.37798">
        <ele>40</ele>
        <time>2022-02-07T16:33:49.999Z</time>
      </trkpt>
      <trkpt lat="48.84148" lon="2.37793">
        <ele>40</ele>
        <time>2022-02-07T16:33:53.999Z</time>
      </trkpt>
      <trkpt lat="48.84153" lon="2.37791">
        <ele>38</ele>
        <time>2022-02-07T16:33:58.999Z</time>
      </trkpt>
      <trkpt lat="48.84158" lon="2.37783">
        <ele>38</ele>
        <time>2022-02-07T16:34:03.999Z</time>
      </trkpt>
      <trkpt lat="48.84162" lon="2.37775">
        <ele>38</ele>
        <time>2022-02-07T16:34:08.999Z</time>
      </trkpt>
      <trkpt lat="48.84166" lon="2.37771">
        <ele>38</ele>
        <time>2022-02-07T16:34:13.999Z</time>
      </trkpt>
      <trkpt lat="48.84171" lon="2.37764">
        <ele>38</ele>
        <time>2022-02-07T16:34:18.999Z</time>
      </trkpt>
      <trkpt lat="48.84173" lon="2.37756">
        <ele>38</ele>
        <time>2022-02-07T16:34:22.999Z</time>
      </trkpt>
      <trkpt lat="48.84175" lon="2.37749">
        <ele>38</ele>
        <time>2022-02-07T16:34:26.999Z</time>
      </trkpt>
      <trkpt lat="48.84179" lon="2.37741">
        <ele>38</ele>
        <time>2022-02-07T16:34:31.999Z</time>
      </trkpt>
      <trkpt lat="48.84183" lon="2.37734">
        <ele>35</ele>
        <time>2022-02-07T16:34:36.999Z</time>
      </trkpt>
      <trkpt lat="48.84185" lon="2.37726">
        <ele>35</ele>
        <time>2022-02-07T16:34:41.999Z</time>
      </trkpt>
      <trkpt lat="48.84189" lon="2.37717">
        <ele>35</ele>
        <time>2022-02-07T16:34:46.999Z</time>
      </trkpt>
      <trkpt lat="48.84193" lon="2.37711">
        <ele>35</ele>
        <time>2022-02-07T16:34:50.999Z</time>
      </trkpt>
      <trkpt lat="48.84196" lon="2.37704">
        <ele>34</ele>
        <time>2022-02-07T16:34:55.999Z</time>
      </trkpt>
      <trkpt lat="48.84199" lon="2.37696">
        <ele>34</ele>
        <time>2022-02-07T16:35:00.999Z</time>
      </trkpt>
      <trkpt lat="48.84203" lon="2.3769">
        <ele>34</ele>
        <time>2022-02-07T16:35:05.999Z</time>
      </trkpt>
      <trkpt lat="48.84207" lon="2.37686">
        <ele>34</ele>
        <time>2022-02-07T16:35:09.999Z</time>
      </trkpt>
      <trkpt lat="48.84211" lon="2.3768">
        <ele>35</ele>
        <time>2022-02-07T16:35:14.999Z</time>
      </trkpt>
      <trkpt lat="48.84214" lon="2.37675">
        <ele>35</ele>
        <time>2022-02-07T16:35:18.999Z</time>
      </trkpt>
      <trkpt lat="48.84218" lon="2.37669">
        <ele>35</ele>
        <time>2022-02-07T16:35:23.999Z</time>
      </trkpt>
      <trkpt lat="48.84224" lon="2.37667">
        <ele>35</ele>
        <time>2022-02-07T16:35:28.999Z</time>
      </trkpt>
      <trkpt lat="48.84228" lon="2.3766">
        <ele>35</ele>
        <time>2022-02-07T16:35:33.999Z</time>
      </trkpt>
      <trkpt lat="48.84231" lon="2.37649">
        <ele>36</ele>
        <time>2022-02-07T16:35:38.999Z</time>
      </trkpt>
      <trkpt lat="48.84234" lon="2.37636">
        <ele>36</ele>
        <time>2022-02-07T16:35:43.999Z</time>
      </trkpt>
      <trkpt lat="48.84237" lon="2.37623">
        <ele>36</ele>
        <time>2022-02-07T16:35:48.999Z</time>
      </trkpt>
      <trkpt lat="48.84239" lon="2.37617">
        <ele>36</ele>
        <time>2022-02-07T16:35:52.999Z</time>
      </trkpt>
      <trkpt lat="48.84243" lon="2.37612">
        <ele>36</ele>
        <time>2022-02-07T16:35:57.999Z</time>
      </trkpt>
      <trkpt lat="48.84248" lon="2.37612">
        <ele>36</ele>
        <time>2022-02-07T16:36:02.999Z</time>
      </trkpt>
      <trkpt lat="48.84253" lon="2.37614">
        <ele>36</ele>
        <time>2022-02-07T16:36:07.999Z</time>
      </trkpt>
      <trkpt lat="48.84258" lon="2.37615">
        <ele>36</ele>
        <time>2022-02-07T16:36:12.999Z</time>
      </trkpt>
      <trkpt lat="48.84263" lon="2.37613">
        <ele>36</ele>
        <time>2022-02-07T16:36:17.999Z</time>
      </trkpt>
      <trkpt lat="48.84267" lon="2.37609">
        <ele>36</ele>
        <time>2022-02-07T16:36:21.999Z</time>
      </trkpt>
      <trkpt lat="48.84272" lon="2.37605">
        <ele>36</ele>
        <time>2022-02-07T16:36:26.999Z</time>
      </trkpt>
      <trkpt lat="48.84277" lon="2.376">
        <ele>36</ele>
        <time>2022-02-07T16:36:31.999Z</time>
      </trkpt>
      <trkpt lat="48.84281" lon="2.37594">
        <ele>36</ele>
        <time>2022-02-07T16:36:36.999Z</time>
      </trkpt>
      <trkpt lat="48.84284" lon="2.37587">
        <ele>36</ele>
        <time>2022-02-07T16:36:41.999Z</time>
      </trkpt>
      <trkpt lat="48.84287" lon="2.37581">
        <ele>36</ele>
        <time>2022-02-07T16:36:45.999Z</time>
      </trkpt>
      <trkpt lat="48.84292" lon="2.37573">
        <ele>36</ele>
        <time>2022-02-07T16:36:50.999Z</time>
      </trkpt>
      <trkpt lat="48.84294" lon="2.37566">
        <ele>40</ele>
        <time>2022-02-07T16:36:54.999Z</time>
      </trkpt>
      <trkpt lat="48.84298" lon="2.37556">
        <ele>40</ele>
        <time>2022-02-07T16:36:59.999Z</time>
      </trkpt>
      <trkpt lat="48.84301" lon="2.37549">
        <ele>40</ele>
        <time>2022-02-07T16:37:03.999Z</time>
      </trkpt>
      <trkpt lat="48.84305" lon="2.37542">
        <ele>40</ele>
        <time>2022-02-07T16:37:08.999Z</time>
      </trkpt>
      <trkpt lat="48.8431" lon="2.37543">
        <ele>40</ele>
        <time>2022-02-07T16:37:13.999Z</time>
      </trkpt>
      <trkpt lat="48.84313" lon="2.37536">
        <ele>43</ele>
        <time>2022-02-07T16:37:17.999Z</time>
      </trkpt>
      <trkpt lat="48.84315" lon="2.37526">
        <ele>43</ele>
        <time>2022-02-07T16:37:22.999Z</time>
      </trkpt>
      <trkpt lat="48.84318" lon="2.37515">
        <ele>43</ele>
        <time>2022-02-07T16:37:27.999Z</time>
      </trkpt>
      <trkpt lat="48.84322" lon="2.37513">
        <ele>47</ele>
        <time>2022-02-07T16:37:31.999Z</time>
      </trkpt>
      <trkpt lat="48.84327" lon="2.37509">
        <ele>47</ele>
        <time>2022-02-07T16:37:36.999Z</time>
      </trkpt>
      <trkpt lat="48.84332" lon="2.37512">
        <ele>47</ele>
        <time>2022-02-07T16:37:41.999Z</time>
      </trkpt>
      <trkpt lat="48.84337" lon="2.37514">
        <ele>44</ele>
        <time>2022-02-07T16:37:46.999Z</time>
      </trkpt>
      <trkpt lat="48.84341" lon="2.37515">
        <ele>44</ele>
        <time>2022-02-07T16:37:50.999Z</time>
      </trkpt>
      <trkpt lat="48.84345" lon="2.37516">
        <ele>44</ele>
        <time>2022-02-07T16:37:54.999Z</time>
      </trkpt>
      <trkpt lat="48.84349" lon="2.37519">
        <ele>43</ele>
        <time>2022-02-07T16:37:58.999Z</time>
      </trkpt>
      <trkpt lat="48.84352" lon="2.37515">
        <ele>43</ele>
        <time>2022-02-07T16:38:03.999Z</time>
      </trkpt>
      <trkpt lat="48.84348" lon="2.37508">
        <ele>45</ele>
        <time>2022-02-07T16:38:08.999Z</time>
      </trkpt>
      <trkpt lat="48.84344" lon="2.37503">
        <ele>47</ele>
        <time>2022-02-07T16:38:12.999Z</time>
      </trkpt>
      <trkpt lat="48.8434" lon="2.37506">
        <ele>47</ele>
        <time>2022-02-07T16:38:17.999Z</time>
      </trkpt>
    </trkseg>
  </trk>
</gpx>